<?xml version="1.0" encoding="UTF-8"?>
<gpx xmlns="http://www.topografix.com/GPX/1/1" version="1.1" xmlns:xsi="http://www.w3.org/2001/XMLSchema-instance" xsi:schemaLocation="http://www.topografix.com/GPX/1/1 http://www.topografix.com/GPX/1/1/gpx.xsd" creator="MotionXGPSFull 24.4 Build 5112 R64">
<trk>
<name><![CDATA[VRS Set Tape]]></name>
<desc><![CDATA[Nov 25, 2017 10:48 am]]></desc>
<trkseg>
<trkpt lat="22.2572159" lon="114.2324665">
<ele>127.875</ele>
<time>2017-11-25T02:48:35.559Z</time>
</trkpt>
<trkpt lat="22.2572159" lon="114.2324665">
<ele>127.613</ele>
<time>2017-11-25T02:48:43.085Z</time>
</trkpt>
<trkpt lat="22.2572731" lon="114.2324876">
<ele>127.565</ele>
<time>2017-11-25T02:48:53.185Z</time>
</trkpt>
<trkpt lat="22.2573603" lon="114.2325372">
<ele>127.742</ele>
<time>2017-11-25T02:49:02.857Z</time>
</trkpt>
<trkpt lat="22.2574595" lon="114.2325245">
<ele>127.710</ele>
<time>2017-11-25T02:49:11.659Z</time>
</trkpt>
<trkpt lat="22.2575607" lon="114.2325566">
<ele>127.069</ele>
<time>2017-11-25T02:49:20.165Z</time>
</trkpt>
<trkpt lat="22.2576606" lon="114.2325929">
<ele>123.949</ele>
<time>2017-11-25T02:49:26.761Z</time>
</trkpt>
<trkpt lat="22.2577479" lon="114.2326297">
<ele>122.763</ele>
<time>2017-11-25T02:49:32.373Z</time>
</trkpt>
<trkpt lat="22.2578376" lon="114.2326705">
<ele>120.874</ele>
<time>2017-11-25T02:49:38.527Z</time>
</trkpt>
<trkpt lat="22.2579281" lon="114.2327099">
<ele>117.962</ele>
<time>2017-11-25T02:49:45.560Z</time>
</trkpt>
<trkpt lat="22.2580107" lon="114.2327587">
<ele>111.263</ele>
<time>2017-11-25T02:49:53.139Z</time>
</trkpt>
<trkpt lat="22.2580886" lon="114.2328103">
<ele>103.615</ele>
<time>2017-11-25T02:50:01.012Z</time>
</trkpt>
<trkpt lat="22.2580886" lon="114.2328103">
<ele>99.005</ele>
<time>2017-11-25T02:50:06.012Z</time>
</trkpt>
<trkpt lat="22.2580886" lon="114.2328103">
<ele>97.712</ele>
<time>2017-11-25T02:51:39.101Z</time>
</trkpt>
<trkpt lat="22.2581513" lon="114.2326978">
<ele>98.017</ele>
<time>2017-11-25T02:51:49.010Z</time>
</trkpt>
<trkpt lat="22.2581513" lon="114.2326978">
<ele>98.433</ele>
<time>2017-11-25T02:51:58.010Z</time>
</trkpt>
<trkpt lat="22.2581513" lon="114.2326978">
<ele>98.406</ele>
<time>2017-11-25T02:56:03.163Z</time>
</trkpt>
<trkpt lat="22.2582934" lon="114.2327096">
<ele>98.131</ele>
<time>2017-11-25T02:56:27.268Z</time>
</trkpt>
<trkpt lat="22.2583824" lon="114.2327308">
<ele>94.411</ele>
<time>2017-11-25T02:56:37.010Z</time>
</trkpt>
<trkpt lat="22.2583824" lon="114.2327308">
<ele>85.168</ele>
<time>2017-11-25T02:56:39.009Z</time>
</trkpt>
<trkpt lat="22.2583824" lon="114.2327308">
<ele>77.503</ele>
<time>2017-11-25T02:57:11.009Z</time>
</trkpt>
<trkpt lat="22.2583824" lon="114.2327308">
<ele>77.607</ele>
<time>2017-11-25T02:57:11.109Z</time>
</trkpt>
<trkpt lat="22.2584652" lon="114.2326851">
<ele>80.555</ele>
<time>2017-11-25T02:57:22.008Z</time>
</trkpt>
<trkpt lat="22.2584652" lon="114.2326851">
<ele>80.780</ele>
<time>2017-11-25T02:57:25.008Z</time>
</trkpt>
<trkpt lat="22.2584652" lon="114.2326851">
<ele>79.472</ele>
<time>2017-11-25T02:57:27.942Z</time>
</trkpt>
<trkpt lat="22.2585521" lon="114.2327428">
<ele>79.205</ele>
<time>2017-11-25T02:57:43.196Z</time>
</trkpt>
<trkpt lat="22.2586533" lon="114.2327443">
<ele>78.919</ele>
<time>2017-11-25T02:57:51.408Z</time>
</trkpt>
<trkpt lat="22.2587418" lon="114.2327692">
<ele>76.989</ele>
<time>2017-11-25T02:57:58.128Z</time>
</trkpt>
<trkpt lat="22.2588176" lon="114.2326963">
<ele>74.442</ele>
<time>2017-11-25T02:58:05.887Z</time>
</trkpt>
<trkpt lat="22.2588472" lon="114.2326034">
<ele>73.054</ele>
<time>2017-11-25T02:58:13.305Z</time>
</trkpt>
<trkpt lat="22.2589205" lon="114.2325413">
<ele>73.088</ele>
<time>2017-11-25T02:58:20.748Z</time>
</trkpt>
<trkpt lat="22.2590073" lon="114.2325085">
<ele>74.016</ele>
<time>2017-11-25T02:58:27.888Z</time>
</trkpt>
<trkpt lat="22.2590995" lon="114.2324536">
<ele>75.159</ele>
<time>2017-11-25T02:58:36.192Z</time>
</trkpt>
<trkpt lat="22.2591871" lon="114.2324235">
<ele>75.906</ele>
<time>2017-11-25T02:58:44.007Z</time>
</trkpt>
<trkpt lat="22.2591871" lon="114.2324235">
<ele>76.065</ele>
<time>2017-11-25T02:58:45.007Z</time>
</trkpt>
<trkpt lat="22.2591871" lon="114.2324235">
<ele>75.944</ele>
<time>2017-11-25T02:58:48.547Z</time>
</trkpt>
<trkpt lat="22.2591871" lon="114.2324235">
<ele>75.871</ele>
<time>2017-11-25T02:58:58.006Z</time>
</trkpt>
<trkpt lat="22.2591871" lon="114.2324235">
<ele>75.906</ele>
<time>2017-11-25T02:58:58.106Z</time>
</trkpt>
<trkpt lat="22.2590793" lon="114.2325256">
<ele>75.875</ele>
<time>2017-11-25T02:59:18.633Z</time>
</trkpt>
<trkpt lat="22.2591605" lon="114.2324748">
<ele>75.813</ele>
<time>2017-11-25T02:59:25.558Z</time>
</trkpt>
<trkpt lat="22.2592431" lon="114.2324137">
<ele>75.913</ele>
<time>2017-11-25T02:59:31.745Z</time>
</trkpt>
<trkpt lat="22.2593219" lon="114.2323668">
<ele>76.306</ele>
<time>2017-11-25T02:59:37.982Z</time>
</trkpt>
<trkpt lat="22.2594118" lon="114.2323599">
<ele>76.749</ele>
<time>2017-11-25T02:59:43.921Z</time>
</trkpt>
<trkpt lat="22.2595042" lon="114.2323627">
<ele>76.949</ele>
<time>2017-11-25T02:59:48.951Z</time>
</trkpt>
<trkpt lat="22.2595974" lon="114.2324017">
<ele>76.934</ele>
<time>2017-11-25T02:59:53.999Z</time>
</trkpt>
<trkpt lat="22.2596929" lon="114.2324169">
<ele>76.833</ele>
<time>2017-11-25T02:59:59.634Z</time>
</trkpt>
<trkpt lat="22.2597797" lon="114.2323641">
<ele>76.676</ele>
<time>2017-11-25T03:00:06.005Z</time>
</trkpt>
<trkpt lat="22.2597797" lon="114.2323641">
<ele>76.476</ele>
<time>2017-11-25T03:00:14.005Z</time>
</trkpt>
<trkpt lat="22.2597797" lon="114.2323641">
<ele>76.328</ele>
<time>2017-11-25T03:00:26.080Z</time>
</trkpt>
<trkpt lat="22.2599119" lon="114.2324376">
<ele>76.302</ele>
<time>2017-11-25T03:00:44.004Z</time>
</trkpt>
<trkpt lat="22.2599119" lon="114.2324376">
<ele>76.317</ele>
<time>2017-11-25T03:00:48.004Z</time>
</trkpt>
<trkpt lat="22.2599119" lon="114.2324376">
<ele>76.291</ele>
<time>2017-11-25T03:00:48.104Z</time>
</trkpt>
<trkpt lat="22.2599119" lon="114.2324376">
<ele>76.221</ele>
<time>2017-11-25T03:01:11.010Z</time>
</trkpt>
<trkpt lat="22.2599119" lon="114.2324376">
<ele>76.209</ele>
<time>2017-11-25T03:01:11.110Z</time>
</trkpt>
<trkpt lat="22.2598904" lon="114.2323295">
<ele>76.188</ele>
<time>2017-11-25T03:01:25.009Z</time>
</trkpt>
<trkpt lat="22.2598904" lon="114.2323295">
<ele>76.162</ele>
<time>2017-11-25T03:01:26.009Z</time>
</trkpt>
<trkpt lat="22.2598904" lon="114.2323295">
<ele>76.138</ele>
<time>2017-11-25T03:01:26.109Z</time>
</trkpt>
<trkpt lat="22.2599858" lon="114.2323502">
<ele>76.088</ele>
<time>2017-11-25T03:01:49.585Z</time>
</trkpt>
<trkpt lat="22.2600818" lon="114.2323537">
<ele>76.182</ele>
<time>2017-11-25T03:01:56.009Z</time>
</trkpt>
<trkpt lat="22.2600818" lon="114.2323537">
<ele>76.367</ele>
<time>2017-11-25T03:01:58.009Z</time>
</trkpt>
<trkpt lat="22.2600818" lon="114.2323537">
<ele>76.409</ele>
<time>2017-11-25T03:02:08.655Z</time>
</trkpt>
<trkpt lat="22.2601678" lon="114.2324254">
<ele>76.277</ele>
<time>2017-11-25T03:02:18.008Z</time>
</trkpt>
<trkpt lat="22.2601678" lon="114.2324254">
<ele>76.252</ele>
<time>2017-11-25T03:02:27.008Z</time>
</trkpt>
<trkpt lat="22.2601678" lon="114.2324254">
<ele>76.220</ele>
<time>2017-11-25T03:02:34.183Z</time>
</trkpt>
<trkpt lat="22.2602707" lon="114.2324639">
<ele>76.185</ele>
<time>2017-11-25T03:02:45.007Z</time>
</trkpt>
<trkpt lat="22.2602707" lon="114.2324639">
<ele>76.154</ele>
<time>2017-11-25T03:02:47.007Z</time>
</trkpt>
<trkpt lat="22.2602707" lon="114.2324639">
<ele>76.120</ele>
<time>2017-11-25T03:02:53.154Z</time>
</trkpt>
<trkpt lat="22.2603819" lon="114.2324562">
<ele>76.086</ele>
<time>2017-11-25T03:03:03.247Z</time>
</trkpt>
<trkpt lat="22.2604746" lon="114.2324252">
<ele>75.614</ele>
<time>2017-11-25T03:03:09.007Z</time>
</trkpt>
<trkpt lat="22.2604746" lon="114.2324252">
<ele>74.862</ele>
<time>2017-11-25T03:03:14.007Z</time>
</trkpt>
<trkpt lat="22.2604746" lon="114.2324252">
<ele>74.550</ele>
<time>2017-11-25T03:03:14.107Z</time>
</trkpt>
<trkpt lat="22.2605961" lon="114.2323541">
<ele>74.685</ele>
<time>2017-11-25T03:03:34.476Z</time>
</trkpt>
<trkpt lat="22.2606220" lon="114.2322584">
<ele>74.117</ele>
<time>2017-11-25T03:03:44.953Z</time>
</trkpt>
<trkpt lat="22.2606235" lon="114.2321592">
<ele>72.437</ele>
<time>2017-11-25T03:03:55.458Z</time>
</trkpt>
<trkpt lat="22.2605453" lon="114.2321051">
<ele>70.707</ele>
<time>2017-11-25T03:04:04.371Z</time>
</trkpt>
<trkpt lat="22.2604755" lon="114.2320431">
<ele>70.168</ele>
<time>2017-11-25T03:04:13.051Z</time>
</trkpt>
<trkpt lat="22.2609537" lon="114.2320589">
<ele>70.776</ele>
<time>2017-11-25T03:04:59.004Z</time>
</trkpt>
<trkpt lat="22.2609537" lon="114.2320589">
<ele>70.657</ele>
<time>2017-11-25T03:05:10.004Z</time>
</trkpt>
<trkpt lat="22.2609537" lon="114.2320589">
<ele>70.625</ele>
<time>2017-11-25T03:05:19.148Z</time>
</trkpt>
<trkpt lat="22.2609537" lon="114.2320589">
<ele>70.624</ele>
<time>2017-11-25T03:05:31.003Z</time>
</trkpt>
<trkpt lat="22.2609537" lon="114.2320589">
<ele>70.592</ele>
<time>2017-11-25T03:05:31.103Z</time>
</trkpt>
<trkpt lat="22.2609537" lon="114.2320589">
<ele>70.547</ele>
<time>2017-11-25T03:05:34.003Z</time>
</trkpt>
<trkpt lat="22.2609537" lon="114.2320589">
<ele>70.531</ele>
<time>2017-11-25T03:05:34.103Z</time>
</trkpt>
<trkpt lat="22.2609537" lon="114.2320589">
<ele>70.531</ele>
<time>2017-11-25T03:05:34.103Z</time>
</trkpt>
<trkpt lat="22.2606406" lon="114.2314795">
<ele>72.161</ele>
<time>2017-11-25T03:07:56.464Z</time>
</trkpt>
<trkpt lat="22.2602597" lon="114.2311870">
<ele>72.128</ele>
<time>2017-11-25T03:08:37.342Z</time>
</trkpt>
<trkpt lat="22.2602597" lon="114.2311870">
<ele>72.128</ele>
<time>2017-11-25T03:08:37.342Z</time>
</trkpt>
<trkpt lat="22.2603006" lon="114.2313211">
<ele>83.179</ele>
<time>2017-11-25T03:09:02.166Z</time>
</trkpt>
<trkpt lat="22.2603006" lon="114.2313211">
<ele>83.179</ele>
<time>2017-11-25T03:09:02.166Z</time>
</trkpt>
<trkpt lat="22.2600114" lon="114.2295021">
<ele>104.531</ele>
<time>2017-11-25T03:14:26.997Z</time>
</trkpt>
<trkpt lat="22.2600114" lon="114.2295021">
<ele>104.483</ele>
<time>2017-11-25T03:14:30.997Z</time>
</trkpt>
<trkpt lat="22.2600114" lon="114.2295021">
<ele>104.456</ele>
<time>2017-11-25T03:15:26.002Z</time>
</trkpt>
<trkpt lat="22.2600411" lon="114.2294386">
<ele>104.518</ele>
<time>2017-11-25T03:16:11.964Z</time>
</trkpt>
<trkpt lat="22.2598479" lon="114.2288902">
<ele>104.470</ele>
<time>2017-11-25T03:20:55.994Z</time>
</trkpt>
<trkpt lat="22.2598479" lon="114.2288902">
<ele>104.452</ele>
<time>2017-11-25T03:21:11.993Z</time>
</trkpt>
<trkpt lat="22.2598479" lon="114.2288902">
<ele>104.436</ele>
<time>2017-11-25T03:21:12.093Z</time>
</trkpt>
<trkpt lat="22.2597483" lon="114.2288542">
<ele>104.401</ele>
<time>2017-11-25T03:22:01.648Z</time>
</trkpt>
<trkpt lat="22.2596976" lon="114.2287717">
<ele>105.047</ele>
<time>2017-11-25T03:22:12.992Z</time>
</trkpt>
<trkpt lat="22.2596976" lon="114.2287717">
<ele>106.809</ele>
<time>2017-11-25T03:22:15.992Z</time>
</trkpt>
<trkpt lat="22.2596976" lon="114.2287717">
<ele>108.274</ele>
<time>2017-11-25T03:22:16.092Z</time>
</trkpt>
<trkpt lat="22.2597817" lon="114.2287302">
<ele>107.376</ele>
<time>2017-11-25T03:22:39.998Z</time>
</trkpt>
<trkpt lat="22.2597817" lon="114.2287302">
<ele>106.851</ele>
<time>2017-11-25T03:22:39.998Z</time>
</trkpt>
<trkpt lat="22.2597817" lon="114.2287302">
<ele>106.837</ele>
<time>2017-11-25T03:22:58.986Z</time>
</trkpt>
<trkpt lat="22.2597817" lon="114.2287302">
<ele>106.960</ele>
<time>2017-11-25T03:23:09.997Z</time>
</trkpt>
<trkpt lat="22.2597817" lon="114.2287302">
<ele>106.846</ele>
<time>2017-11-25T03:23:10.097Z</time>
</trkpt>
<trkpt lat="22.2597484" lon="114.2286386">
<ele>106.802</ele>
<time>2017-11-25T03:23:28.996Z</time>
</trkpt>
<trkpt lat="22.2597484" lon="114.2286386">
<ele>106.823</ele>
<time>2017-11-25T03:23:28.996Z</time>
</trkpt>
<trkpt lat="22.2597484" lon="114.2286386">
<ele>106.818</ele>
<time>2017-11-25T03:24:24.398Z</time>
</trkpt>
<trkpt lat="22.2597625" lon="114.2281535">
<ele>106.719</ele>
<time>2017-11-25T03:28:33.989Z</time>
</trkpt>
<trkpt lat="22.2597625" lon="114.2281535">
<ele>106.693</ele>
<time>2017-11-25T03:28:37.989Z</time>
</trkpt>
<trkpt lat="22.2597625" lon="114.2281535">
<ele>106.674</ele>
<time>2017-11-25T03:28:38.089Z</time>
</trkpt>
<trkpt lat="22.2598451" lon="114.2281087">
<ele>106.595</ele>
<time>2017-11-25T03:28:48.988Z</time>
</trkpt>
<trkpt lat="22.2598451" lon="114.2281087">
<ele>106.569</ele>
<time>2017-11-25T03:28:48.988Z</time>
</trkpt>
<trkpt lat="22.2598451" lon="114.2281087">
<ele>106.549</ele>
<time>2017-11-25T03:29:06.833Z</time>
</trkpt>
<trkpt lat="22.2597558" lon="114.2280192">
<ele>106.516</ele>
<time>2017-11-25T03:29:36.762Z</time>
</trkpt>
<trkpt lat="22.2596687" lon="114.2279651">
<ele>106.677</ele>
<time>2017-11-25T03:30:02.273Z</time>
</trkpt>
<trkpt lat="22.2595475" lon="114.2274954">
<ele>107.684</ele>
<time>2017-11-25T03:31:56.990Z</time>
</trkpt>
<trkpt lat="22.2596355" lon="114.2270193">
<ele>108.609</ele>
<time>2017-11-25T03:35:55.984Z</time>
</trkpt>
<trkpt lat="22.2596355" lon="114.2270193">
<ele>110.410</ele>
<time>2017-11-25T03:35:56.984Z</time>
</trkpt>
<trkpt lat="22.2596355" lon="114.2270193">
<ele>111.834</ele>
<time>2017-11-25T03:36:24.901Z</time>
</trkpt>
<trkpt lat="22.2596624" lon="114.2269210">
<ele>110.949</ele>
<time>2017-11-25T03:36:35.879Z</time>
</trkpt>
<trkpt lat="22.2597644" lon="114.2269307">
<ele>112.172</ele>
<time>2017-11-25T03:36:41.983Z</time>
</trkpt>
<trkpt lat="22.2597644" lon="114.2269307">
<ele>116.673</ele>
<time>2017-11-25T03:36:43.983Z</time>
</trkpt>
<trkpt lat="22.2597644" lon="114.2269307">
<ele>120.575</ele>
<time>2017-11-25T03:36:51.365Z</time>
</trkpt>
<trkpt lat="22.2596871" lon="114.2269845">
<ele>118.352</ele>
<time>2017-11-25T03:37:10.989Z</time>
</trkpt>
<trkpt lat="22.2596871" lon="114.2269845">
<ele>117.011</ele>
<time>2017-11-25T03:37:13.989Z</time>
</trkpt>
<trkpt lat="22.2596871" lon="114.2269845">
<ele>117.039</ele>
<time>2017-11-25T03:37:14.089Z</time>
</trkpt>
<trkpt lat="22.2597124" lon="114.2268800">
<ele>117.674</ele>
<time>2017-11-25T03:37:22.989Z</time>
</trkpt>
<trkpt lat="22.2597124" lon="114.2268800">
<ele>118.050</ele>
<time>2017-11-25T03:37:27.989Z</time>
</trkpt>
<trkpt lat="22.2597124" lon="114.2268800">
<ele>118.030</ele>
<time>2017-11-25T03:37:28.089Z</time>
</trkpt>
<trkpt lat="22.2598115" lon="114.2268990">
<ele>117.911</ele>
<time>2017-11-25T03:37:41.116Z</time>
</trkpt>
<trkpt lat="22.2599013" lon="114.2268907">
<ele>118.913</ele>
<time>2017-11-25T03:37:47.988Z</time>
</trkpt>
<trkpt lat="22.2599013" lon="114.2268907">
<ele>121.618</ele>
<time>2017-11-25T03:37:53.988Z</time>
</trkpt>
<trkpt lat="22.2599013" lon="114.2268907">
<ele>123.860</ele>
<time>2017-11-25T03:37:54.088Z</time>
</trkpt>
<trkpt lat="22.2599013" lon="114.2268907">
<ele>122.524</ele>
<time>2017-11-25T03:38:03.988Z</time>
</trkpt>
<trkpt lat="22.2599013" lon="114.2268907">
<ele>121.737</ele>
<time>2017-11-25T03:38:04.088Z</time>
</trkpt>
<trkpt lat="22.2599862" lon="114.2269732">
<ele>122.077</ele>
<time>2017-11-25T03:38:07.988Z</time>
</trkpt>
<trkpt lat="22.2599862" lon="114.2269732">
<ele>122.943</ele>
<time>2017-11-25T03:38:07.989Z</time>
</trkpt>
<trkpt lat="22.2599862" lon="114.2269732">
<ele>124.617</ele>
<time>2017-11-25T03:38:08.089Z</time>
</trkpt>
<trkpt lat="22.2599862" lon="114.2269732">
<ele>125.000</ele>
<time>2017-11-25T03:38:20.987Z</time>
</trkpt>
<trkpt lat="22.2599862" lon="114.2269732">
<ele>123.918</ele>
<time>2017-11-25T03:38:33.663Z</time>
</trkpt>
<trkpt lat="22.2604061" lon="114.2267726">
<ele>124.349</ele>
<time>2017-11-25T03:40:03.985Z</time>
</trkpt>
<trkpt lat="22.2604061" lon="114.2267726">
<ele>126.135</ele>
<time>2017-11-25T03:40:03.986Z</time>
</trkpt>
<trkpt lat="22.2604061" lon="114.2267726">
<ele>129.860</ele>
<time>2017-11-25T03:40:56.610Z</time>
</trkpt>
<trkpt lat="22.2605341" lon="114.2269256">
<ele>133.519</ele>
<time>2017-11-25T03:41:13.983Z</time>
</trkpt>
<trkpt lat="22.2605341" lon="114.2269256">
<ele>135.020</ele>
<time>2017-11-25T03:41:16.983Z</time>
</trkpt>
<trkpt lat="22.2605341" lon="114.2269256">
<ele>134.962</ele>
<time>2017-11-25T03:41:26.367Z</time>
</trkpt>
<trkpt lat="22.2601144" lon="114.2267020">
<ele>134.674</ele>
<time>2017-11-25T03:44:47.332Z</time>
</trkpt>
<trkpt lat="22.2600247" lon="114.2266659">
<ele>134.565</ele>
<time>2017-11-25T03:45:28.428Z</time>
</trkpt>
<trkpt lat="22.2599332" lon="114.2267023">
<ele>134.039</ele>
<time>2017-11-25T03:46:10.295Z</time>
</trkpt>
<trkpt lat="22.2598320" lon="114.2267172">
<ele>133.286</ele>
<time>2017-11-25T03:46:41.940Z</time>
</trkpt>
<trkpt lat="22.2597446" lon="114.2267562">
<ele>132.770</ele>
<time>2017-11-25T03:46:59.981Z</time>
</trkpt>
<trkpt lat="22.2597446" lon="114.2267562">
<ele>132.619</ele>
<time>2017-11-25T03:47:04.981Z</time>
</trkpt>
<trkpt lat="22.2597446" lon="114.2267562">
<ele>132.642</ele>
<time>2017-11-25T03:47:13.906Z</time>
</trkpt>
<trkpt lat="22.2597640" lon="114.2268652">
<ele>132.566</ele>
<time>2017-11-25T03:47:27.780Z</time>
</trkpt>
<trkpt lat="22.2598136" lon="114.2269635">
<ele>132.086</ele>
<time>2017-11-25T03:47:34.556Z</time>
</trkpt>
<trkpt lat="22.2598537" lon="114.2270533">
<ele>130.816</ele>
<time>2017-11-25T03:47:40.382Z</time>
</trkpt>
<trkpt lat="22.2599009" lon="114.2271406">
<ele>129.262</ele>
<time>2017-11-25T03:47:46.768Z</time>
</trkpt>
<trkpt lat="22.2599384" lon="114.2272444">
<ele>128.297</ele>
<time>2017-11-25T03:47:54.980Z</time>
</trkpt>
<trkpt lat="22.2599384" lon="114.2272444">
<ele>128.051</ele>
<time>2017-11-25T03:47:59.979Z</time>
</trkpt>
<trkpt lat="22.2599384" lon="114.2272444">
<ele>128.127</ele>
<time>2017-11-25T03:48:36.647Z</time>
</trkpt>
<trkpt lat="22.2599384" lon="114.2272444">
<ele>128.066</ele>
<time>2017-11-25T03:49:02.978Z</time>
</trkpt>
<trkpt lat="22.2599384" lon="114.2272444">
<ele>127.955</ele>
<time>2017-11-25T03:49:03.078Z</time>
</trkpt>
<trkpt lat="22.2598420" lon="114.2267216">
<ele>127.881</ele>
<time>2017-11-25T03:52:37.349Z</time>
</trkpt>
<trkpt lat="22.2594104" lon="114.2268852">
<ele>127.244</ele>
<time>2017-11-25T03:55:00.667Z</time>
</trkpt>
<trkpt lat="22.2593446" lon="114.2269609">
<ele>125.632</ele>
<time>2017-11-25T03:55:30.761Z</time>
</trkpt>
<trkpt lat="22.2592547" lon="114.2269781">
<ele>124.015</ele>
<time>2017-11-25T03:55:59.363Z</time>
</trkpt>
<trkpt lat="22.2591615" lon="114.2269545">
<ele>123.367</ele>
<time>2017-11-25T03:56:35.974Z</time>
</trkpt>
<trkpt lat="22.2591615" lon="114.2269545">
<ele>123.490</ele>
<time>2017-11-25T03:56:47.974Z</time>
</trkpt>
<trkpt lat="22.2591615" lon="114.2269545">
<ele>123.736</ele>
<time>2017-11-25T03:56:48.074Z</time>
</trkpt>
<trkpt lat="22.2590746" lon="114.2270291">
<ele>123.700</ele>
<time>2017-11-25T03:56:59.023Z</time>
</trkpt>
<trkpt lat="22.2589813" lon="114.2270306">
<ele>123.870</ele>
<time>2017-11-25T03:57:02.974Z</time>
</trkpt>
<trkpt lat="22.2589813" lon="114.2270306">
<ele>124.692</ele>
<time>2017-11-25T03:57:16.973Z</time>
</trkpt>
<trkpt lat="22.2589813" lon="114.2270306">
<ele>125.427</ele>
<time>2017-11-25T03:57:17.073Z</time>
</trkpt>
<trkpt lat="22.2589813" lon="114.2270306">
<ele>124.916</ele>
<time>2017-11-25T03:57:33.973Z</time>
</trkpt>
<trkpt lat="22.2589813" lon="114.2270306">
<ele>124.622</ele>
<time>2017-11-25T03:57:34.073Z</time>
</trkpt>
<trkpt lat="22.2589813" lon="114.2270306">
<ele>124.676</ele>
<time>2017-11-25T03:57:36.973Z</time>
</trkpt>
<trkpt lat="22.2589813" lon="114.2270306">
<ele>124.720</ele>
<time>2017-11-25T03:57:40.582Z</time>
</trkpt>
<trkpt lat="22.2589813" lon="114.2270306">
<ele>124.579</ele>
<time>2017-11-25T03:57:48.973Z</time>
</trkpt>
<trkpt lat="22.2589813" lon="114.2270306">
<ele>124.528</ele>
<time>2017-11-25T03:57:49.073Z</time>
</trkpt>
<trkpt lat="22.2589813" lon="114.2270306">
<ele>124.470</ele>
<time>2017-11-25T03:57:51.972Z</time>
</trkpt>
<trkpt lat="22.2589813" lon="114.2270306">
<ele>124.432</ele>
<time>2017-11-25T03:58:02.894Z</time>
</trkpt>
<trkpt lat="22.2589813" lon="114.2270306">
<ele>124.347</ele>
<time>2017-11-25T03:58:16.972Z</time>
</trkpt>
<trkpt lat="22.2589813" lon="114.2270306">
<ele>124.313</ele>
<time>2017-11-25T04:00:19.802Z</time>
</trkpt>
<trkpt lat="22.2588872" lon="114.2269549">
<ele>124.278</ele>
<time>2017-11-25T04:00:33.975Z</time>
</trkpt>
<trkpt lat="22.2588872" lon="114.2269549">
<ele>124.245</ele>
<time>2017-11-25T04:00:39.975Z</time>
</trkpt>
<trkpt lat="22.2588872" lon="114.2269549">
<ele>124.210</ele>
<time>2017-11-25T04:00:44.678Z</time>
</trkpt>
<trkpt lat="22.2588565" lon="114.2268331">
<ele>124.170</ele>
<time>2017-11-25T04:01:05.974Z</time>
</trkpt>
<trkpt lat="22.2588565" lon="114.2268331">
<ele>124.135</ele>
<time>2017-11-25T04:01:14.974Z</time>
</trkpt>
<trkpt lat="22.2588565" lon="114.2268331">
<ele>124.102</ele>
<time>2017-11-25T04:01:15.074Z</time>
</trkpt>
<trkpt lat="22.2588565" lon="114.2268331">
<ele>124.102</ele>
<time>2017-11-25T04:01:15.074Z</time>
</trkpt>
<trkpt lat="22.2586465" lon="114.2266543">
<ele>139.431</ele>
<time>2017-11-25T04:02:18.973Z</time>
</trkpt>
<trkpt lat="22.2586465" lon="114.2266543">
<ele>139.366</ele>
<time>2017-11-25T04:02:22.973Z</time>
</trkpt>
<trkpt lat="22.2586465" lon="114.2266543">
<ele>139.330</ele>
<time>2017-11-25T04:02:23.073Z</time>
</trkpt>
<trkpt lat="22.2585275" lon="114.2261862">
<ele>139.210</ele>
<time>2017-11-25T04:04:36.969Z</time>
</trkpt>
<trkpt lat="22.2580613" lon="114.2262020">
<ele>139.970</ele>
<time>2017-11-25T04:07:23.972Z</time>
</trkpt>
<trkpt lat="22.2581069" lon="114.2257169">
<ele>142.328</ele>
<time>2017-11-25T04:10:02.968Z</time>
</trkpt>
<trkpt lat="22.2581069" lon="114.2257169">
<ele>147.486</ele>
<time>2017-11-25T04:10:02.969Z</time>
</trkpt>
<trkpt lat="22.2581069" lon="114.2257169">
<ele>155.089</ele>
<time>2017-11-25T04:10:27.024Z</time>
</trkpt>
<trkpt lat="22.2582047" lon="114.2256186">
<ele>161.523</ele>
<time>2017-11-25T04:12:21.992Z</time>
</trkpt>
<trkpt lat="22.2582189" lon="114.2257197">
<ele>165.140</ele>
<time>2017-11-25T04:13:47.115Z</time>
</trkpt>
<trkpt lat="22.2582189" lon="114.2257197">
<ele>165.140</ele>
<time>2017-11-25T04:13:47.115Z</time>
</trkpt>
<trkpt lat="22.2581507" lon="114.2256215">
<ele>180.504</ele>
<time>2017-11-25T04:15:16.107Z</time>
</trkpt>
<trkpt lat="22.2580450" lon="114.2256377">
<ele>180.421</ele>
<time>2017-11-25T04:16:50.307Z</time>
</trkpt>
<trkpt lat="22.2579605" lon="114.2256902">
<ele>180.390</ele>
<time>2017-11-25T04:18:13.659Z</time>
</trkpt>
<trkpt lat="22.2579554" lon="114.2255796">
<ele>180.557</ele>
<time>2017-11-25T04:19:41.235Z</time>
</trkpt>
<trkpt lat="22.2579554" lon="114.2255796">
<ele>180.557</ele>
<time>2017-11-25T04:19:41.235Z</time>
</trkpt>
<trkpt lat="22.2579665" lon="114.2255905">
<ele>174.180</ele>
<time>2017-11-25T04:19:53.988Z</time>
</trkpt>
<trkpt lat="22.2578099" lon="114.2251249">
<ele>174.099</ele>
<time>2017-11-25T04:26:26.009Z</time>
</trkpt>
<trkpt lat="22.2577383" lon="114.2250627">
<ele>176.585</ele>
<time>2017-11-25T04:27:44.521Z</time>
</trkpt>
<trkpt lat="22.2577470" lon="114.2249585">
<ele>183.553</ele>
<time>2017-11-25T04:29:03.960Z</time>
</trkpt>
<trkpt lat="22.2577470" lon="114.2249585">
<ele>191.372</ele>
<time>2017-11-25T04:29:29.959Z</time>
</trkpt>
<trkpt lat="22.2577470" lon="114.2249585">
<ele>195.111</ele>
<time>2017-11-25T04:29:30.059Z</time>
</trkpt>
<trkpt lat="22.2577075" lon="114.2248482">
<ele>194.637</ele>
<time>2017-11-25T04:30:08.851Z</time>
</trkpt>
<trkpt lat="22.2576678" lon="114.2247538">
<ele>194.185</ele>
<time>2017-11-25T04:30:24.778Z</time>
</trkpt>
<trkpt lat="22.2575770" lon="114.2247592">
<ele>197.095</ele>
<time>2017-11-25T04:30:35.958Z</time>
</trkpt>
<trkpt lat="22.2575770" lon="114.2247592">
<ele>201.436</ele>
<time>2017-11-25T04:30:49.957Z</time>
</trkpt>
<trkpt lat="22.2575770" lon="114.2247592">
<ele>203.720</ele>
<time>2017-11-25T04:30:50.057Z</time>
</trkpt>
<trkpt lat="22.2575595" lon="114.2246052">
<ele>203.441</ele>
<time>2017-11-25T04:31:06.957Z</time>
</trkpt>
<trkpt lat="22.2575595" lon="114.2246052">
<ele>202.446</ele>
<time>2017-11-25T04:31:15.957Z</time>
</trkpt>
<trkpt lat="22.2575595" lon="114.2246052">
<ele>202.291</ele>
<time>2017-11-25T04:31:21.830Z</time>
</trkpt>
<trkpt lat="22.2575428" lon="114.2244859">
<ele>202.735</ele>
<time>2017-11-25T04:31:39.700Z</time>
</trkpt>
<trkpt lat="22.2574525" lon="114.2244685">
<ele>204.542</ele>
<time>2017-11-25T04:31:50.956Z</time>
</trkpt>
<trkpt lat="22.2574525" lon="114.2244685">
<ele>208.421</ele>
<time>2017-11-25T04:32:05.956Z</time>
</trkpt>
<trkpt lat="22.2574525" lon="114.2244685">
<ele>211.511</ele>
<time>2017-11-25T04:32:06.056Z</time>
</trkpt>
<trkpt lat="22.2574525" lon="114.2244685">
<ele>209.621</ele>
<time>2017-11-25T04:32:21.955Z</time>
</trkpt>
<trkpt lat="22.2574525" lon="114.2244685">
<ele>208.524</ele>
<time>2017-11-25T04:32:22.055Z</time>
</trkpt>
<trkpt lat="22.2573133" lon="114.2244331">
<ele>208.742</ele>
<time>2017-11-25T04:32:42.436Z</time>
</trkpt>
<trkpt lat="22.2572481" lon="114.2243617">
<ele>211.873</ele>
<time>2017-11-25T04:32:49.613Z</time>
</trkpt>
<trkpt lat="22.2571618" lon="114.2243171">
<ele>218.659</ele>
<time>2017-11-25T04:32:56.955Z</time>
</trkpt>
<trkpt lat="22.2571618" lon="114.2243171">
<ele>225.777</ele>
<time>2017-11-25T04:33:09.954Z</time>
</trkpt>
<trkpt lat="22.2571618" lon="114.2243171">
<ele>229.144</ele>
<time>2017-11-25T04:33:47.539Z</time>
</trkpt>
<trkpt lat="22.2570651" lon="114.2242665">
<ele>226.868</ele>
<time>2017-11-25T04:34:02.587Z</time>
</trkpt>
<trkpt lat="22.2569838" lon="114.2242245">
<ele>227.525</ele>
<time>2017-11-25T04:34:09.953Z</time>
</trkpt>
<trkpt lat="22.2569838" lon="114.2242245">
<ele>232.047</ele>
<time>2017-11-25T04:34:21.959Z</time>
</trkpt>
<trkpt lat="22.2569838" lon="114.2242245">
<ele>236.127</ele>
<time>2017-11-25T04:34:25.098Z</time>
</trkpt>
<trkpt lat="22.2568712" lon="114.2241877">
<ele>236.001</ele>
<time>2017-11-25T04:34:37.959Z</time>
</trkpt>
<trkpt lat="22.2568712" lon="114.2241877">
<ele>234.262</ele>
<time>2017-11-25T04:34:37.959Z</time>
</trkpt>
<trkpt lat="22.2568712" lon="114.2241877">
<ele>234.002</ele>
<time>2017-11-25T04:36:10.957Z</time>
</trkpt>
<trkpt lat="22.2568712" lon="114.2241877">
<ele>234.609</ele>
<time>2017-11-25T04:36:12.300Z</time>
</trkpt>
<trkpt lat="22.2566771" lon="114.2241057">
<ele>234.694</ele>
<time>2017-11-25T04:36:58.076Z</time>
</trkpt>
<trkpt lat="22.2567441" lon="114.2241779">
<ele>236.363</ele>
<time>2017-11-25T04:37:05.955Z</time>
</trkpt>
<trkpt lat="22.2567441" lon="114.2241779">
<ele>241.334</ele>
<time>2017-11-25T04:37:10.955Z</time>
</trkpt>
<trkpt lat="22.2567441" lon="114.2241779">
<ele>245.573</ele>
<time>2017-11-25T04:37:24.955Z</time>
</trkpt>
<trkpt lat="22.2567441" lon="114.2241779">
<ele>245.415</ele>
<time>2017-11-25T04:38:40.828Z</time>
</trkpt>
<trkpt lat="22.2568246" lon="114.2242230">
<ele>243.633</ele>
<time>2017-11-25T04:38:56.953Z</time>
</trkpt>
<trkpt lat="22.2568246" lon="114.2242230">
<ele>243.423</ele>
<time>2017-11-25T04:39:05.953Z</time>
</trkpt>
<trkpt lat="22.2568246" lon="114.2242230">
<ele>244.090</ele>
<time>2017-11-25T04:39:45.952Z</time>
</trkpt>
<trkpt lat="22.2568246" lon="114.2242230">
<ele>244.155</ele>
<time>2017-11-25T04:40:34.951Z</time>
</trkpt>
<trkpt lat="22.2568246" lon="114.2242230">
<ele>243.809</ele>
<time>2017-11-25T04:41:44.279Z</time>
</trkpt>
<trkpt lat="22.2568246" lon="114.2242230">
<ele>243.720</ele>
<time>2017-11-25T04:42:15.955Z</time>
</trkpt>
<trkpt lat="22.2568246" lon="114.2242230">
<ele>243.760</ele>
<time>2017-11-25T04:42:16.055Z</time>
</trkpt>
<trkpt lat="22.2567565" lon="114.2241151">
<ele>243.661</ele>
<time>2017-11-25T04:42:23.955Z</time>
</trkpt>
<trkpt lat="22.2567565" lon="114.2241151">
<ele>243.515</ele>
<time>2017-11-25T04:42:28.954Z</time>
</trkpt>
<trkpt lat="22.2567565" lon="114.2241151">
<ele>243.425</ele>
<time>2017-11-25T04:42:29.054Z</time>
</trkpt>
<trkpt lat="22.2566657" lon="114.2240365">
<ele>243.384</ele>
<time>2017-11-25T04:42:40.451Z</time>
</trkpt>
<trkpt lat="22.2565966" lon="114.2239655">
<ele>243.900</ele>
<time>2017-11-25T04:42:46.168Z</time>
</trkpt>
<trkpt lat="22.2566172" lon="114.2238624">
<ele>245.283</ele>
<time>2017-11-25T04:42:51.954Z</time>
</trkpt>
<trkpt lat="22.2566172" lon="114.2238624">
<ele>246.556</ele>
<time>2017-11-25T04:42:59.954Z</time>
</trkpt>
<trkpt lat="22.2566172" lon="114.2238624">
<ele>246.842</ele>
<time>2017-11-25T04:43:00.054Z</time>
</trkpt>
<trkpt lat="22.2566068" lon="114.2237202">
<ele>246.389</ele>
<time>2017-11-25T04:43:15.840Z</time>
</trkpt>
<trkpt lat="22.2566138" lon="114.2236199">
<ele>245.467</ele>
<time>2017-11-25T04:43:22.097Z</time>
</trkpt>
<trkpt lat="22.2566395" lon="114.2235263">
<ele>244.046</ele>
<time>2017-11-25T04:43:28.244Z</time>
</trkpt>
<trkpt lat="22.2566438" lon="114.2234226">
<ele>242.350</ele>
<time>2017-11-25T04:43:34.953Z</time>
</trkpt>
<trkpt lat="22.2566438" lon="114.2234226">
<ele>240.978</ele>
<time>2017-11-25T04:43:39.953Z</time>
</trkpt>
<trkpt lat="22.2566438" lon="114.2234226">
<ele>240.358</ele>
<time>2017-11-25T04:43:40.053Z</time>
</trkpt>
<trkpt lat="22.2566200" lon="114.2233194">
<ele>240.524</ele>
<time>2017-11-25T04:44:41.950Z</time>
</trkpt>
<trkpt lat="22.2566300" lon="114.2232164">
<ele>239.857</ele>
<time>2017-11-25T04:44:50.899Z</time>
</trkpt>
<trkpt lat="22.2566201" lon="114.2231192">
<ele>237.424</ele>
<time>2017-11-25T04:44:59.052Z</time>
</trkpt>
<trkpt lat="22.2566290" lon="114.2230221">
<ele>232.098</ele>
<time>2017-11-25T04:45:06.935Z</time>
</trkpt>
<trkpt lat="22.2566820" lon="114.2229414">
<ele>230.745</ele>
<time>2017-11-25T04:45:12.951Z</time>
</trkpt>
<trkpt lat="22.2566820" lon="114.2229414">
<ele>230.280</ele>
<time>2017-11-25T04:45:14.951Z</time>
</trkpt>
<trkpt lat="22.2566820" lon="114.2229414">
<ele>229.979</ele>
<time>2017-11-25T04:46:04.950Z</time>
</trkpt>
<trkpt lat="22.2566820" lon="114.2229414">
<ele>229.977</ele>
<time>2017-11-25T04:47:22.666Z</time>
</trkpt>
<trkpt lat="22.2567129" lon="114.2228385">
<ele>229.862</ele>
<time>2017-11-25T04:47:33.948Z</time>
</trkpt>
<trkpt lat="22.2567129" lon="114.2228385">
<ele>229.741</ele>
<time>2017-11-25T04:47:37.948Z</time>
</trkpt>
<trkpt lat="22.2567129" lon="114.2228385">
<ele>229.630</ele>
<time>2017-11-25T04:48:02.393Z</time>
</trkpt>
<trkpt lat="22.2567799" lon="114.2227436">
<ele>229.476</ele>
<time>2017-11-25T04:48:17.811Z</time>
</trkpt>
<trkpt lat="22.2567620" lon="114.2226455">
<ele>228.075</ele>
<time>2017-11-25T04:48:25.272Z</time>
</trkpt>
<trkpt lat="22.2567696" lon="114.2225415">
<ele>224.171</ele>
<time>2017-11-25T04:48:32.408Z</time>
</trkpt>
<trkpt lat="22.2567777" lon="114.2224425">
<ele>219.263</ele>
<time>2017-11-25T04:48:38.738Z</time>
</trkpt>
<trkpt lat="22.2567698" lon="114.2223426">
<ele>215.530</ele>
<time>2017-11-25T04:48:44.953Z</time>
</trkpt>
<trkpt lat="22.2567698" lon="114.2223426">
<ele>213.580</ele>
<time>2017-11-25T04:48:47.953Z</time>
</trkpt>
<trkpt lat="22.2567698" lon="114.2223426">
<ele>213.081</ele>
<time>2017-11-25T04:49:04.890Z</time>
</trkpt>
<trkpt lat="22.2567525" lon="114.2224389">
<ele>213.311</ele>
<time>2017-11-25T04:49:36.450Z</time>
</trkpt>
<trkpt lat="22.2567698" lon="114.2223332">
<ele>213.216</ele>
<time>2017-11-25T04:49:45.720Z</time>
</trkpt>
<trkpt lat="22.2567806" lon="114.2222273">
<ele>212.806</ele>
<time>2017-11-25T04:49:53.054Z</time>
</trkpt>
<trkpt lat="22.2567804" lon="114.2221251">
<ele>212.325</ele>
<time>2017-11-25T04:50:00.405Z</time>
</trkpt>
<trkpt lat="22.2568009" lon="114.2220234">
<ele>212.073</ele>
<time>2017-11-25T04:50:09.010Z</time>
</trkpt>
<trkpt lat="22.2567954" lon="114.2219193">
<ele>212.062</ele>
<time>2017-11-25T04:50:17.762Z</time>
</trkpt>
<trkpt lat="22.2567552" lon="114.2218182">
<ele>212.082</ele>
<time>2017-11-25T04:50:25.102Z</time>
</trkpt>
<trkpt lat="22.2567396" lon="114.2217038">
<ele>211.815</ele>
<time>2017-11-25T04:50:32.828Z</time>
</trkpt>
<trkpt lat="22.2567286" lon="114.2216041">
<ele>211.141</ele>
<time>2017-11-25T04:50:40.330Z</time>
</trkpt>
<trkpt lat="22.2567297" lon="114.2215018">
<ele>210.201</ele>
<time>2017-11-25T04:50:48.385Z</time>
</trkpt>
<trkpt lat="22.2567397" lon="114.2213981">
<ele>209.228</ele>
<time>2017-11-25T04:50:56.240Z</time>
</trkpt>
<trkpt lat="22.2567554" lon="114.2213003">
<ele>208.375</ele>
<time>2017-11-25T04:51:04.622Z</time>
</trkpt>
<trkpt lat="22.2568136" lon="114.2212255">
<ele>207.583</ele>
<time>2017-11-25T04:51:13.564Z</time>
</trkpt>
<trkpt lat="22.2568861" lon="114.2211567">
<ele>206.690</ele>
<time>2017-11-25T04:51:23.686Z</time>
</trkpt>
<trkpt lat="22.2568206" lon="114.2212351">
<ele>205.517</ele>
<time>2017-11-25T04:51:33.949Z</time>
</trkpt>
<trkpt lat="22.2568206" lon="114.2212351">
<ele>204.171</ele>
<time>2017-11-25T04:51:37.949Z</time>
</trkpt>
<trkpt lat="22.2568206" lon="114.2212351">
<ele>203.305</ele>
<time>2017-11-25T04:51:39.212Z</time>
</trkpt>
<trkpt lat="22.2568951" lon="114.2211591">
<ele>203.615</ele>
<time>2017-11-25T04:51:55.607Z</time>
</trkpt>
<trkpt lat="22.2569342" lon="114.2210591">
<ele>203.335</ele>
<time>2017-11-25T04:52:02.821Z</time>
</trkpt>
<trkpt lat="22.2569749" lon="114.2209635">
<ele>201.916</ele>
<time>2017-11-25T04:52:09.331Z</time>
</trkpt>
<trkpt lat="22.2570097" lon="114.2208617">
<ele>200.093</ele>
<time>2017-11-25T04:52:16.232Z</time>
</trkpt>
<trkpt lat="22.2570062" lon="114.2207638">
<ele>198.789</ele>
<time>2017-11-25T04:52:22.948Z</time>
</trkpt>
<trkpt lat="22.2570062" lon="114.2207638">
<ele>198.158</ele>
<time>2017-11-25T04:52:31.947Z</time>
</trkpt>
<trkpt lat="22.2570062" lon="114.2207638">
<ele>197.982</ele>
<time>2017-11-25T04:52:36.689Z</time>
</trkpt>
<trkpt lat="22.2570023" lon="114.2206321">
<ele>197.948</ele>
<time>2017-11-25T04:52:51.528Z</time>
</trkpt>
<trkpt lat="22.2570676" lon="114.2205524">
<ele>197.733</ele>
<time>2017-11-25T04:52:59.362Z</time>
</trkpt>
<trkpt lat="22.2571318" lon="114.2204658">
<ele>197.041</ele>
<time>2017-11-25T04:53:06.569Z</time>
</trkpt>
<trkpt lat="22.2571901" lon="114.2203748">
<ele>195.941</ele>
<time>2017-11-25T04:53:13.136Z</time>
</trkpt>
<trkpt lat="22.2572546" lon="114.2202964">
<ele>194.888</ele>
<time>2017-11-25T04:53:19.453Z</time>
</trkpt>
<trkpt lat="22.2573405" lon="114.2202446">
<ele>194.265</ele>
<time>2017-11-25T04:53:26.250Z</time>
</trkpt>
<trkpt lat="22.2573952" lon="114.2201604">
<ele>194.099</ele>
<time>2017-11-25T04:53:33.090Z</time>
</trkpt>
<trkpt lat="22.2574201" lon="114.2200654">
<ele>194.134</ele>
<time>2017-11-25T04:53:39.141Z</time>
</trkpt>
<trkpt lat="22.2574512" lon="114.2199731">
<ele>194.172</ele>
<time>2017-11-25T04:53:44.842Z</time>
</trkpt>
<trkpt lat="22.2574697" lon="114.2198722">
<ele>194.103</ele>
<time>2017-11-25T04:53:50.945Z</time>
</trkpt>
<trkpt lat="22.2574697" lon="114.2198722">
<ele>193.890</ele>
<time>2017-11-25T04:53:53.945Z</time>
</trkpt>
<trkpt lat="22.2574697" lon="114.2198722">
<ele>193.682</ele>
<time>2017-11-25T04:54:10.299Z</time>
</trkpt>
<trkpt lat="22.2575014" lon="114.2197463">
<ele>193.616</ele>
<time>2017-11-25T04:54:27.960Z</time>
</trkpt>
<trkpt lat="22.2575244" lon="114.2196427">
<ele>193.646</ele>
<time>2017-11-25T04:54:35.329Z</time>
</trkpt>
<trkpt lat="22.2575740" lon="114.2195497">
<ele>193.604</ele>
<time>2017-11-25T04:54:42.306Z</time>
</trkpt>
<trkpt lat="22.2575957" lon="114.2194510">
<ele>193.448</ele>
<time>2017-11-25T04:54:49.118Z</time>
</trkpt>
<trkpt lat="22.2576381" lon="114.2193576">
<ele>193.263</ele>
<time>2017-11-25T04:54:55.602Z</time>
</trkpt>
<trkpt lat="22.2576782" lon="114.2192645">
<ele>193.119</ele>
<time>2017-11-25T04:55:02.021Z</time>
</trkpt>
<trkpt lat="22.2577203" lon="114.2191734">
<ele>192.909</ele>
<time>2017-11-25T04:55:09.368Z</time>
</trkpt>
<trkpt lat="22.2577177" lon="114.2190680">
<ele>192.491</ele>
<time>2017-11-25T04:55:17.087Z</time>
</trkpt>
<trkpt lat="22.2577238" lon="114.2189548">
<ele>191.945</ele>
<time>2017-11-25T04:55:24.271Z</time>
</trkpt>
<trkpt lat="22.2577420" lon="114.2188590">
<ele>191.483</ele>
<time>2017-11-25T04:55:29.923Z</time>
</trkpt>
<trkpt lat="22.2577482" lon="114.2187501">
<ele>191.199</ele>
<time>2017-11-25T04:55:36.169Z</time>
</trkpt>
<trkpt lat="22.2577727" lon="114.2186408">
<ele>191.084</ele>
<time>2017-11-25T04:55:42.400Z</time>
</trkpt>
<trkpt lat="22.2578032" lon="114.2185438">
<ele>191.214</ele>
<time>2017-11-25T04:55:48.797Z</time>
</trkpt>
<trkpt lat="22.2578402" lon="114.2184552">
<ele>191.591</ele>
<time>2017-11-25T04:55:55.626Z</time>
</trkpt>
<trkpt lat="22.2579335" lon="114.2184601">
<ele>191.959</ele>
<time>2017-11-25T04:56:04.999Z</time>
</trkpt>
<trkpt lat="22.2579335" lon="114.2184601">
<ele>192.069</ele>
<time>2017-11-25T04:56:05.999Z</time>
</trkpt>
<trkpt lat="22.2579335" lon="114.2184601">
<ele>191.978</ele>
<time>2017-11-25T04:56:12.575Z</time>
</trkpt>
<trkpt lat="22.2580166" lon="114.2185139">
<ele>191.826</ele>
<time>2017-11-25T04:56:32.924Z</time>
</trkpt>
<trkpt lat="22.2580919" lon="114.2184433">
<ele>192.381</ele>
<time>2017-11-25T04:56:39.230Z</time>
</trkpt>
<trkpt lat="22.2581353" lon="114.2183400">
<ele>193.838</ele>
<time>2017-11-25T04:56:43.981Z</time>
</trkpt>
<trkpt lat="22.2581440" lon="114.2182425">
<ele>195.328</ele>
<time>2017-11-25T04:56:48.086Z</time>
</trkpt>
<trkpt lat="22.2581045" lon="114.2181513">
<ele>195.985</ele>
<time>2017-11-25T04:56:52.570Z</time>
</trkpt>
<trkpt lat="22.2580312" lon="114.2180789">
<ele>195.762</ele>
<time>2017-11-25T04:56:57.916Z</time>
</trkpt>
<trkpt lat="22.2579601" lon="114.2180130">
<ele>194.879</ele>
<time>2017-11-25T04:57:03.470Z</time>
</trkpt>
<trkpt lat="22.2579044" lon="114.2179286">
<ele>193.743</ele>
<time>2017-11-25T04:57:09.612Z</time>
</trkpt>
<trkpt lat="22.2578399" lon="114.2178556">
<ele>192.777</ele>
<time>2017-11-25T04:57:16.057Z</time>
</trkpt>
<trkpt lat="22.2577630" lon="114.2178048">
<ele>192.260</ele>
<time>2017-11-25T04:57:22.183Z</time>
</trkpt>
<trkpt lat="22.2576689" lon="114.2177892">
<ele>192.203</ele>
<time>2017-11-25T04:57:28.106Z</time>
</trkpt>
<trkpt lat="22.2576547" lon="114.2176788">
<ele>192.164</ele>
<time>2017-11-25T04:57:34.470Z</time>
</trkpt>
<trkpt lat="22.2576977" lon="114.2175802">
<ele>191.820</ele>
<time>2017-11-25T04:57:40.522Z</time>
</trkpt>
<trkpt lat="22.2577382" lon="114.2174871">
<ele>191.382</ele>
<time>2017-11-25T04:57:46.990Z</time>
</trkpt>
<trkpt lat="22.2576664" lon="114.2174158">
<ele>191.140</ele>
<time>2017-11-25T04:57:54.246Z</time>
</trkpt>
<trkpt lat="22.2575690" lon="114.2173690">
<ele>191.066</ele>
<time>2017-11-25T04:58:01.070Z</time>
</trkpt>
<trkpt lat="22.2574839" lon="114.2173230">
<ele>190.859</ele>
<time>2017-11-25T04:58:06.301Z</time>
</trkpt>
<trkpt lat="22.2574250" lon="114.2172490">
<ele>190.079</ele>
<time>2017-11-25T04:58:11.544Z</time>
</trkpt>
<trkpt lat="22.2574649" lon="114.2171550">
<ele>188.733</ele>
<time>2017-11-25T04:58:17.996Z</time>
</trkpt>
<trkpt lat="22.2574649" lon="114.2171550">
<ele>187.449</ele>
<time>2017-11-25T04:58:21.996Z</time>
</trkpt>
<trkpt lat="22.2574649" lon="114.2171550">
<ele>186.808</ele>
<time>2017-11-25T04:58:30.520Z</time>
</trkpt>
<trkpt lat="22.2573756" lon="114.2171146">
<ele>187.026</ele>
<time>2017-11-25T04:58:43.995Z</time>
</trkpt>
<trkpt lat="22.2573756" lon="114.2171146">
<ele>187.143</ele>
<time>2017-11-25T04:58:48.995Z</time>
</trkpt>
<trkpt lat="22.2573756" lon="114.2171146">
<ele>187.058</ele>
<time>2017-11-25T04:58:55.022Z</time>
</trkpt>
<trkpt lat="22.2574488" lon="114.2170512">
<ele>186.867</ele>
<time>2017-11-25T04:59:13.070Z</time>
</trkpt>
<trkpt lat="22.2575276" lon="114.2170044">
<ele>186.577</ele>
<time>2017-11-25T04:59:20.604Z</time>
</trkpt>
<trkpt lat="22.2576168" lon="114.2169760">
<ele>185.801</ele>
<time>2017-11-25T04:59:27.388Z</time>
</trkpt>
<trkpt lat="22.2577086" lon="114.2169597">
<ele>185.044</ele>
<time>2017-11-25T04:59:34.095Z</time>
</trkpt>
<trkpt lat="22.2577853" lon="114.2168926">
<ele>184.790</ele>
<time>2017-11-25T04:59:41.452Z</time>
</trkpt>
<trkpt lat="22.2578338" lon="114.2168095">
<ele>184.753</ele>
<time>2017-11-25T04:59:48.492Z</time>
</trkpt>
<trkpt lat="22.2578639" lon="114.2167076">
<ele>184.586</ele>
<time>2017-11-25T04:59:56.091Z</time>
</trkpt>
<trkpt lat="22.2579226" lon="114.2166241">
<ele>184.123</ele>
<time>2017-11-25T05:00:03.041Z</time>
</trkpt>
<trkpt lat="22.2579890" lon="114.2165572">
<ele>183.392</ele>
<time>2017-11-25T05:00:09.176Z</time>
</trkpt>
<trkpt lat="22.2580697" lon="114.2165015">
<ele>182.678</ele>
<time>2017-11-25T05:00:15.786Z</time>
</trkpt>
<trkpt lat="22.2581520" lon="114.2164350">
<ele>182.284</ele>
<time>2017-11-25T05:00:23.141Z</time>
</trkpt>
<trkpt lat="22.2582262" lon="114.2163643">
<ele>182.177</ele>
<time>2017-11-25T05:00:30.416Z</time>
</trkpt>
<trkpt lat="22.2582763" lon="114.2162755">
<ele>182.219</ele>
<time>2017-11-25T05:00:37.712Z</time>
</trkpt>
<trkpt lat="22.2583421" lon="114.2161911">
<ele>182.337</ele>
<time>2017-11-25T05:00:45.514Z</time>
</trkpt>
<trkpt lat="22.2584233" lon="114.2161181">
<ele>182.647</ele>
<time>2017-11-25T05:00:52.990Z</time>
</trkpt>
<trkpt lat="22.2584896" lon="114.2160382">
<ele>183.158</ele>
<time>2017-11-25T05:00:59.708Z</time>
</trkpt>
<trkpt lat="22.2585303" lon="114.2159441">
<ele>183.617</ele>
<time>2017-11-25T05:01:06.405Z</time>
</trkpt>
<trkpt lat="22.2585902" lon="114.2158581">
<ele>183.741</ele>
<time>2017-11-25T05:01:13.722Z</time>
</trkpt>
<trkpt lat="22.2586645" lon="114.2157913">
<ele>183.560</ele>
<time>2017-11-25T05:01:20.911Z</time>
</trkpt>
<trkpt lat="22.2587306" lon="114.2157139">
<ele>183.311</ele>
<time>2017-11-25T05:01:28.014Z</time>
</trkpt>
<trkpt lat="22.2587953" lon="114.2156441">
<ele>183.130</ele>
<time>2017-11-25T05:01:34.868Z</time>
</trkpt>
<trkpt lat="22.2588645" lon="114.2155683">
<ele>182.977</ele>
<time>2017-11-25T05:01:42.652Z</time>
</trkpt>
<trkpt lat="22.2589229" lon="114.2154943">
<ele>182.720</ele>
<time>2017-11-25T05:01:49.990Z</time>
</trkpt>
<trkpt lat="22.2589229" lon="114.2154943">
<ele>182.309</ele>
<time>2017-11-25T05:01:55.990Z</time>
</trkpt>
<trkpt lat="22.2589229" lon="114.2154943">
<ele>181.969</ele>
<time>2017-11-25T05:02:39.692Z</time>
</trkpt>
<trkpt lat="22.2589789" lon="114.2153925">
<ele>181.922</ele>
<time>2017-11-25T05:02:49.989Z</time>
</trkpt>
<trkpt lat="22.2589789" lon="114.2153925">
<ele>182.037</ele>
<time>2017-11-25T05:03:02.989Z</time>
</trkpt>
<trkpt lat="22.2589789" lon="114.2153925">
<ele>182.084</ele>
<time>2017-11-25T05:03:13.178Z</time>
</trkpt>
<trkpt lat="22.2590622" lon="114.2153355">
<ele>181.982</ele>
<time>2017-11-25T05:03:25.096Z</time>
</trkpt>
<trkpt lat="22.2591156" lon="114.2152472">
<ele>181.648</ele>
<time>2017-11-25T05:03:32.557Z</time>
</trkpt>
<trkpt lat="22.2591756" lon="114.2151693">
<ele>181.052</ele>
<time>2017-11-25T05:03:39.607Z</time>
</trkpt>
<trkpt lat="22.2592655" lon="114.2151417">
<ele>180.392</ele>
<time>2017-11-25T05:03:46.680Z</time>
</trkpt>
<trkpt lat="22.2593585" lon="114.2151246">
<ele>179.779</ele>
<time>2017-11-25T05:03:53.994Z</time>
</trkpt>
<trkpt lat="22.2593585" lon="114.2151246">
<ele>179.211</ele>
<time>2017-11-25T05:03:57.994Z</time>
</trkpt>
<trkpt lat="22.2593585" lon="114.2151246">
<ele>178.866</ele>
<time>2017-11-25T05:04:14.468Z</time>
</trkpt>
<trkpt lat="22.2594595" lon="114.2150960">
<ele>178.902</ele>
<time>2017-11-25T05:04:34.098Z</time>
</trkpt>
<trkpt lat="22.2595278" lon="114.2150298">
<ele>178.459</ele>
<time>2017-11-25T05:04:45.993Z</time>
</trkpt>
<trkpt lat="22.2595936" lon="114.2149499">
<ele>177.133</ele>
<time>2017-11-25T05:04:52.765Z</time>
</trkpt>
<trkpt lat="22.2596199" lon="114.2148569">
<ele>175.974</ele>
<time>2017-11-25T05:04:58.022Z</time>
</trkpt>
<trkpt lat="22.2596745" lon="114.2147708">
<ele>176.065</ele>
<time>2017-11-25T05:05:03.988Z</time>
</trkpt>
<trkpt lat="22.2597623" lon="114.2147174">
<ele>177.182</ele>
<time>2017-11-25T05:05:10.588Z</time>
</trkpt>
<trkpt lat="22.2598467" lon="114.2146752">
<ele>178.561</ele>
<time>2017-11-25T05:05:17.191Z</time>
</trkpt>
<trkpt lat="22.2598905" lon="114.2145760">
<ele>179.620</ele>
<time>2017-11-25T05:05:24.992Z</time>
</trkpt>
<trkpt lat="22.2598905" lon="114.2145760">
<ele>180.186</ele>
<time>2017-11-25T05:05:33.992Z</time>
</trkpt>
<trkpt lat="22.2598905" lon="114.2145760">
<ele>180.341</ele>
<time>2017-11-25T05:05:59.017Z</time>
</trkpt>
<trkpt lat="22.2599384" lon="114.2144870">
<ele>180.063</ele>
<time>2017-11-25T05:06:24.034Z</time>
</trkpt>
<trkpt lat="22.2598600" lon="114.2144154">
<ele>180.264</ele>
<time>2017-11-25T05:06:30.371Z</time>
</trkpt>
<trkpt lat="22.2598124" lon="114.2143227">
<ele>181.007</ele>
<time>2017-11-25T05:06:34.837Z</time>
</trkpt>
<trkpt lat="22.2597874" lon="114.2142257">
<ele>181.613</ele>
<time>2017-11-25T05:06:38.990Z</time>
</trkpt>
<trkpt lat="22.2597874" lon="114.2142257">
<ele>181.508</ele>
<time>2017-11-25T05:06:43.990Z</time>
</trkpt>
<trkpt lat="22.2597874" lon="114.2142257">
<ele>181.146</ele>
<time>2017-11-25T05:06:44.090Z</time>
</trkpt>
<trkpt lat="22.2598013" lon="114.2140669">
<ele>181.058</ele>
<time>2017-11-25T05:07:09.126Z</time>
</trkpt>
<trkpt lat="22.2597984" lon="114.2139678">
<ele>181.194</ele>
<time>2017-11-25T05:07:16.215Z</time>
</trkpt>
<trkpt lat="22.2598270" lon="114.2138607">
<ele>181.410</ele>
<time>2017-11-25T05:07:23.474Z</time>
</trkpt>
<trkpt lat="22.2598553" lon="114.2137586">
<ele>181.721</ele>
<time>2017-11-25T05:07:29.546Z</time>
</trkpt>
<trkpt lat="22.2598999" lon="114.2136696">
<ele>182.064</ele>
<time>2017-11-25T05:07:34.770Z</time>
</trkpt>
<trkpt lat="22.2599831" lon="114.2136079">
<ele>182.301</ele>
<time>2017-11-25T05:07:39.988Z</time>
</trkpt>
<trkpt lat="22.2599831" lon="114.2136079">
<ele>182.359</ele>
<time>2017-11-25T05:07:44.988Z</time>
</trkpt>
<trkpt lat="22.2599831" lon="114.2136079">
<ele>182.269</ele>
<time>2017-11-25T05:07:45.083Z</time>
</trkpt>
<trkpt lat="22.2598956" lon="114.2136331">
<ele>182.113</ele>
<time>2017-11-25T05:08:10.988Z</time>
</trkpt>
<trkpt lat="22.2598956" lon="114.2136331">
<ele>182.120</ele>
<time>2017-11-25T05:08:17.987Z</time>
</trkpt>
<trkpt lat="22.2598956" lon="114.2136331">
<ele>182.104</ele>
<time>2017-11-25T05:08:52.083Z</time>
</trkpt>
<trkpt lat="22.2598806" lon="114.2135286">
<ele>181.945</ele>
<time>2017-11-25T05:09:04.847Z</time>
</trkpt>
<trkpt lat="22.2599401" lon="114.2134485">
<ele>182.289</ele>
<time>2017-11-25T05:09:11.978Z</time>
</trkpt>
<trkpt lat="22.2600343" lon="114.2134100">
<ele>183.322</ele>
<time>2017-11-25T05:09:17.986Z</time>
</trkpt>
<trkpt lat="22.2600343" lon="114.2134100">
<ele>184.415</ele>
<time>2017-11-25T05:09:31.986Z</time>
</trkpt>
<trkpt lat="22.2600343" lon="114.2134100">
<ele>184.845</ele>
<time>2017-11-25T05:09:38.599Z</time>
</trkpt>
<trkpt lat="22.2600343" lon="114.2134100">
<ele>184.390</ele>
<time>2017-11-25T05:09:55.985Z</time>
</trkpt>
<trkpt lat="22.2600343" lon="114.2134100">
<ele>184.203</ele>
<time>2017-11-25T05:10:17.991Z</time>
</trkpt>
<trkpt lat="22.2600343" lon="114.2134100">
<ele>184.146</ele>
<time>2017-11-25T05:10:35.991Z</time>
</trkpt>
<trkpt lat="22.2600343" lon="114.2134100">
<ele>184.124</ele>
<time>2017-11-25T05:10:45.030Z</time>
</trkpt>
<trkpt lat="22.2601200" lon="114.2133548">
<ele>184.073</ele>
<time>2017-11-25T05:11:17.990Z</time>
</trkpt>
<trkpt lat="22.2601200" lon="114.2133548">
<ele>184.007</ele>
<time>2017-11-25T05:11:20.990Z</time>
</trkpt>
<trkpt lat="22.2601200" lon="114.2133548">
<ele>183.947</ele>
<time>2017-11-25T05:11:23.298Z</time>
</trkpt>
<trkpt lat="22.2600422" lon="114.2134051">
<ele>183.829</ele>
<time>2017-11-25T05:11:43.745Z</time>
</trkpt>
<trkpt lat="22.2601065" lon="114.2133261">
<ele>183.894</ele>
<time>2017-11-25T05:12:04.065Z</time>
</trkpt>
<trkpt lat="22.2601047" lon="114.2132261">
<ele>184.172</ele>
<time>2017-11-25T05:12:15.769Z</time>
</trkpt>
<trkpt lat="22.2601508" lon="114.2131398">
<ele>184.486</ele>
<time>2017-11-25T05:12:26.632Z</time>
</trkpt>
<trkpt lat="22.2601962" lon="114.2130557">
<ele>184.503</ele>
<time>2017-11-25T05:12:36.058Z</time>
</trkpt>
<trkpt lat="22.2602451" lon="114.2129660">
<ele>184.034</ele>
<time>2017-11-25T05:12:46.441Z</time>
</trkpt>
<trkpt lat="22.2602587" lon="114.2128653">
<ele>183.168</ele>
<time>2017-11-25T05:12:54.773Z</time>
</trkpt>
<trkpt lat="22.2602518" lon="114.2127629">
<ele>182.159</ele>
<time>2017-11-25T05:13:02.947Z</time>
</trkpt>
<trkpt lat="22.2602440" lon="114.2126655">
<ele>181.173</ele>
<time>2017-11-25T05:13:11.172Z</time>
</trkpt>
<trkpt lat="22.2603104" lon="114.2125987">
<ele>180.374</ele>
<time>2017-11-25T05:13:20.987Z</time>
</trkpt>
<trkpt lat="22.2603104" lon="114.2125987">
<ele>179.966</ele>
<time>2017-11-25T05:13:21.987Z</time>
</trkpt>
<trkpt lat="22.2603104" lon="114.2125987">
<ele>179.932</ele>
<time>2017-11-25T05:13:23.255Z</time>
</trkpt>
<trkpt lat="22.2604258" lon="114.2125138">
<ele>179.991</ele>
<time>2017-11-25T05:13:37.289Z</time>
</trkpt>
<trkpt lat="22.2604737" lon="114.2124161">
<ele>179.854</ele>
<time>2017-11-25T05:13:44.036Z</time>
</trkpt>
<trkpt lat="22.2604745" lon="114.2123175">
<ele>179.359</ele>
<time>2017-11-25T05:13:49.870Z</time>
</trkpt>
<trkpt lat="22.2604748" lon="114.2122066">
<ele>178.493</ele>
<time>2017-11-25T05:13:56.221Z</time>
</trkpt>
<trkpt lat="22.2604572" lon="114.2121093">
<ele>177.459</ele>
<time>2017-11-25T05:14:01.817Z</time>
</trkpt>
<trkpt lat="22.2604114" lon="114.2120207">
<ele>176.395</ele>
<time>2017-11-25T05:14:07.651Z</time>
</trkpt>
<trkpt lat="22.2603452" lon="114.2119419">
<ele>175.396</ele>
<time>2017-11-25T05:14:13.982Z</time>
</trkpt>
<trkpt lat="22.2603121" lon="114.2118387">
<ele>174.731</ele>
<time>2017-11-25T05:14:20.678Z</time>
</trkpt>
<trkpt lat="22.2602653" lon="114.2117482">
<ele>174.332</ele>
<time>2017-11-25T05:14:27.126Z</time>
</trkpt>
<trkpt lat="22.2601953" lon="114.2116713">
<ele>173.722</ele>
<time>2017-11-25T05:14:33.870Z</time>
</trkpt>
<trkpt lat="22.2600955" lon="114.2116784">
<ele>172.898</ele>
<time>2017-11-25T05:14:40.809Z</time>
</trkpt>
<trkpt lat="22.2600126" lon="114.2117419">
<ele>172.313</ele>
<time>2017-11-25T05:14:48.001Z</time>
</trkpt>
<trkpt lat="22.2599288" lon="114.2117943">
<ele>172.391</ele>
<time>2017-11-25T05:14:54.716Z</time>
</trkpt>
<trkpt lat="22.2598507" lon="114.2118430">
<ele>173.091</ele>
<time>2017-11-25T05:15:00.951Z</time>
</trkpt>
<trkpt lat="22.2597518" lon="114.2118375">
<ele>173.809</ele>
<time>2017-11-25T05:15:07.622Z</time>
</trkpt>
<trkpt lat="22.2596868" lon="114.2117606">
<ele>174.059</ele>
<time>2017-11-25T05:15:13.703Z</time>
</trkpt>
<trkpt lat="22.2595891" lon="114.2117358">
<ele>173.746</ele>
<time>2017-11-25T05:15:19.984Z</time>
</trkpt>
<trkpt lat="22.2595891" lon="114.2117358">
<ele>173.025</ele>
<time>2017-11-25T05:15:33.983Z</time>
</trkpt>
<trkpt lat="22.2595891" lon="114.2117358">
<ele>172.456</ele>
<time>2017-11-25T05:15:55.326Z</time>
</trkpt>
<trkpt lat="22.2595169" lon="114.2116714">
<ele>172.401</ele>
<time>2017-11-25T05:16:06.420Z</time>
</trkpt>
<trkpt lat="22.2594293" lon="114.2116146">
<ele>172.167</ele>
<time>2017-11-25T05:16:13.526Z</time>
</trkpt>
<trkpt lat="22.2593354" lon="114.2115650">
<ele>171.102</ele>
<time>2017-11-25T05:16:20.354Z</time>
</trkpt>
<trkpt lat="22.2592574" lon="114.2115081">
<ele>169.603</ele>
<time>2017-11-25T05:16:27.201Z</time>
</trkpt>
<trkpt lat="22.2591710" lon="114.2114538">
<ele>168.231</ele>
<time>2017-11-25T05:16:35.443Z</time>
</trkpt>
<trkpt lat="22.2590737" lon="114.2114535">
<ele>167.138</ele>
<time>2017-11-25T05:16:44.067Z</time>
</trkpt>
<trkpt lat="22.2590070" lon="114.2115276">
<ele>166.201</ele>
<time>2017-11-25T05:16:52.020Z</time>
</trkpt>
<trkpt lat="22.2589497" lon="114.2116194">
<ele>165.182</ele>
<time>2017-11-25T05:16:59.974Z</time>
</trkpt>
<trkpt lat="22.2589010" lon="114.2117055">
<ele>164.210</ele>
<time>2017-11-25T05:17:06.334Z</time>
</trkpt>
<trkpt lat="22.2588283" lon="114.2117674">
<ele>163.528</ele>
<time>2017-11-25T05:17:12.332Z</time>
</trkpt>
<trkpt lat="22.2587689" lon="114.2118513">
<ele>162.871</ele>
<time>2017-11-25T05:17:18.845Z</time>
</trkpt>
<trkpt lat="22.2587104" lon="114.2119336">
<ele>161.989</ele>
<time>2017-11-25T05:17:25.494Z</time>
</trkpt>
<trkpt lat="22.2586414" lon="114.2120023">
<ele>161.059</ele>
<time>2017-11-25T05:17:32.218Z</time>
</trkpt>
<trkpt lat="22.2585889" lon="114.2120899">
<ele>160.332</ele>
<time>2017-11-25T05:17:39.494Z</time>
</trkpt>
<trkpt lat="22.2585462" lon="114.2121819">
<ele>159.685</ele>
<time>2017-11-25T05:17:46.386Z</time>
</trkpt>
<trkpt lat="22.2585206" lon="114.2122814">
<ele>158.886</ele>
<time>2017-11-25T05:17:53.067Z</time>
</trkpt>
<trkpt lat="22.2584465" lon="114.2123379">
<ele>157.859</ele>
<time>2017-11-25T05:17:59.986Z</time>
</trkpt>
<trkpt lat="22.2584465" lon="114.2123379">
<ele>156.879</ele>
<time>2017-11-25T05:18:09.986Z</time>
</trkpt>
<trkpt lat="22.2584465" lon="114.2123379">
<ele>156.333</ele>
<time>2017-11-25T05:18:16.288Z</time>
</trkpt>
<trkpt lat="22.2584887" lon="114.2121383">
<ele>156.313</ele>
<time>2017-11-25T05:18:31.985Z</time>
</trkpt>
<trkpt lat="22.2584887" lon="114.2121383">
<ele>156.434</ele>
<time>2017-11-25T05:18:33.985Z</time>
</trkpt>
<trkpt lat="22.2584887" lon="114.2121383">
<ele>156.387</ele>
<time>2017-11-25T05:19:25.984Z</time>
</trkpt>
<trkpt lat="22.2584887" lon="114.2121383">
<ele>156.248</ele>
<time>2017-11-25T05:19:27.832Z</time>
</trkpt>
<trkpt lat="22.2584543" lon="114.2122787">
<ele>156.183</ele>
<time>2017-11-25T05:19:34.984Z</time>
</trkpt>
<trkpt lat="22.2584543" lon="114.2122787">
<ele>156.189</ele>
<time>2017-11-25T05:19:41.984Z</time>
</trkpt>
<trkpt lat="22.2584543" lon="114.2122787">
<ele>156.180</ele>
<time>2017-11-25T05:19:44.369Z</time>
</trkpt>
<trkpt lat="22.2584543" lon="114.2122787">
<ele>156.039</ele>
<time>2017-11-25T05:20:04.983Z</time>
</trkpt>
<trkpt lat="22.2584543" lon="114.2122787">
<ele>155.992</ele>
<time>2017-11-25T05:20:48.982Z</time>
</trkpt>
<trkpt lat="22.2584543" lon="114.2122787">
<ele>155.948</ele>
<time>2017-11-25T05:21:39.981Z</time>
</trkpt>
<trkpt lat="22.2584543" lon="114.2122787">
<ele>155.892</ele>
<time>2017-11-25T05:21:50.442Z</time>
</trkpt>
<trkpt lat="22.2584543" lon="114.2122787">
<ele>155.789</ele>
<time>2017-11-25T05:22:14.980Z</time>
</trkpt>
<trkpt lat="22.2584543" lon="114.2122787">
<ele>155.749</ele>
<time>2017-11-25T05:22:26.225Z</time>
</trkpt>
<trkpt lat="22.2584980" lon="114.2123675">
<ele>155.697</ele>
<time>2017-11-25T05:22:37.979Z</time>
</trkpt>
<trkpt lat="22.2584980" lon="114.2123675">
<ele>155.629</ele>
<time>2017-11-25T05:22:45.979Z</time>
</trkpt>
<trkpt lat="22.2584980" lon="114.2123675">
<ele>155.554</ele>
<time>2017-11-25T05:24:02.657Z</time>
</trkpt>
<trkpt lat="22.2584492" lon="114.2122735">
<ele>155.496</ele>
<time>2017-11-25T05:24:14.582Z</time>
</trkpt>
<trkpt lat="22.2584823" lon="114.2121802">
<ele>155.485</ele>
<time>2017-11-25T05:24:19.977Z</time>
</trkpt>
<trkpt lat="22.2584823" lon="114.2121802">
<ele>155.510</ele>
<time>2017-11-25T05:24:26.977Z</time>
</trkpt>
<trkpt lat="22.2584823" lon="114.2121802">
<ele>155.506</ele>
<time>2017-11-25T05:24:28.323Z</time>
</trkpt>
<trkpt lat="22.2583797" lon="114.2121276">
<ele>155.438</ele>
<time>2017-11-25T05:24:43.330Z</time>
</trkpt>
<trkpt lat="22.2583172" lon="114.2120419">
<ele>155.094</ele>
<time>2017-11-25T05:24:49.498Z</time>
</trkpt>
<trkpt lat="22.2582248" lon="114.2120067">
<ele>154.308</ele>
<time>2017-11-25T05:24:53.944Z</time>
</trkpt>
<trkpt lat="22.2581507" lon="114.2119476">
<ele>152.792</ele>
<time>2017-11-25T05:24:59.229Z</time>
</trkpt>
<trkpt lat="22.2580641" lon="114.2118995">
<ele>152.012</ele>
<time>2017-11-25T05:25:05.237Z</time>
</trkpt>
<trkpt lat="22.2580002" lon="114.2118254">
<ele>149.769</ele>
<time>2017-11-25T05:25:12.721Z</time>
</trkpt>
<trkpt lat="22.2579698" lon="114.2117216">
<ele>148.364</ele>
<time>2017-11-25T05:25:19.546Z</time>
</trkpt>
<trkpt lat="22.2578858" lon="114.2116758">
<ele>147.559</ele>
<time>2017-11-25T05:25:25.982Z</time>
</trkpt>
<trkpt lat="22.2578858" lon="114.2116758">
<ele>146.637</ele>
<time>2017-11-25T05:25:34.982Z</time>
</trkpt>
<trkpt lat="22.2578858" lon="114.2116758">
<ele>146.189</ele>
<time>2017-11-25T05:26:15.742Z</time>
</trkpt>
<trkpt lat="22.2577659" lon="114.2116149">
<ele>146.177</ele>
<time>2017-11-25T05:26:38.667Z</time>
</trkpt>
<trkpt lat="22.2577223" lon="114.2115289">
<ele>143.911</ele>
<time>2017-11-25T05:26:53.440Z</time>
</trkpt>
<trkpt lat="22.2577268" lon="114.2114307">
<ele>136.881</ele>
<time>2017-11-25T05:27:09.459Z</time>
</trkpt>
<trkpt lat="22.2577505" lon="114.2113237">
<ele>127.958</ele>
<time>2017-11-25T05:27:24.808Z</time>
</trkpt>
<trkpt lat="22.2577688" lon="114.2112240">
<ele>121.865</ele>
<time>2017-11-25T05:27:38.979Z</time>
</trkpt>
<trkpt lat="22.2577688" lon="114.2112240">
<ele>119.671</ele>
<time>2017-11-25T05:27:40.979Z</time>
</trkpt>
<trkpt lat="22.2577688" lon="114.2112240">
<ele>120.006</ele>
<time>2017-11-25T05:27:41.447Z</time>
</trkpt>
<trkpt lat="22.2576805" lon="114.2111690">
<ele>120.590</ele>
<time>2017-11-25T05:27:54.979Z</time>
</trkpt>
<trkpt lat="22.2576805" lon="114.2111690">
<ele>120.119</ele>
<time>2017-11-25T05:28:05.978Z</time>
</trkpt>
<trkpt lat="22.2576805" lon="114.2111690">
<ele>120.035</ele>
<time>2017-11-25T05:28:11.808Z</time>
</trkpt>
<trkpt lat="22.2575987" lon="114.2111161">
<ele>120.233</ele>
<time>2017-11-25T05:28:32.124Z</time>
</trkpt>
<trkpt lat="22.2575206" lon="114.2111767">
<ele>123.950</ele>
<time>2017-11-25T05:28:44.589Z</time>
</trkpt>
<trkpt lat="22.2574519" lon="114.2112504">
<ele>133.495</ele>
<time>2017-11-25T05:28:54.498Z</time>
</trkpt>
<trkpt lat="22.2573628" lon="114.2112819">
<ele>143.440</ele>
<time>2017-11-25T05:29:01.977Z</time>
</trkpt>
<trkpt lat="22.2573628" lon="114.2112819">
<ele>148.135</ele>
<time>2017-11-25T05:29:07.977Z</time>
</trkpt>
<trkpt lat="22.2573628" lon="114.2112819">
<ele>148.666</ele>
<time>2017-11-25T05:29:11.985Z</time>
</trkpt>
<trkpt lat="22.2574631" lon="114.2112660">
<ele>147.541</ele>
<time>2017-11-25T05:29:24.977Z</time>
</trkpt>
<trkpt lat="22.2574631" lon="114.2112660">
<ele>147.578</ele>
<time>2017-11-25T05:29:26.977Z</time>
</trkpt>
<trkpt lat="22.2574631" lon="114.2112660">
<ele>147.560</ele>
<time>2017-11-25T05:29:43.143Z</time>
</trkpt>
<trkpt lat="22.2575488" lon="114.2112226">
<ele>147.398</ele>
<time>2017-11-25T05:29:54.928Z</time>
</trkpt>
<trkpt lat="22.2576060" lon="114.2111447">
<ele>147.806</ele>
<time>2017-11-25T05:29:59.976Z</time>
</trkpt>
<trkpt lat="22.2576060" lon="114.2111447">
<ele>148.908</ele>
<time>2017-11-25T05:30:06.976Z</time>
</trkpt>
<trkpt lat="22.2576060" lon="114.2111447">
<ele>149.805</ele>
<time>2017-11-25T05:30:17.855Z</time>
</trkpt>
<trkpt lat="22.2575966" lon="114.2110417">
<ele>149.727</ele>
<time>2017-11-25T05:30:28.976Z</time>
</trkpt>
<trkpt lat="22.2575966" lon="114.2110417">
<ele>149.290</ele>
<time>2017-11-25T05:30:29.976Z</time>
</trkpt>
<trkpt lat="22.2575966" lon="114.2110417">
<ele>149.194</ele>
<time>2017-11-25T05:30:30.076Z</time>
</trkpt>
<trkpt lat="22.2576884" lon="114.2109847">
<ele>149.293</ele>
<time>2017-11-25T05:30:40.975Z</time>
</trkpt>
<trkpt lat="22.2576884" lon="114.2109847">
<ele>149.199</ele>
<time>2017-11-25T05:30:52.975Z</time>
</trkpt>
<trkpt lat="22.2576884" lon="114.2109847">
<ele>149.130</ele>
<time>2017-11-25T05:30:53.075Z</time>
</trkpt>
<trkpt lat="22.2576017" lon="114.2109235">
<ele>149.060</ele>
<time>2017-11-25T05:31:13.002Z</time>
</trkpt>
<trkpt lat="22.2575728" lon="114.2110233">
<ele>149.839</ele>
<time>2017-11-25T05:31:25.866Z</time>
</trkpt>
<trkpt lat="22.2576644" lon="114.2110121">
<ele>151.928</ele>
<time>2017-11-25T05:31:33.372Z</time>
</trkpt>
<trkpt lat="22.2577545" lon="114.2109616">
<ele>154.040</ele>
<time>2017-11-25T05:31:41.974Z</time>
</trkpt>
<trkpt lat="22.2577545" lon="114.2109616">
<ele>154.946</ele>
<time>2017-11-25T05:31:46.974Z</time>
</trkpt>
<trkpt lat="22.2577545" lon="114.2109616">
<ele>154.977</ele>
<time>2017-11-25T05:31:51.284Z</time>
</trkpt>
<trkpt lat="22.2578676" lon="114.2109173">
<ele>154.779</ele>
<time>2017-11-25T05:32:04.534Z</time>
</trkpt>
<trkpt lat="22.2579565" lon="114.2108721">
<ele>154.844</ele>
<time>2017-11-25T05:32:11.743Z</time>
</trkpt>
<trkpt lat="22.2580161" lon="114.2107858">
<ele>155.276</ele>
<time>2017-11-25T05:32:18.878Z</time>
</trkpt>
<trkpt lat="22.2580303" lon="114.2106830">
<ele>155.557</ele>
<time>2017-11-25T05:32:25.229Z</time>
</trkpt>
<trkpt lat="22.2579706" lon="114.2105899">
<ele>155.287</ele>
<time>2017-11-25T05:32:31.752Z</time>
</trkpt>
<trkpt lat="22.2578734" lon="114.2105811">
<ele>154.781</ele>
<time>2017-11-25T05:32:37.676Z</time>
</trkpt>
<trkpt lat="22.2577847" lon="114.2105601">
<ele>154.396</ele>
<time>2017-11-25T05:32:42.979Z</time>
</trkpt>
<trkpt lat="22.2577847" lon="114.2105601">
<ele>154.150</ele>
<time>2017-11-25T05:32:46.979Z</time>
</trkpt>
<trkpt lat="22.2577847" lon="114.2105601">
<ele>154.026</ele>
<time>2017-11-25T05:33:48.943Z</time>
</trkpt>
<trkpt lat="22.2576849" lon="114.2105407">
<ele>154.027</ele>
<time>2017-11-25T05:34:01.496Z</time>
</trkpt>
<trkpt lat="22.2575978" lon="114.2105045">
<ele>154.358</ele>
<time>2017-11-25T05:34:08.784Z</time>
</trkpt>
<trkpt lat="22.2575321" lon="114.2104351">
<ele>155.139</ele>
<time>2017-11-25T05:34:15.327Z</time>
</trkpt>
<trkpt lat="22.2574470" lon="114.2103710">
<ele>156.088</ele>
<time>2017-11-25T05:34:22.011Z</time>
</trkpt>
<trkpt lat="22.2573432" lon="114.2103786">
<ele>156.900</ele>
<time>2017-11-25T05:34:28.548Z</time>
</trkpt>
<trkpt lat="22.2572582" lon="114.2104204">
<ele>157.522</ele>
<time>2017-11-25T05:34:34.482Z</time>
</trkpt>
<trkpt lat="22.2571581" lon="114.2104412">
<ele>158.202</ele>
<time>2017-11-25T05:34:41.152Z</time>
</trkpt>
<trkpt lat="22.2570601" lon="114.2104475">
<ele>159.186</ele>
<time>2017-11-25T05:34:47.976Z</time>
</trkpt>
<trkpt lat="22.2570601" lon="114.2104475">
<ele>160.152</ele>
<time>2017-11-25T05:34:59.976Z</time>
</trkpt>
<trkpt lat="22.2570601" lon="114.2104475">
<ele>160.588</ele>
<time>2017-11-25T05:35:28.034Z</time>
</trkpt>
<trkpt lat="22.2569725" lon="114.2105212">
<ele>160.473</ele>
<time>2017-11-25T05:35:45.462Z</time>
</trkpt>
<trkpt lat="22.2568881" lon="114.2105611">
<ele>160.186</ele>
<time>2017-11-25T05:35:55.043Z</time>
</trkpt>
<trkpt lat="22.2567895" lon="114.2105412">
<ele>160.088</ele>
<time>2017-11-25T05:36:04.677Z</time>
</trkpt>
<trkpt lat="22.2567546" lon="114.2104417">
<ele>160.160</ele>
<time>2017-11-25T05:36:12.917Z</time>
</trkpt>
<trkpt lat="22.2567021" lon="114.2103496">
<ele>160.197</ele>
<time>2017-11-25T05:36:21.966Z</time>
</trkpt>
<trkpt lat="22.2566951" lon="114.2102526">
<ele>160.147</ele>
<time>2017-11-25T05:36:30.787Z</time>
</trkpt>
<trkpt lat="22.2567833" lon="114.2102021">
<ele>160.093</ele>
<time>2017-11-25T05:36:39.260Z</time>
</trkpt>
<trkpt lat="22.2568752" lon="114.2101472">
<ele>160.065</ele>
<time>2017-11-25T05:36:46.798Z</time>
</trkpt>
<trkpt lat="22.2569704" lon="114.2101069">
<ele>159.949</ele>
<time>2017-11-25T05:36:54.024Z</time>
</trkpt>
<trkpt lat="22.2570538" lon="114.2100438">
<ele>159.499</ele>
<time>2017-11-25T05:37:01.769Z</time>
</trkpt>
<trkpt lat="22.2570766" lon="114.2099429">
<ele>158.701</ele>
<time>2017-11-25T05:37:10.148Z</time>
</trkpt>
<trkpt lat="22.2570090" lon="114.2098682">
<ele>157.918</ele>
<time>2017-11-25T05:37:19.523Z</time>
</trkpt>
<trkpt lat="22.2569914" lon="114.2097730">
<ele>157.511</ele>
<time>2017-11-25T05:37:28.082Z</time>
</trkpt>
<trkpt lat="22.2569966" lon="114.2096711">
<ele>157.512</ele>
<time>2017-11-25T05:37:34.875Z</time>
</trkpt>
<trkpt lat="22.2570587" lon="114.2095803">
<ele>157.943</ele>
<time>2017-11-25T05:37:41.102Z</time>
</trkpt>
<trkpt lat="22.2571357" lon="114.2095261">
<ele>158.746</ele>
<time>2017-11-25T05:37:45.991Z</time>
</trkpt>
<trkpt lat="22.2572306" lon="114.2094814">
<ele>159.475</ele>
<time>2017-11-25T05:37:52.598Z</time>
</trkpt>
<trkpt lat="22.2573004" lon="114.2094081">
<ele>159.661</ele>
<time>2017-11-25T05:38:00.109Z</time>
</trkpt>
<trkpt lat="22.2573840" lon="114.2093654">
<ele>159.179</ele>
<time>2017-11-25T05:38:09.342Z</time>
</trkpt>
<trkpt lat="22.2574627" lon="114.2093167">
<ele>158.318</ele>
<time>2017-11-25T05:38:16.971Z</time>
</trkpt>
<trkpt lat="22.2574627" lon="114.2093167">
<ele>157.718</ele>
<time>2017-11-25T05:38:16.971Z</time>
</trkpt>
<trkpt lat="22.2574627" lon="114.2093167">
<ele>157.680</ele>
<time>2017-11-25T05:38:23.307Z</time>
</trkpt>
<trkpt lat="22.2575746" lon="114.2092991">
<ele>157.799</ele>
<time>2017-11-25T05:38:38.286Z</time>
</trkpt>
<trkpt lat="22.2576631" lon="114.2093281">
<ele>157.650</ele>
<time>2017-11-25T05:38:47.065Z</time>
</trkpt>
<trkpt lat="22.2577225" lon="114.2094141">
<ele>157.392</ele>
<time>2017-11-25T05:38:55.948Z</time>
</trkpt>
<trkpt lat="22.2578192" lon="114.2094580">
<ele>156.950</ele>
<time>2017-11-25T05:39:03.455Z</time>
</trkpt>
<trkpt lat="22.2579094" lon="114.2094778">
<ele>156.617</ele>
<time>2017-11-25T05:39:09.580Z</time>
</trkpt>
<trkpt lat="22.2579788" lon="114.2095518">
<ele>156.790</ele>
<time>2017-11-25T05:39:16.302Z</time>
</trkpt>
<trkpt lat="22.2580770" lon="114.2095596">
<ele>157.532</ele>
<time>2017-11-25T05:39:23.434Z</time>
</trkpt>
<trkpt lat="22.2581536" lon="114.2094864">
<ele>158.661</ele>
<time>2017-11-25T05:39:30.976Z</time>
</trkpt>
<trkpt lat="22.2581536" lon="114.2094864">
<ele>159.780</ele>
<time>2017-11-25T05:39:39.976Z</time>
</trkpt>
<trkpt lat="22.2581536" lon="114.2094864">
<ele>160.349</ele>
<time>2017-11-25T05:39:40.076Z</time>
</trkpt>
<trkpt lat="22.2582675" lon="114.2094549">
<ele>160.232</ele>
<time>2017-11-25T05:39:51.642Z</time>
</trkpt>
<trkpt lat="22.2583597" lon="114.2094359">
<ele>160.142</ele>
<time>2017-11-25T05:39:57.440Z</time>
</trkpt>
<trkpt lat="22.2584575" lon="114.2094496">
<ele>160.631</ele>
<time>2017-11-25T05:40:03.306Z</time>
</trkpt>
<trkpt lat="22.2585224" lon="114.2093766">
<ele>161.223</ele>
<time>2017-11-25T05:40:08.975Z</time>
</trkpt>
<trkpt lat="22.2585224" lon="114.2093766">
<ele>161.371</ele>
<time>2017-11-25T05:40:15.975Z</time>
</trkpt>
<trkpt lat="22.2585224" lon="114.2093766">
<ele>161.231</ele>
<time>2017-11-25T05:40:16.075Z</time>
</trkpt>
<trkpt lat="22.2585809" lon="114.2092610">
<ele>161.086</ele>
<time>2017-11-25T05:40:26.184Z</time>
</trkpt>
<trkpt lat="22.2586132" lon="114.2091634">
<ele>161.039</ele>
<time>2017-11-25T05:40:30.975Z</time>
</trkpt>
<trkpt lat="22.2586132" lon="114.2091634">
<ele>161.038</ele>
<time>2017-11-25T05:40:33.975Z</time>
</trkpt>
<trkpt lat="22.2586132" lon="114.2091634">
<ele>160.985</ele>
<time>2017-11-25T05:40:34.075Z</time>
</trkpt>
<trkpt lat="22.2587097" lon="114.2091017">
<ele>160.851</ele>
<time>2017-11-25T05:40:57.598Z</time>
</trkpt>
<trkpt lat="22.2588003" lon="114.2090653">
<ele>160.976</ele>
<time>2017-11-25T05:41:04.005Z</time>
</trkpt>
<trkpt lat="22.2588885" lon="114.2090038">
<ele>161.359</ele>
<time>2017-11-25T05:41:10.287Z</time>
</trkpt>
<trkpt lat="22.2589770" lon="114.2089711">
<ele>161.782</ele>
<time>2017-11-25T05:41:16.107Z</time>
</trkpt>
<trkpt lat="22.2590763" lon="114.2089402">
<ele>161.984</ele>
<time>2017-11-25T05:41:22.386Z</time>
</trkpt>
<trkpt lat="22.2591684" lon="114.2089126">
<ele>161.871</ele>
<time>2017-11-25T05:41:28.072Z</time>
</trkpt>
<trkpt lat="22.2592443" lon="114.2088602">
<ele>161.519</ele>
<time>2017-11-25T05:41:33.727Z</time>
</trkpt>
<trkpt lat="22.2592786" lon="114.2087596">
<ele>161.243</ele>
<time>2017-11-25T05:41:40.408Z</time>
</trkpt>
<trkpt lat="22.2593190" lon="114.2086671">
<ele>161.241</ele>
<time>2017-11-25T05:41:46.929Z</time>
</trkpt>
<trkpt lat="22.2593240" lon="114.2085677">
<ele>161.377</ele>
<time>2017-11-25T05:41:52.973Z</time>
</trkpt>
<trkpt lat="22.2593240" lon="114.2085677">
<ele>161.470</ele>
<time>2017-11-25T05:41:59.973Z</time>
</trkpt>
<trkpt lat="22.2593240" lon="114.2085677">
<ele>161.460</ele>
<time>2017-11-25T05:42:00.478Z</time>
</trkpt>
<trkpt lat="22.2594376" lon="114.2084231">
<ele>161.380</ele>
<time>2017-11-25T05:42:19.910Z</time>
</trkpt>
<trkpt lat="22.2594821" lon="114.2083344">
<ele>161.564</ele>
<time>2017-11-25T05:42:25.972Z</time>
</trkpt>
<trkpt lat="22.2594821" lon="114.2083344">
<ele>162.202</ele>
<time>2017-11-25T05:42:33.972Z</time>
</trkpt>
<trkpt lat="22.2594821" lon="114.2083344">
<ele>162.730</ele>
<time>2017-11-25T05:42:36.799Z</time>
</trkpt>
<trkpt lat="22.2595747" lon="114.2083170">
<ele>162.293</ele>
<time>2017-11-25T05:42:47.972Z</time>
</trkpt>
<trkpt lat="22.2595747" lon="114.2083170">
<ele>162.054</ele>
<time>2017-11-25T05:42:48.972Z</time>
</trkpt>
<trkpt lat="22.2595747" lon="114.2083170">
<ele>162.001</ele>
<time>2017-11-25T05:43:06.042Z</time>
</trkpt>
<trkpt lat="22.2596564" lon="114.2083635">
<ele>161.969</ele>
<time>2017-11-25T05:43:18.433Z</time>
</trkpt>
<trkpt lat="22.2597456" lon="114.2084158">
<ele>162.032</ele>
<time>2017-11-25T05:43:25.746Z</time>
</trkpt>
<trkpt lat="22.2598354" lon="114.2084283">
<ele>162.329</ele>
<time>2017-11-25T05:43:31.935Z</time>
</trkpt>
<trkpt lat="22.2598783" lon="114.2083361">
<ele>162.261</ele>
<time>2017-11-25T05:43:38.732Z</time>
</trkpt>
<trkpt lat="22.2599673" lon="114.2083021">
<ele>161.263</ele>
<time>2017-11-25T05:43:45.200Z</time>
</trkpt>
<trkpt lat="22.2600642" lon="114.2082900">
<ele>159.914</ele>
<time>2017-11-25T05:43:51.828Z</time>
</trkpt>
<trkpt lat="22.2601322" lon="114.2082213">
<ele>159.065</ele>
<time>2017-11-25T05:43:58.399Z</time>
</trkpt>
<trkpt lat="22.2602206" lon="114.2081937">
<ele>158.856</ele>
<time>2017-11-25T05:44:05.129Z</time>
</trkpt>
<trkpt lat="22.2603010" lon="114.2081407">
<ele>159.121</ele>
<time>2017-11-25T05:44:12.363Z</time>
</trkpt>
<trkpt lat="22.2602882" lon="114.2080427">
<ele>159.607</ele>
<time>2017-11-25T05:44:20.219Z</time>
</trkpt>
<trkpt lat="22.2603499" lon="114.2079526">
<ele>160.073</ele>
<time>2017-11-25T05:44:29.774Z</time>
</trkpt>
<trkpt lat="22.2604290" lon="114.2078862">
<ele>160.649</ele>
<time>2017-11-25T05:44:37.866Z</time>
</trkpt>
<trkpt lat="22.2605106" lon="114.2078366">
<ele>161.620</ele>
<time>2017-11-25T05:44:44.995Z</time>
</trkpt>
<trkpt lat="22.2605901" lon="114.2077702">
<ele>162.755</ele>
<time>2017-11-25T05:44:53.281Z</time>
</trkpt>
<trkpt lat="22.2606846" lon="114.2077777">
<ele>163.535</ele>
<time>2017-11-25T05:45:00.038Z</time>
</trkpt>
<trkpt lat="22.2607889" lon="114.2078075">
<ele>163.717</ele>
<time>2017-11-25T05:45:06.104Z</time>
</trkpt>
<trkpt lat="22.2608906" lon="114.2077882">
<ele>163.294</ele>
<time>2017-11-25T05:45:11.609Z</time>
</trkpt>
<trkpt lat="22.2609705" lon="114.2077140">
<ele>162.512</ele>
<time>2017-11-25T05:45:17.561Z</time>
</trkpt>
<trkpt lat="22.2610615" lon="114.2076874">
<ele>161.741</ele>
<time>2017-11-25T05:45:23.564Z</time>
</trkpt>
<trkpt lat="22.2611629" lon="114.2076585">
<ele>161.144</ele>
<time>2017-11-25T05:45:30.254Z</time>
</trkpt>
<trkpt lat="22.2612595" lon="114.2076471">
<ele>160.729</ele>
<time>2017-11-25T05:45:35.968Z</time>
</trkpt>
<trkpt lat="22.2612595" lon="114.2076471">
<ele>160.505</ele>
<time>2017-11-25T05:45:41.968Z</time>
</trkpt>
<trkpt lat="22.2612595" lon="114.2076471">
<ele>160.413</ele>
<time>2017-11-25T05:45:42.068Z</time>
</trkpt>
<trkpt lat="22.2613559" lon="114.2076046">
<ele>160.399</ele>
<time>2017-11-25T05:45:56.000Z</time>
</trkpt>
<trkpt lat="22.2613645" lon="114.2074984">
<ele>160.866</ele>
<time>2017-11-25T05:46:02.659Z</time>
</trkpt>
<trkpt lat="22.2613863" lon="114.2073980">
<ele>162.080</ele>
<time>2017-11-25T05:46:07.967Z</time>
</trkpt>
<trkpt lat="22.2613863" lon="114.2073980">
<ele>163.359</ele>
<time>2017-11-25T05:46:13.973Z</time>
</trkpt>
<trkpt lat="22.2613863" lon="114.2073980">
<ele>163.913</ele>
<time>2017-11-25T05:46:24.212Z</time>
</trkpt>
<trkpt lat="22.2613576" lon="114.2074987">
<ele>163.415</ele>
<time>2017-11-25T05:46:55.973Z</time>
</trkpt>
<trkpt lat="22.2613576" lon="114.2074987">
<ele>163.190</ele>
<time>2017-11-25T05:46:59.972Z</time>
</trkpt>
<trkpt lat="22.2613576" lon="114.2074987">
<ele>163.138</ele>
<time>2017-11-25T05:47:27.903Z</time>
</trkpt>
<trkpt lat="22.2612987" lon="114.2075803">
<ele>163.098</ele>
<time>2017-11-25T05:47:40.971Z</time>
</trkpt>
<trkpt lat="22.2612987" lon="114.2075803">
<ele>163.035</ele>
<time>2017-11-25T05:47:42.971Z</time>
</trkpt>
<trkpt lat="22.2612987" lon="114.2075803">
<ele>162.987</ele>
<time>2017-11-25T05:47:43.370Z</time>
</trkpt>
<trkpt lat="22.2613741" lon="114.2076350">
<ele>162.883</ele>
<time>2017-11-25T05:48:03.516Z</time>
</trkpt>
<trkpt lat="22.2613983" lon="114.2075340">
<ele>163.056</ele>
<time>2017-11-25T05:48:12.505Z</time>
</trkpt>
<trkpt lat="22.2614142" lon="114.2074280">
<ele>163.702</ele>
<time>2017-11-25T05:48:20.521Z</time>
</trkpt>
<trkpt lat="22.2613713" lon="114.2073360">
<ele>164.562</ele>
<time>2017-11-25T05:48:28.695Z</time>
</trkpt>
<trkpt lat="22.2613065" lon="114.2072492">
<ele>165.140</ele>
<time>2017-11-25T05:48:36.465Z</time>
</trkpt>
<trkpt lat="22.2613233" lon="114.2071398">
<ele>165.351</ele>
<time>2017-11-25T05:48:42.680Z</time>
</trkpt>
<trkpt lat="22.2613063" lon="114.2070276">
<ele>165.431</ele>
<time>2017-11-25T05:48:48.196Z</time>
</trkpt>
<trkpt lat="22.2613254" lon="114.2069183">
<ele>165.722</ele>
<time>2017-11-25T05:48:53.901Z</time>
</trkpt>
<trkpt lat="22.2614306" lon="114.2068839">
<ele>166.550</ele>
<time>2017-11-25T05:49:00.701Z</time>
</trkpt>
<trkpt lat="22.2615269" lon="114.2068489">
<ele>167.737</ele>
<time>2017-11-25T05:49:07.529Z</time>
</trkpt>
<trkpt lat="22.2616315" lon="114.2068542">
<ele>168.374</ele>
<time>2017-11-25T05:49:14.264Z</time>
</trkpt>
<trkpt lat="22.2617077" lon="114.2069199">
<ele>168.009</ele>
<time>2017-11-25T05:49:20.264Z</time>
</trkpt>
<trkpt lat="22.2618062" lon="114.2069245">
<ele>167.088</ele>
<time>2017-11-25T05:49:26.555Z</time>
</trkpt>
<trkpt lat="22.2618791" lon="114.2068636">
<ele>166.023</ele>
<time>2017-11-25T05:49:32.980Z</time>
</trkpt>
<trkpt lat="22.2619229" lon="114.2067652">
<ele>165.042</ele>
<time>2017-11-25T05:49:40.174Z</time>
</trkpt>
<trkpt lat="22.2619559" lon="114.2066707">
<ele>164.441</ele>
<time>2017-11-25T05:49:46.622Z</time>
</trkpt>
<trkpt lat="22.2620052" lon="114.2065818">
<ele>164.245</ele>
<time>2017-11-25T05:49:53.406Z</time>
</trkpt>
<trkpt lat="22.2620537" lon="114.2064848">
<ele>164.122</ele>
<time>2017-11-25T05:50:00.947Z</time>
</trkpt>
<trkpt lat="22.2620933" lon="114.2063949">
<ele>163.695</ele>
<time>2017-11-25T05:50:07.901Z</time>
</trkpt>
<trkpt lat="22.2620482" lon="114.2063022">
<ele>163.038</ele>
<time>2017-11-25T05:50:15.700Z</time>
</trkpt>
<trkpt lat="22.2620007" lon="114.2062182">
<ele>162.532</ele>
<time>2017-11-25T05:50:24.050Z</time>
</trkpt>
<trkpt lat="22.2619301" lon="114.2061380">
<ele>162.379</ele>
<time>2017-11-25T05:50:34.440Z</time>
</trkpt>
<trkpt lat="22.2618406" lon="114.2060859">
<ele>162.614</ele>
<time>2017-11-25T05:50:44.094Z</time>
</trkpt>
<trkpt lat="22.2617705" lon="114.2060207">
<ele>163.120</ele>
<time>2017-11-25T05:50:50.998Z</time>
</trkpt>
<trkpt lat="22.2616894" lon="114.2059559">
<ele>163.591</ele>
<time>2017-11-25T05:50:57.561Z</time>
</trkpt>
<trkpt lat="22.2616450" lon="114.2058693">
<ele>163.827</ele>
<time>2017-11-25T05:51:03.549Z</time>
</trkpt>
<trkpt lat="22.2615533" lon="114.2058310">
<ele>163.874</ele>
<time>2017-11-25T05:51:10.966Z</time>
</trkpt>
<trkpt lat="22.2615533" lon="114.2058310">
<ele>163.828</ele>
<time>2017-11-25T05:51:19.966Z</time>
</trkpt>
<trkpt lat="22.2615533" lon="114.2058310">
<ele>163.753</ele>
<time>2017-11-25T05:51:20.066Z</time>
</trkpt>
<trkpt lat="22.2614784" lon="114.2057559">
<ele>163.696</ele>
<time>2017-11-25T05:51:39.966Z</time>
</trkpt>
<trkpt lat="22.2614784" lon="114.2057559">
<ele>163.668</ele>
<time>2017-11-25T05:51:45.965Z</time>
</trkpt>
<trkpt lat="22.2614784" lon="114.2057559">
<ele>163.633</ele>
<time>2017-11-25T05:52:38.309Z</time>
</trkpt>
<trkpt lat="22.2614058" lon="114.2056894">
<ele>163.508</ele>
<time>2017-11-25T05:53:06.086Z</time>
</trkpt>
<trkpt lat="22.2613722" lon="114.2055955">
<ele>164.974</ele>
<time>2017-11-25T05:53:21.344Z</time>
</trkpt>
<trkpt lat="22.2612872" lon="114.2055593">
<ele>169.027</ele>
<time>2017-11-25T05:53:32.969Z</time>
</trkpt>
<trkpt lat="22.2612872" lon="114.2055593">
<ele>173.443</ele>
<time>2017-11-25T05:53:43.969Z</time>
</trkpt>
<trkpt lat="22.2612872" lon="114.2055593">
<ele>175.459</ele>
<time>2017-11-25T05:54:03.368Z</time>
</trkpt>
<trkpt lat="22.2611879" lon="114.2055507">
<ele>175.156</ele>
<time>2017-11-25T05:54:41.431Z</time>
</trkpt>
<trkpt lat="22.2611736" lon="114.2054536">
<ele>174.692</ele>
<time>2017-11-25T05:55:12.967Z</time>
</trkpt>
<trkpt lat="22.2611736" lon="114.2054536">
<ele>175.619</ele>
<time>2017-11-25T05:55:18.967Z</time>
</trkpt>
<trkpt lat="22.2611736" lon="114.2054536">
<ele>176.750</ele>
<time>2017-11-25T06:06:56.681Z</time>
</trkpt>
<trkpt lat="22.2610639" lon="114.2054099">
<ele>176.703</ele>
<time>2017-11-25T06:07:06.957Z</time>
</trkpt>
<trkpt lat="22.2610639" lon="114.2054099">
<ele>176.154</ele>
<time>2017-11-25T06:07:11.956Z</time>
</trkpt>
<trkpt lat="22.2610639" lon="114.2054099">
<ele>176.032</ele>
<time>2017-11-25T06:07:13.990Z</time>
</trkpt>
<trkpt lat="22.2610639" lon="114.2054099">
<ele>176.169</ele>
<time>2017-11-25T06:07:23.956Z</time>
</trkpt>
<trkpt lat="22.2610639" lon="114.2054099">
<ele>176.055</ele>
<time>2017-11-25T06:07:24.056Z</time>
</trkpt>
<trkpt lat="22.2610639" lon="114.2054099">
<ele>175.946</ele>
<time>2017-11-25T06:07:25.956Z</time>
</trkpt>
<trkpt lat="22.2610639" lon="114.2054099">
<ele>175.922</ele>
<time>2017-11-25T06:07:26.056Z</time>
</trkpt>
<trkpt lat="22.2609478" lon="114.2053291">
<ele>175.862</ele>
<time>2017-11-25T06:07:32.956Z</time>
</trkpt>
<trkpt lat="22.2609478" lon="114.2053291">
<ele>175.792</ele>
<time>2017-11-25T06:07:49.962Z</time>
</trkpt>
<trkpt lat="22.2609478" lon="114.2053291">
<ele>175.739</ele>
<time>2017-11-25T06:08:12.628Z</time>
</trkpt>
<trkpt lat="22.2608988" lon="114.2051758">
<ele>175.693</ele>
<time>2017-11-25T06:08:25.961Z</time>
</trkpt>
<trkpt lat="22.2608988" lon="114.2051758">
<ele>175.652</ele>
<time>2017-11-25T06:08:32.961Z</time>
</trkpt>
<trkpt lat="22.2608988" lon="114.2051758">
<ele>175.604</ele>
<time>2017-11-25T06:08:33.061Z</time>
</trkpt>
<trkpt lat="22.2608988" lon="114.2051758">
<ele>175.478</ele>
<time>2017-11-25T06:09:32.960Z</time>
</trkpt>
<trkpt lat="22.2608988" lon="114.2051758">
<ele>175.430</ele>
<time>2017-11-25T06:09:33.060Z</time>
</trkpt>
<trkpt lat="22.2608178" lon="114.2052200">
<ele>175.382</ele>
<time>2017-11-25T06:09:33.960Z</time>
</trkpt>
<trkpt lat="22.2608178" lon="114.2052200">
<ele>175.335</ele>
<time>2017-11-25T06:09:34.960Z</time>
</trkpt>
<trkpt lat="22.2608178" lon="114.2052200">
<ele>175.285</ele>
<time>2017-11-25T06:10:36.109Z</time>
</trkpt>
<trkpt lat="22.2606877" lon="114.2051915">
<ele>175.228</ele>
<time>2017-11-25T06:10:50.575Z</time>
</trkpt>
<trkpt lat="22.2607030" lon="114.2050910">
<ele>179.254</ele>
<time>2017-11-25T06:10:56.958Z</time>
</trkpt>
<trkpt lat="22.2607030" lon="114.2050910">
<ele>189.831</ele>
<time>2017-11-25T06:11:05.958Z</time>
</trkpt>
<trkpt lat="22.2607030" lon="114.2050910">
<ele>198.635</ele>
<time>2017-11-25T06:12:02.786Z</time>
</trkpt>
<trkpt lat="22.2605107" lon="114.2049680">
<ele>198.405</ele>
<time>2017-11-25T06:12:34.233Z</time>
</trkpt>
<trkpt lat="22.2604514" lon="114.2048888">
<ele>195.836</ele>
<time>2017-11-25T06:12:43.415Z</time>
</trkpt>
<trkpt lat="22.2604294" lon="114.2047875">
<ele>198.014</ele>
<time>2017-11-25T06:12:52.956Z</time>
</trkpt>
<trkpt lat="22.2604294" lon="114.2047875">
<ele>202.560</ele>
<time>2017-11-25T06:12:56.956Z</time>
</trkpt>
<trkpt lat="22.2604294" lon="114.2047875">
<ele>204.930</ele>
<time>2017-11-25T06:12:57.056Z</time>
</trkpt>
<trkpt lat="22.2603212" lon="114.2047378">
<ele>203.322</ele>
<time>2017-11-25T06:13:17.075Z</time>
</trkpt>
<trkpt lat="22.2602205" lon="114.2047230">
<ele>203.132</ele>
<time>2017-11-25T06:13:26.499Z</time>
</trkpt>
<trkpt lat="22.2601505" lon="114.2046598">
<ele>204.687</ele>
<time>2017-11-25T06:13:33.955Z</time>
</trkpt>
<trkpt lat="22.2601505" lon="114.2046598">
<ele>206.600</ele>
<time>2017-11-25T06:13:43.955Z</time>
</trkpt>
<trkpt lat="22.2601505" lon="114.2046598">
<ele>207.417</ele>
<time>2017-11-25T06:13:44.055Z</time>
</trkpt>
<trkpt lat="22.2600434" lon="114.2046205">
<ele>206.706</ele>
<time>2017-11-25T06:14:02.189Z</time>
</trkpt>
<trkpt lat="22.2599663" lon="114.2045505">
<ele>206.549</ele>
<time>2017-11-25T06:14:10.426Z</time>
</trkpt>
<trkpt lat="22.2599073" lon="114.2044753">
<ele>207.185</ele>
<time>2017-11-25T06:14:18.031Z</time>
</trkpt>
<trkpt lat="22.2598154" lon="114.2044488">
<ele>208.416</ele>
<time>2017-11-25T06:14:26.703Z</time>
</trkpt>
<trkpt lat="22.2597260" lon="114.2044354">
<ele>209.411</ele>
<time>2017-11-25T06:14:33.954Z</time>
</trkpt>
<trkpt lat="22.2597260" lon="114.2044354">
<ele>209.704</ele>
<time>2017-11-25T06:14:44.954Z</time>
</trkpt>
<trkpt lat="22.2597260" lon="114.2044354">
<ele>209.537</ele>
<time>2017-11-25T06:15:19.017Z</time>
</trkpt>
<trkpt lat="22.2596480" lon="114.2043472">
<ele>209.335</ele>
<time>2017-11-25T06:15:35.840Z</time>
</trkpt>
<trkpt lat="22.2596649" lon="114.2042480">
<ele>209.768</ele>
<time>2017-11-25T06:15:45.559Z</time>
</trkpt>
<trkpt lat="22.2595986" lon="114.2041751">
<ele>211.600</ele>
<time>2017-11-25T06:15:55.959Z</time>
</trkpt>
<trkpt lat="22.2595986" lon="114.2041751">
<ele>214.339</ele>
<time>2017-11-25T06:16:00.959Z</time>
</trkpt>
<trkpt lat="22.2595986" lon="114.2041751">
<ele>216.054</ele>
<time>2017-11-25T06:16:01.059Z</time>
</trkpt>
<trkpt lat="22.2595986" lon="114.2041751">
<ele>214.871</ele>
<time>2017-11-25T06:16:17.959Z</time>
</trkpt>
<trkpt lat="22.2595986" lon="114.2041751">
<ele>214.245</ele>
<time>2017-11-25T06:16:18.059Z</time>
</trkpt>
<trkpt lat="22.2595153" lon="114.2041178">
<ele>214.333</ele>
<time>2017-11-25T06:16:18.958Z</time>
</trkpt>
<trkpt lat="22.2595153" lon="114.2041178">
<ele>214.769</ele>
<time>2017-11-25T06:16:20.958Z</time>
</trkpt>
<trkpt lat="22.2595153" lon="114.2041178">
<ele>214.940</ele>
<time>2017-11-25T06:16:21.058Z</time>
</trkpt>
<trkpt lat="22.2594943" lon="114.2040138">
<ele>214.597</ele>
<time>2017-11-25T06:16:46.991Z</time>
</trkpt>
<trkpt lat="22.2595184" lon="114.2039075">
<ele>215.568</ele>
<time>2017-11-25T06:16:55.338Z</time>
</trkpt>
<trkpt lat="22.2594379" lon="114.2038337">
<ele>218.432</ele>
<time>2017-11-25T06:17:03.469Z</time>
</trkpt>
<trkpt lat="22.2593653" lon="114.2037702">
<ele>221.578</ele>
<time>2017-11-25T06:17:11.619Z</time>
</trkpt>
<trkpt lat="22.2593436" lon="114.2036749">
<ele>223.238</ele>
<time>2017-11-25T06:17:20.873Z</time>
</trkpt>
<trkpt lat="22.2593194" lon="114.2035793">
<ele>223.751</ele>
<time>2017-11-25T06:17:30.957Z</time>
</trkpt>
<trkpt lat="22.2593194" lon="114.2035793">
<ele>223.961</ele>
<time>2017-11-25T06:17:31.957Z</time>
</trkpt>
<trkpt lat="22.2593194" lon="114.2035793">
<ele>224.068</ele>
<time>2017-11-25T06:17:37.721Z</time>
</trkpt>
<trkpt lat="22.2593194" lon="114.2035793">
<ele>223.799</ele>
<time>2017-11-25T06:17:46.956Z</time>
</trkpt>
<trkpt lat="22.2593194" lon="114.2035793">
<ele>223.699</ele>
<time>2017-11-25T06:18:01.956Z</time>
</trkpt>
<trkpt lat="22.2593194" lon="114.2035793">
<ele>223.651</ele>
<time>2017-11-25T06:18:36.302Z</time>
</trkpt>
<trkpt lat="22.2592526" lon="114.2034685">
<ele>223.601</ele>
<time>2017-11-25T06:19:00.917Z</time>
</trkpt>
<trkpt lat="22.2591933" lon="114.2033783">
<ele>224.442</ele>
<time>2017-11-25T06:19:10.277Z</time>
</trkpt>
<trkpt lat="22.2591740" lon="114.2032706">
<ele>226.732</ele>
<time>2017-11-25T06:19:17.535Z</time>
</trkpt>
<trkpt lat="22.2591599" lon="114.2031737">
<ele>228.813</ele>
<time>2017-11-25T06:19:24.148Z</time>
</trkpt>
<trkpt lat="22.2590997" lon="114.2030972">
<ele>229.188</ele>
<time>2017-11-25T06:19:31.195Z</time>
</trkpt>
<trkpt lat="22.2590026" lon="114.2031094">
<ele>228.781</ele>
<time>2017-11-25T06:19:38.227Z</time>
</trkpt>
<trkpt lat="22.2589042" lon="114.2030969">
<ele>228.729</ele>
<time>2017-11-25T06:19:44.420Z</time>
</trkpt>
<trkpt lat="22.2588322" lon="114.2030231">
<ele>228.638</ele>
<time>2017-11-25T06:19:50.292Z</time>
</trkpt>
<trkpt lat="22.2587796" lon="114.2029391">
<ele>227.916</ele>
<time>2017-11-25T06:19:55.998Z</time>
</trkpt>
<trkpt lat="22.2587188" lon="114.2028562">
<ele>227.497</ele>
<time>2017-11-25T06:20:03.050Z</time>
</trkpt>
<trkpt lat="22.2586281" lon="114.2028393">
<ele>228.254</ele>
<time>2017-11-25T06:20:09.953Z</time>
</trkpt>
<trkpt lat="22.2586281" lon="114.2028393">
<ele>229.415</ele>
<time>2017-11-25T06:20:24.953Z</time>
</trkpt>
<trkpt lat="22.2586281" lon="114.2028393">
<ele>229.946</ele>
<time>2017-11-25T06:20:25.053Z</time>
</trkpt>
<trkpt lat="22.2584467" lon="114.2027645">
<ele>229.677</ele>
<time>2017-11-25T06:21:10.951Z</time>
</trkpt>
<trkpt lat="22.2584467" lon="114.2027645">
<ele>229.114</ele>
<time>2017-11-25T06:21:14.951Z</time>
</trkpt>
<trkpt lat="22.2584467" lon="114.2027645">
<ele>228.821</ele>
<time>2017-11-25T06:28:21.730Z</time>
</trkpt>
<trkpt lat="22.2585804" lon="114.2028278">
<ele>228.873</ele>
<time>2017-11-25T06:28:46.884Z</time>
</trkpt>
<trkpt lat="22.2586604" lon="114.2027674">
<ele>229.130</ele>
<time>2017-11-25T06:28:56.851Z</time>
</trkpt>
<trkpt lat="22.2586815" lon="114.2026634">
<ele>229.630</ele>
<time>2017-11-25T06:29:05.865Z</time>
</trkpt>
<trkpt lat="22.2586837" lon="114.2025643">
<ele>230.187</ele>
<time>2017-11-25T06:29:13.906Z</time>
</trkpt>
<trkpt lat="22.2586852" lon="114.2024654">
<ele>230.428</ele>
<time>2017-11-25T06:29:21.955Z</time>
</trkpt>
<trkpt lat="22.2586975" lon="114.2023629">
<ele>230.155</ele>
<time>2017-11-25T06:29:29.951Z</time>
</trkpt>
<trkpt lat="22.2586975" lon="114.2023629">
<ele>229.550</ele>
<time>2017-11-25T06:29:53.950Z</time>
</trkpt>
<trkpt lat="22.2586975" lon="114.2023629">
<ele>229.057</ele>
<time>2017-11-25T06:33:02.294Z</time>
</trkpt>
<trkpt lat="22.2588480" lon="114.2023261">
<ele>229.059</ele>
<time>2017-11-25T06:34:15.951Z</time>
</trkpt>
<trkpt lat="22.2588480" lon="114.2023261">
<ele>229.335</ele>
<time>2017-11-25T06:34:19.951Z</time>
</trkpt>
<trkpt lat="22.2588480" lon="114.2023261">
<ele>229.442</ele>
<time>2017-11-25T06:35:22.287Z</time>
</trkpt>
<trkpt lat="22.2588455" lon="114.2024934">
<ele>229.304</ele>
<time>2017-11-25T06:35:45.949Z</time>
</trkpt>
<trkpt lat="22.2588455" lon="114.2024934">
<ele>229.141</ele>
<time>2017-11-25T06:35:59.949Z</time>
</trkpt>
<trkpt lat="22.2588455" lon="114.2024934">
<ele>229.053</ele>
<time>2017-11-25T06:36:25.059Z</time>
</trkpt>
<trkpt lat="22.2588302" lon="114.2025960">
<ele>228.944</ele>
<time>2017-11-25T06:36:57.898Z</time>
</trkpt>
<trkpt lat="22.2588218" lon="114.2027048">
<ele>229.384</ele>
<time>2017-11-25T06:37:04.396Z</time>
</trkpt>
<trkpt lat="22.2588158" lon="114.2028145">
<ele>230.643</ele>
<time>2017-11-25T06:37:09.646Z</time>
</trkpt>
<trkpt lat="22.2588216" lon="114.2029147">
<ele>231.956</ele>
<time>2017-11-25T06:37:14.174Z</time>
</trkpt>
<trkpt lat="22.2588821" lon="114.2029919">
<ele>232.767</ele>
<time>2017-11-25T06:37:18.728Z</time>
</trkpt>
<trkpt lat="22.2589789" lon="114.2030370">
<ele>233.340</ele>
<time>2017-11-25T06:37:23.947Z</time>
</trkpt>
<trkpt lat="22.2589789" lon="114.2030370">
<ele>233.628</ele>
<time>2017-11-25T06:37:25.947Z</time>
</trkpt>
<trkpt lat="22.2589789" lon="114.2030370">
<ele>233.507</ele>
<time>2017-11-25T06:37:26.508Z</time>
</trkpt>
<trkpt lat="22.2590906" lon="114.2030673">
<ele>233.280</ele>
<time>2017-11-25T06:37:33.947Z</time>
</trkpt>
<trkpt lat="22.2590906" lon="114.2030673">
<ele>233.216</ele>
<time>2017-11-25T06:37:49.947Z</time>
</trkpt>
<trkpt lat="22.2590906" lon="114.2030673">
<ele>233.224</ele>
<time>2017-11-25T06:37:50.022Z</time>
</trkpt>
<trkpt lat="22.2589739" lon="114.2030782">
<ele>233.152</ele>
<time>2017-11-25T06:38:10.523Z</time>
</trkpt>
<trkpt lat="22.2590801" lon="114.2030697">
<ele>233.028</ele>
<time>2017-11-25T06:38:19.531Z</time>
</trkpt>
<trkpt lat="22.2591266" lon="114.2029774">
<ele>232.528</ele>
<time>2017-11-25T06:38:25.433Z</time>
</trkpt>
<trkpt lat="22.2592066" lon="114.2029068">
<ele>231.061</ele>
<time>2017-11-25T06:38:29.946Z</time>
</trkpt>
<trkpt lat="22.2592066" lon="114.2029068">
<ele>229.028</ele>
<time>2017-11-25T06:38:38.946Z</time>
</trkpt>
<trkpt lat="22.2592066" lon="114.2029068">
<ele>227.755</ele>
<time>2017-11-25T06:39:43.944Z</time>
</trkpt>
<trkpt lat="22.2592377" lon="114.2028552">
<ele>235.232</ele>
<time>2017-11-25T06:39:53.429Z</time>
</trkpt>
<trkpt lat="22.2591621" lon="114.2027865">
<ele>235.123</ele>
<time>2017-11-25T06:40:09.895Z</time>
</trkpt>
<trkpt lat="22.2591662" lon="114.2026812">
<ele>234.790</ele>
<time>2017-11-25T06:40:20.868Z</time>
</trkpt>
<trkpt lat="22.2591047" lon="114.2026022">
<ele>234.027</ele>
<time>2017-11-25T06:40:29.829Z</time>
</trkpt>
<trkpt lat="22.2590991" lon="114.2025027">
<ele>233.349</ele>
<time>2017-11-25T06:40:37.610Z</time>
</trkpt>
<trkpt lat="22.2591079" lon="114.2023963">
<ele>233.453</ele>
<time>2017-11-25T06:40:46.541Z</time>
</trkpt>
<trkpt lat="22.2590848" lon="114.2022886">
<ele>234.418</ele>
<time>2017-11-25T06:40:56.474Z</time>
</trkpt>
<trkpt lat="22.2590489" lon="114.2021941">
<ele>235.900</ele>
<time>2017-11-25T06:41:05.228Z</time>
</trkpt>
<trkpt lat="22.2589807" lon="114.2021260">
<ele>237.444</ele>
<time>2017-11-25T06:41:12.196Z</time>
</trkpt>
<trkpt lat="22.2589204" lon="114.2020477">
<ele>238.623</ele>
<time>2017-11-25T06:41:18.124Z</time>
</trkpt>
<trkpt lat="22.2588658" lon="114.2019552">
<ele>239.193</ele>
<time>2017-11-25T06:41:24.766Z</time>
</trkpt>
<trkpt lat="22.2588218" lon="114.2018651">
<ele>239.330</ele>
<time>2017-11-25T06:41:31.670Z</time>
</trkpt>
<trkpt lat="22.2588355" lon="114.2017630">
<ele>239.581</ele>
<time>2017-11-25T06:41:39.363Z</time>
</trkpt>
<trkpt lat="22.2588453" lon="114.2016578">
<ele>240.191</ele>
<time>2017-11-25T06:41:47.394Z</time>
</trkpt>
<trkpt lat="22.2588669" lon="114.2015592">
<ele>240.793</ele>
<time>2017-11-25T06:41:54.983Z</time>
</trkpt>
<trkpt lat="22.2589091" lon="114.2014625">
<ele>241.102</ele>
<time>2017-11-25T06:42:03.580Z</time>
</trkpt>
<trkpt lat="22.2589515" lon="114.2013698">
<ele>241.441</ele>
<time>2017-11-25T06:42:12.452Z</time>
</trkpt>
<trkpt lat="22.2589964" lon="114.2012849">
<ele>242.327</ele>
<time>2017-11-25T06:42:21.130Z</time>
</trkpt>
<trkpt lat="22.2590378" lon="114.2011908">
<ele>243.780</ele>
<time>2017-11-25T06:42:29.858Z</time>
</trkpt>
<trkpt lat="22.2590531" lon="114.2010884">
<ele>245.406</ele>
<time>2017-11-25T06:42:37.399Z</time>
</trkpt>
<trkpt lat="22.2591170" lon="114.2010130">
<ele>247.024</ele>
<time>2017-11-25T06:42:44.699Z</time>
</trkpt>
<trkpt lat="22.2591685" lon="114.2009254">
<ele>248.426</ele>
<time>2017-11-25T06:42:52.422Z</time>
</trkpt>
<trkpt lat="22.2591861" lon="114.2008248">
<ele>249.133</ele>
<time>2017-11-25T06:43:00.036Z</time>
</trkpt>
<trkpt lat="22.2592157" lon="114.2007319">
<ele>249.067</ele>
<time>2017-11-25T06:43:07.293Z</time>
</trkpt>
<trkpt lat="22.2591718" lon="114.2006462">
<ele>248.799</ele>
<time>2017-11-25T06:43:14.283Z</time>
</trkpt>
<trkpt lat="22.2591387" lon="114.2005529">
<ele>248.788</ele>
<time>2017-11-25T06:43:21.439Z</time>
</trkpt>
<trkpt lat="22.2590926" lon="114.2004629">
<ele>248.947</ele>
<time>2017-11-25T06:43:29.375Z</time>
</trkpt>
<trkpt lat="22.2591291" lon="114.2003729">
<ele>249.225</ele>
<time>2017-11-25T06:43:37.851Z</time>
</trkpt>
<trkpt lat="22.2590728" lon="114.2002810">
<ele>249.935</ele>
<time>2017-11-25T06:43:46.662Z</time>
</trkpt>
<trkpt lat="22.2590097" lon="114.2001977">
<ele>251.430</ele>
<time>2017-11-25T06:43:54.417Z</time>
</trkpt>
<trkpt lat="22.2589711" lon="114.2001063">
<ele>253.591</ele>
<time>2017-11-25T06:44:01.868Z</time>
</trkpt>
<trkpt lat="22.2588995" lon="114.2000342">
<ele>255.606</ele>
<time>2017-11-25T06:44:10.323Z</time>
</trkpt>
<trkpt lat="22.2588655" lon="114.1999429">
<ele>256.724</ele>
<time>2017-11-25T06:44:18.812Z</time>
</trkpt>
<trkpt lat="22.2588665" lon="114.1998383">
<ele>257.005</ele>
<time>2017-11-25T06:44:28.317Z</time>
</trkpt>
<trkpt lat="22.2588389" lon="114.1997412">
<ele>257.404</ele>
<time>2017-11-25T06:44:37.017Z</time>
</trkpt>
<trkpt lat="22.2587749" lon="114.1996640">
<ele>258.924</ele>
<time>2017-11-25T06:44:44.586Z</time>
</trkpt>
<trkpt lat="22.2587064" lon="114.1996006">
<ele>261.185</ele>
<time>2017-11-25T06:44:51.594Z</time>
</trkpt>
<trkpt lat="22.2586352" lon="114.1995413">
<ele>263.256</ele>
<time>2017-11-25T06:44:58.883Z</time>
</trkpt>
<trkpt lat="22.2586348" lon="114.1994388">
<ele>264.933</ele>
<time>2017-11-25T06:45:06.985Z</time>
</trkpt>
<trkpt lat="22.2585817" lon="114.1993450">
<ele>266.188</ele>
<time>2017-11-25T06:45:15.672Z</time>
</trkpt>
<trkpt lat="22.2585253" lon="114.1992629">
<ele>267.195</ele>
<time>2017-11-25T06:45:22.694Z</time>
</trkpt>
<trkpt lat="22.2584343" lon="114.1992372">
<ele>268.397</ele>
<time>2017-11-25T06:45:28.994Z</time>
</trkpt>
<trkpt lat="22.2584343" lon="114.1992372">
<ele>269.601</ele>
<time>2017-11-25T06:45:43.994Z</time>
</trkpt>
<trkpt lat="22.2584343" lon="114.1992372">
<ele>270.183</ele>
<time>2017-11-25T07:04:20.020Z</time>
</trkpt>
<trkpt lat="22.2585734" lon="114.1992517">
<ele>270.015</ele>
<time>2017-11-25T07:04:40.306Z</time>
</trkpt>
<trkpt lat="22.2586016" lon="114.1993533">
<ele>270.391</ele>
<time>2017-11-25T07:04:50.316Z</time>
</trkpt>
<trkpt lat="22.2585598" lon="114.1994497">
<ele>272.221</ele>
<time>2017-11-25T07:05:00.380Z</time>
</trkpt>
<trkpt lat="22.2585685" lon="114.1995540">
<ele>274.245</ele>
<time>2017-11-25T07:05:10.534Z</time>
</trkpt>
<trkpt lat="22.2586393" lon="114.1996233">
<ele>274.836</ele>
<time>2017-11-25T07:05:21.401Z</time>
</trkpt>
<trkpt lat="22.2587190" lon="114.1996879">
<ele>273.937</ele>
<time>2017-11-25T07:05:32.866Z</time>
</trkpt>
<trkpt lat="22.2587978" lon="114.1997626">
<ele>272.331</ele>
<time>2017-11-25T07:05:41.600Z</time>
</trkpt>
<trkpt lat="22.2588740" lon="114.1998151">
<ele>270.809</ele>
<time>2017-11-25T07:05:47.925Z</time>
</trkpt>
<trkpt lat="22.2589247" lon="114.1998952">
<ele>269.730</ele>
<time>2017-11-25T07:05:54.268Z</time>
</trkpt>
<trkpt lat="22.2588982" lon="114.1999963">
<ele>268.989</ele>
<time>2017-11-25T07:06:01.841Z</time>
</trkpt>
<trkpt lat="22.2589409" lon="114.2000831">
<ele>268.221</ele>
<time>2017-11-25T07:06:09.613Z</time>
</trkpt>
<trkpt lat="22.2590087" lon="114.2001625">
<ele>267.124</ele>
<time>2017-11-25T07:06:18.442Z</time>
</trkpt>
<trkpt lat="22.2590780" lon="114.2002391">
<ele>265.616</ele>
<time>2017-11-25T07:06:26.895Z</time>
</trkpt>
<trkpt lat="22.2591328" lon="114.2003185">
<ele>263.998</ele>
<time>2017-11-25T07:06:33.473Z</time>
</trkpt>
<trkpt lat="22.2591615" lon="114.2004148">
<ele>262.414</ele>
<time>2017-11-25T07:06:39.926Z</time>
</trkpt>
<trkpt lat="22.2591944" lon="114.2005218">
<ele>260.637</ele>
<time>2017-11-25T07:06:48.193Z</time>
</trkpt>
<trkpt lat="22.2591966" lon="114.2006317">
<ele>258.516</ele>
<time>2017-11-25T07:06:57.698Z</time>
</trkpt>
<trkpt lat="22.2591813" lon="114.2007400">
<ele>256.241</ele>
<time>2017-11-25T07:07:06.348Z</time>
</trkpt>
<trkpt lat="22.2589395" lon="114.2011930">
<ele>253.352</ele>
<time>2017-11-25T07:07:42.728Z</time>
</trkpt>
<trkpt lat="22.2589507" lon="114.2012951">
<ele>252.591</ele>
<time>2017-11-25T07:07:49.887Z</time>
</trkpt>
<trkpt lat="22.2588584" lon="114.2013061">
<ele>251.873</ele>
<time>2017-11-25T07:07:57.382Z</time>
</trkpt>
<trkpt lat="22.2588329" lon="114.2014029">
<ele>251.204</ele>
<time>2017-11-25T07:08:05.980Z</time>
</trkpt>
<trkpt lat="22.2588310" lon="114.2015017">
<ele>249.990</ele>
<time>2017-11-25T07:08:14.554Z</time>
</trkpt>
<trkpt lat="22.2588003" lon="114.2015983">
<ele>249.424</ele>
<time>2017-11-25T07:08:21.336Z</time>
</trkpt>
<trkpt lat="22.2587857" lon="114.2017050">
<ele>249.057</ele>
<time>2017-11-25T07:08:28.824Z</time>
</trkpt>
<trkpt lat="22.2587910" lon="114.2018051">
<ele>248.538</ele>
<time>2017-11-25T07:08:36.532Z</time>
</trkpt>
<trkpt lat="22.2588366" lon="114.2018907">
<ele>247.837</ele>
<time>2017-11-25T07:08:43.984Z</time>
</trkpt>
<trkpt lat="22.2588977" lon="114.2019765">
<ele>246.794</ele>
<time>2017-11-25T07:08:50.501Z</time>
</trkpt>
<trkpt lat="22.2589587" lon="114.2020523">
<ele>245.519</ele>
<time>2017-11-25T07:08:56.449Z</time>
</trkpt>
<trkpt lat="22.2590159" lon="114.2021426">
<ele>244.328</ele>
<time>2017-11-25T07:09:03.707Z</time>
</trkpt>
<trkpt lat="22.2590695" lon="114.2022243">
<ele>243.499</ele>
<time>2017-11-25T07:09:10.916Z</time>
</trkpt>
<trkpt lat="22.2590749" lon="114.2023310">
<ele>243.062</ele>
<time>2017-11-25T07:09:18.959Z</time>
</trkpt>
<trkpt lat="22.2590906" lon="114.2024296">
<ele>242.767</ele>
<time>2017-11-25T07:09:26.711Z</time>
</trkpt>
<trkpt lat="22.2591291" lon="114.2025209">
<ele>242.405</ele>
<time>2017-11-25T07:09:35.272Z</time>
</trkpt>
<trkpt lat="22.2591592" lon="114.2026263">
<ele>241.886</ele>
<time>2017-11-25T07:09:45.430Z</time>
</trkpt>
<trkpt lat="22.2591873" lon="114.2027275">
<ele>240.982</ele>
<time>2017-11-25T07:09:54.214Z</time>
</trkpt>
<trkpt lat="22.2591768" lon="114.2028402">
<ele>239.656</ele>
<time>2017-11-25T07:10:02.079Z</time>
</trkpt>
<trkpt lat="22.2591946" lon="114.2029464">
<ele>238.423</ele>
<time>2017-11-25T07:10:09.421Z</time>
</trkpt>
<trkpt lat="22.2592170" lon="114.2030503">
<ele>237.725</ele>
<time>2017-11-25T07:10:17.636Z</time>
</trkpt>
<trkpt lat="22.2592029" lon="114.2031551">
<ele>237.438</ele>
<time>2017-11-25T07:10:26.670Z</time>
</trkpt>
<trkpt lat="22.2592163" lon="114.2032528">
<ele>237.333</ele>
<time>2017-11-25T07:10:34.869Z</time>
</trkpt>
<trkpt lat="22.2592219" lon="114.2033500">
<ele>237.314</ele>
<time>2017-11-25T07:10:42.190Z</time>
</trkpt>
<trkpt lat="22.2592197" lon="114.2034495">
<ele>237.286</ele>
<time>2017-11-25T07:10:49.108Z</time>
</trkpt>
<trkpt lat="22.2592256" lon="114.2035561">
<ele>237.157</ele>
<time>2017-11-25T07:10:56.525Z</time>
</trkpt>
<trkpt lat="22.2592662" lon="114.2036483">
<ele>236.936</ele>
<time>2017-11-25T07:11:04.359Z</time>
</trkpt>
<trkpt lat="22.2592764" lon="114.2037496">
<ele>236.683</ele>
<time>2017-11-25T07:11:12.982Z</time>
</trkpt>
<trkpt lat="22.2592764" lon="114.2037496">
<ele>236.452</ele>
<time>2017-11-25T07:11:23.982Z</time>
</trkpt>
<trkpt lat="22.2592764" lon="114.2037496">
<ele>236.292</ele>
<time>2017-11-25T07:11:37.804Z</time>
</trkpt>
<trkpt lat="22.2592764" lon="114.2037496">
<ele>236.166</ele>
<time>2017-11-25T07:11:55.981Z</time>
</trkpt>
<trkpt lat="22.2592764" lon="114.2037496">
<ele>236.129</ele>
<time>2017-11-25T07:12:02.833Z</time>
</trkpt>
<trkpt lat="22.2592710" lon="114.2038857">
<ele>235.944</ele>
<time>2017-11-25T07:12:14.615Z</time>
</trkpt>
<trkpt lat="22.2592613" lon="114.2039853">
<ele>235.699</ele>
<time>2017-11-25T07:12:19.981Z</time>
</trkpt>
<trkpt lat="22.2592613" lon="114.2039853">
<ele>235.191</ele>
<time>2017-11-25T07:12:28.980Z</time>
</trkpt>
<trkpt lat="22.2592613" lon="114.2039853">
<ele>234.743</ele>
<time>2017-11-25T07:12:52.487Z</time>
</trkpt>
<trkpt lat="22.2592488" lon="114.2041866">
<ele>234.676</ele>
<time>2017-11-25T07:13:20.354Z</time>
</trkpt>
<trkpt lat="22.2593109" lon="114.2042711">
<ele>234.849</ele>
<time>2017-11-25T07:13:27.833Z</time>
</trkpt>
<trkpt lat="22.2593682" lon="114.2043548">
<ele>235.414</ele>
<time>2017-11-25T07:13:34.472Z</time>
</trkpt>
<trkpt lat="22.2593921" lon="114.2044540">
<ele>236.580</ele>
<time>2017-11-25T07:13:41.525Z</time>
</trkpt>
<trkpt lat="22.2593588" lon="114.2045479">
<ele>237.866</ele>
<time>2017-11-25T07:13:48.243Z</time>
</trkpt>
<trkpt lat="22.2592995" lon="114.2046271">
<ele>238.731</ele>
<time>2017-11-25T07:13:54.454Z</time>
</trkpt>
<trkpt lat="22.2592658" lon="114.2047218">
<ele>239.220</ele>
<time>2017-11-25T07:14:00.588Z</time>
</trkpt>
<trkpt lat="22.2592783" lon="114.2048282">
<ele>239.488</ele>
<time>2017-11-25T07:14:06.822Z</time>
</trkpt>
<trkpt lat="22.2592733" lon="114.2049420">
<ele>239.610</ele>
<time>2017-11-25T07:14:13.538Z</time>
</trkpt>
<trkpt lat="22.2592694" lon="114.2050464">
<ele>239.617</ele>
<time>2017-11-25T07:14:20.623Z</time>
</trkpt>
<trkpt lat="22.2592120" lon="114.2051278">
<ele>239.449</ele>
<time>2017-11-25T07:14:27.945Z</time>
</trkpt>
<trkpt lat="22.2591256" lon="114.2051597">
<ele>239.095</ele>
<time>2017-11-25T07:14:34.400Z</time>
</trkpt>
<trkpt lat="22.2590403" lon="114.2051972">
<ele>238.593</ele>
<time>2017-11-25T07:14:40.740Z</time>
</trkpt>
<trkpt lat="22.2589496" lon="114.2052254">
<ele>238.017</ele>
<time>2017-11-25T07:14:47.443Z</time>
</trkpt>
<trkpt lat="22.2588547" lon="114.2052595">
<ele>237.611</ele>
<time>2017-11-25T07:14:55.284Z</time>
</trkpt>
<trkpt lat="22.2587790" lon="114.2053244">
<ele>237.594</ele>
<time>2017-11-25T07:15:03.594Z</time>
</trkpt>
<trkpt lat="22.2586913" lon="114.2053508">
<ele>237.961</ele>
<time>2017-11-25T07:15:11.211Z</time>
</trkpt>
<trkpt lat="22.2586156" lon="114.2054245">
<ele>238.538</ele>
<time>2017-11-25T07:15:18.368Z</time>
</trkpt>
<trkpt lat="22.2585339" lon="114.2054891">
<ele>238.981</ele>
<time>2017-11-25T07:15:24.593Z</time>
</trkpt>
<trkpt lat="22.2584501" lon="114.2055269">
<ele>239.022</ele>
<time>2017-11-25T07:15:30.271Z</time>
</trkpt>
<trkpt lat="22.2583698" lon="114.2055923">
<ele>238.740</ele>
<time>2017-11-25T07:15:37.164Z</time>
</trkpt>
<trkpt lat="22.2582768" lon="114.2056183">
<ele>238.448</ele>
<time>2017-11-25T07:15:44.733Z</time>
</trkpt>
<trkpt lat="22.2581968" lon="114.2056692">
<ele>238.352</ele>
<time>2017-11-25T07:15:52.610Z</time>
</trkpt>
<trkpt lat="22.2581020" lon="114.2056897">
<ele>238.383</ele>
<time>2017-11-25T07:16:00.564Z</time>
</trkpt>
<trkpt lat="22.2580106" lon="114.2057035">
<ele>238.312</ele>
<time>2017-11-25T07:16:07.975Z</time>
</trkpt>
<trkpt lat="22.2580106" lon="114.2057035">
<ele>238.032</ele>
<time>2017-11-25T07:16:14.975Z</time>
</trkpt>
<trkpt lat="22.2580106" lon="114.2057035">
<ele>237.747</ele>
<time>2017-11-25T07:16:15.075Z</time>
</trkpt>
<trkpt lat="22.2578962" lon="114.2058160">
<ele>237.651</ele>
<time>2017-11-25T07:16:32.230Z</time>
</trkpt>
<trkpt lat="22.2578282" lon="114.2058812">
<ele>237.112</ele>
<time>2017-11-25T07:16:37.850Z</time>
</trkpt>
<trkpt lat="22.2577570" lon="114.2059417">
<ele>235.658</ele>
<time>2017-11-25T07:16:42.897Z</time>
</trkpt>
<trkpt lat="22.2576898" lon="114.2060289">
<ele>233.975</ele>
<time>2017-11-25T07:16:48.880Z</time>
</trkpt>
<trkpt lat="22.2576233" lon="114.2060952">
<ele>232.829</ele>
<time>2017-11-25T07:16:54.691Z</time>
</trkpt>
<trkpt lat="22.2575542" lon="114.2061600">
<ele>232.171</ele>
<time>2017-11-25T07:17:00.737Z</time>
</trkpt>
<trkpt lat="22.2574974" lon="114.2062410">
<ele>231.647</ele>
<time>2017-11-25T07:17:07.332Z</time>
</trkpt>
<trkpt lat="22.2574881" lon="114.2063475">
<ele>230.818</ele>
<time>2017-11-25T07:17:14.289Z</time>
</trkpt>
<trkpt lat="22.2575103" lon="114.2064495">
<ele>229.588</ele>
<time>2017-11-25T07:17:20.293Z</time>
</trkpt>
<trkpt lat="22.2575651" lon="114.2065481">
<ele>228.296</ele>
<time>2017-11-25T07:17:26.264Z</time>
</trkpt>
<trkpt lat="22.2576065" lon="114.2066454">
<ele>227.363</ele>
<time>2017-11-25T07:17:32.068Z</time>
</trkpt>
<trkpt lat="22.2576207" lon="114.2067553">
<ele>226.807</ele>
<time>2017-11-25T07:17:38.783Z</time>
</trkpt>
<trkpt lat="22.2576130" lon="114.2068647">
<ele>226.024</ele>
<time>2017-11-25T07:17:46.507Z</time>
</trkpt>
<trkpt lat="22.2575603" lon="114.2069448">
<ele>224.610</ele>
<time>2017-11-25T07:17:54.187Z</time>
</trkpt>
<trkpt lat="22.2575169" lon="114.2070374">
<ele>222.973</ele>
<time>2017-11-25T07:18:02.113Z</time>
</trkpt>
<trkpt lat="22.2574509" lon="114.2071053">
<ele>221.582</ele>
<time>2017-11-25T07:18:09.742Z</time>
</trkpt>
<trkpt lat="22.2574281" lon="114.2072071">
<ele>220.472</ele>
<time>2017-11-25T07:18:17.820Z</time>
</trkpt>
<trkpt lat="22.2574254" lon="114.2073085">
<ele>219.632</ele>
<time>2017-11-25T07:18:24.397Z</time>
</trkpt>
<trkpt lat="22.2573775" lon="114.2074057">
<ele>219.075</ele>
<time>2017-11-25T07:18:31.229Z</time>
</trkpt>
<trkpt lat="22.2573199" lon="114.2074911">
<ele>218.742</ele>
<time>2017-11-25T07:18:37.978Z</time>
</trkpt>
<trkpt lat="22.2573199" lon="114.2074911">
<ele>218.545</ele>
<time>2017-11-25T07:18:43.978Z</time>
</trkpt>
<trkpt lat="22.2573199" lon="114.2074911">
<ele>218.429</ele>
<time>2017-11-25T07:18:44.078Z</time>
</trkpt>
<trkpt lat="22.2572584" lon="114.2076342">
<ele>218.350</ele>
<time>2017-11-25T07:19:00.996Z</time>
</trkpt>
<trkpt lat="22.2572534" lon="114.2077315">
<ele>217.697</ele>
<time>2017-11-25T07:19:07.222Z</time>
</trkpt>
<trkpt lat="22.2573047" lon="114.2078381">
<ele>215.995</ele>
<time>2017-11-25T07:19:13.218Z</time>
</trkpt>
<trkpt lat="22.2573488" lon="114.2079268">
<ele>213.963</ele>
<time>2017-11-25T07:19:17.860Z</time>
</trkpt>
<trkpt lat="22.2573876" lon="114.2080209">
<ele>212.529</ele>
<time>2017-11-25T07:19:23.475Z</time>
</trkpt>
<trkpt lat="22.2574369" lon="114.2081150">
<ele>211.673</ele>
<time>2017-11-25T07:19:30.086Z</time>
</trkpt>
<trkpt lat="22.2574459" lon="114.2082134">
<ele>211.042</ele>
<time>2017-11-25T07:19:37.011Z</time>
</trkpt>
<trkpt lat="22.2574309" lon="114.2083164">
<ele>210.396</ele>
<time>2017-11-25T07:19:44.019Z</time>
</trkpt>
<trkpt lat="22.2574054" lon="114.2084154">
<ele>209.551</ele>
<time>2017-11-25T07:19:50.375Z</time>
</trkpt>
<trkpt lat="22.2574331" lon="114.2085128">
<ele>208.264</ele>
<time>2017-11-25T07:19:56.581Z</time>
</trkpt>
<trkpt lat="22.2574856" lon="114.2085948">
<ele>206.393</ele>
<time>2017-11-25T07:20:02.826Z</time>
</trkpt>
<trkpt lat="22.2575628" lon="114.2086611">
<ele>204.042</ele>
<time>2017-11-25T07:20:09.365Z</time>
</trkpt>
<trkpt lat="22.2576458" lon="114.2087184">
<ele>201.761</ele>
<time>2017-11-25T07:20:15.655Z</time>
</trkpt>
<trkpt lat="22.2576373" lon="114.2088151">
<ele>200.226</ele>
<time>2017-11-25T07:20:21.510Z</time>
</trkpt>
<trkpt lat="22.2575484" lon="114.2088496">
<ele>199.544</ele>
<time>2017-11-25T07:20:27.975Z</time>
</trkpt>
<trkpt lat="22.2575484" lon="114.2088496">
<ele>199.338</ele>
<time>2017-11-25T07:20:34.975Z</time>
</trkpt>
<trkpt lat="22.2575484" lon="114.2088496">
<ele>199.294</ele>
<time>2017-11-25T07:21:02.974Z</time>
</trkpt>
<trkpt lat="22.2575484" lon="114.2088496">
<ele>199.264</ele>
<time>2017-11-25T07:21:08.577Z</time>
</trkpt>
<trkpt lat="22.2575484" lon="114.2088496">
<ele>199.112</ele>
<time>2017-11-25T07:21:29.973Z</time>
</trkpt>
<trkpt lat="22.2575484" lon="114.2088496">
<ele>199.049</ele>
<time>2017-11-25T07:21:46.973Z</time>
</trkpt>
<trkpt lat="22.2575484" lon="114.2088496">
<ele>198.989</ele>
<time>2017-11-25T07:21:47.073Z</time>
</trkpt>
<trkpt lat="22.2574272" lon="114.2088397">
<ele>198.918</ele>
<time>2017-11-25T07:22:03.523Z</time>
</trkpt>
<trkpt lat="22.2573403" lon="114.2088998">
<ele>197.074</ele>
<time>2017-11-25T07:22:10.946Z</time>
</trkpt>
<trkpt lat="22.2573052" lon="114.2090034">
<ele>192.341</ele>
<time>2017-11-25T07:22:16.830Z</time>
</trkpt>
<trkpt lat="22.2572878" lon="114.2091022">
<ele>187.218</ele>
<time>2017-11-25T07:22:21.966Z</time>
</trkpt>
<trkpt lat="22.2572525" lon="114.2092053">
<ele>184.144</ele>
<time>2017-11-25T07:22:27.778Z</time>
</trkpt>
<trkpt lat="22.2571901" lon="114.2092772">
<ele>182.799</ele>
<time>2017-11-25T07:22:33.064Z</time>
</trkpt>
<trkpt lat="22.2571021" lon="114.2093331">
<ele>182.289</ele>
<time>2017-11-25T07:22:39.168Z</time>
</trkpt>
<trkpt lat="22.2570072" lon="114.2093698">
<ele>181.894</ele>
<time>2017-11-25T07:22:45.516Z</time>
</trkpt>
<trkpt lat="22.2569239" lon="114.2094173">
<ele>181.499</ele>
<time>2017-11-25T07:22:51.971Z</time>
</trkpt>
<trkpt lat="22.2569239" lon="114.2094173">
<ele>181.278</ele>
<time>2017-11-25T07:22:52.971Z</time>
</trkpt>
<trkpt lat="22.2569239" lon="114.2094173">
<ele>181.223</ele>
<time>2017-11-25T07:22:54.998Z</time>
</trkpt>
<trkpt lat="22.2569545" lon="114.2095237">
<ele>181.164</ele>
<time>2017-11-25T07:23:18.372Z</time>
</trkpt>
<trkpt lat="22.2569599" lon="114.2096270">
<ele>180.869</ele>
<time>2017-11-25T07:23:24.165Z</time>
</trkpt>
<trkpt lat="22.2569977" lon="114.2097243">
<ele>179.933</ele>
<time>2017-11-25T07:23:28.406Z</time>
</trkpt>
<trkpt lat="22.2570001" lon="114.2098431">
<ele>178.253</ele>
<time>2017-11-25T07:23:32.984Z</time>
</trkpt>
<trkpt lat="22.2570128" lon="114.2099506">
<ele>176.407</ele>
<time>2017-11-25T07:23:37.546Z</time>
</trkpt>
<trkpt lat="22.2570643" lon="114.2100316">
<ele>175.012</ele>
<time>2017-11-25T07:23:42.487Z</time>
</trkpt>
<trkpt lat="22.2570376" lon="114.2101253">
<ele>173.708</ele>
<time>2017-11-25T07:23:48.569Z</time>
</trkpt>
<trkpt lat="22.2570798" lon="114.2100374">
<ele>171.610</ele>
<time>2017-11-25T07:23:58.424Z</time>
</trkpt>
<trkpt lat="22.2570380" lon="114.2099431">
<ele>168.986</ele>
<time>2017-11-25T07:24:06.132Z</time>
</trkpt>
<trkpt lat="22.2570012" lon="114.2098527">
<ele>167.025</ele>
<time>2017-11-25T07:24:11.967Z</time>
</trkpt>
<trkpt lat="22.2570155" lon="114.2097497">
<ele>166.210</ele>
<time>2017-11-25T07:24:19.008Z</time>
</trkpt>
<trkpt lat="22.2570240" lon="114.2096510">
<ele>166.248</ele>
<time>2017-11-25T07:24:26.208Z</time>
</trkpt>
<trkpt lat="22.2570934" lon="114.2095795">
<ele>166.768</ele>
<time>2017-11-25T07:24:32.976Z</time>
</trkpt>
<trkpt lat="22.2570934" lon="114.2095795">
<ele>167.352</ele>
<time>2017-11-25T07:24:40.975Z</time>
</trkpt>
<trkpt lat="22.2570934" lon="114.2095795">
<ele>167.620</ele>
<time>2017-11-25T07:24:56.975Z</time>
</trkpt>
<trkpt lat="22.2570934" lon="114.2095795">
<ele>167.523</ele>
<time>2017-11-25T07:25:04.642Z</time>
</trkpt>
<trkpt lat="22.2571963" lon="114.2095145">
<ele>167.296</ele>
<time>2017-11-25T07:25:19.208Z</time>
</trkpt>
<trkpt lat="22.2572613" lon="114.2094441">
<ele>167.120</ele>
<time>2017-11-25T07:25:25.056Z</time>
</trkpt>
<trkpt lat="22.2573404" lon="114.2093892">
<ele>166.440</ele>
<time>2017-11-25T07:25:29.953Z</time>
</trkpt>
<trkpt lat="22.2574188" lon="114.2093394">
<ele>165.490</ele>
<time>2017-11-25T07:25:33.974Z</time>
</trkpt>
<trkpt lat="22.2574188" lon="114.2093394">
<ele>164.825</ele>
<time>2017-11-25T07:25:36.974Z</time>
</trkpt>
<trkpt lat="22.2574188" lon="114.2093394">
<ele>164.588</ele>
<time>2017-11-25T07:25:39.406Z</time>
</trkpt>
<trkpt lat="22.2575690" lon="114.2093251">
<ele>164.648</ele>
<time>2017-11-25T07:25:56.753Z</time>
</trkpt>
<trkpt lat="22.2576470" lon="114.2093922">
<ele>164.801</ele>
<time>2017-11-25T07:26:03.596Z</time>
</trkpt>
<trkpt lat="22.2577120" lon="114.2094727">
<ele>164.765</ele>
<time>2017-11-25T07:26:09.768Z</time>
</trkpt>
<trkpt lat="22.2577902" lon="114.2095243">
<ele>164.071</ele>
<time>2017-11-25T07:26:14.973Z</time>
</trkpt>
<trkpt lat="22.2577902" lon="114.2095243">
<ele>162.714</ele>
<time>2017-11-25T07:26:26.973Z</time>
</trkpt>
<trkpt lat="22.2577902" lon="114.2095243">
<ele>161.667</ele>
<time>2017-11-25T07:26:27.073Z</time>
</trkpt>
<trkpt lat="22.2578987" lon="114.2095776">
<ele>161.632</ele>
<time>2017-11-25T07:26:44.194Z</time>
</trkpt>
<trkpt lat="22.2579769" lon="114.2096409">
<ele>162.101</ele>
<time>2017-11-25T07:26:53.050Z</time>
</trkpt>
<trkpt lat="22.2580734" lon="114.2096168">
<ele>162.424</ele>
<time>2017-11-25T07:27:01.368Z</time>
</trkpt>
<trkpt lat="22.2581295" lon="114.2095365">
<ele>162.458</ele>
<time>2017-11-25T07:27:09.140Z</time>
</trkpt>
<trkpt lat="22.2582100" lon="114.2094848">
<ele>162.400</ele>
<time>2017-11-25T07:27:17.860Z</time>
</trkpt>
<trkpt lat="22.2583103" lon="114.2094674">
<ele>162.684</ele>
<time>2017-11-25T07:27:28.369Z</time>
</trkpt>
<trkpt lat="22.2584072" lon="114.2095043">
<ele>163.425</ele>
<time>2017-11-25T07:27:38.362Z</time>
</trkpt>
<trkpt lat="22.2585042" lon="114.2094693">
<ele>164.062</ele>
<time>2017-11-25T07:27:45.596Z</time>
</trkpt>
<trkpt lat="22.2585481" lon="114.2093793">
<ele>164.014</ele>
<time>2017-11-25T07:27:51.547Z</time>
</trkpt>
<trkpt lat="22.2585753" lon="114.2092793">
<ele>163.434</ele>
<time>2017-11-25T07:27:57.806Z</time>
</trkpt>
<trkpt lat="22.2586084" lon="114.2091741">
<ele>162.870</ele>
<time>2017-11-25T07:28:04.941Z</time>
</trkpt>
<trkpt lat="22.2586853" lon="114.2091090">
<ele>162.767</ele>
<time>2017-11-25T07:28:12.441Z</time>
</trkpt>
<trkpt lat="22.2587655" lon="114.2090649">
<ele>163.172</ele>
<time>2017-11-25T07:28:19.970Z</time>
</trkpt>
<trkpt lat="22.2587655" lon="114.2090649">
<ele>163.690</ele>
<time>2017-11-25T07:28:26.970Z</time>
</trkpt>
<trkpt lat="22.2587655" lon="114.2090649">
<ele>163.890</ele>
<time>2017-11-25T07:29:21.671Z</time>
</trkpt>
<trkpt lat="22.2588511" lon="114.2090322">
<ele>163.599</ele>
<time>2017-11-25T07:29:33.968Z</time>
</trkpt>
<trkpt lat="22.2588511" lon="114.2090322">
<ele>163.496</ele>
<time>2017-11-25T07:29:34.968Z</time>
</trkpt>
<trkpt lat="22.2588511" lon="114.2090322">
<ele>163.457</ele>
<time>2017-11-25T07:29:35.068Z</time>
</trkpt>
<trkpt lat="22.2588511" lon="114.2090322">
<ele>163.364</ele>
<time>2017-11-25T07:29:54.967Z</time>
</trkpt>
<trkpt lat="22.2588511" lon="114.2090322">
<ele>163.308</ele>
<time>2017-11-25T07:29:55.067Z</time>
</trkpt>
<trkpt lat="22.2588511" lon="114.2090322">
<ele>163.205</ele>
<time>2017-11-25T07:29:57.967Z</time>
</trkpt>
<trkpt lat="22.2588511" lon="114.2090322">
<ele>163.160</ele>
<time>2017-11-25T07:30:01.235Z</time>
</trkpt>
<trkpt lat="22.2590227" lon="114.2089233">
<ele>163.113</ele>
<time>2017-11-25T07:30:33.532Z</time>
</trkpt>
<trkpt lat="22.2591175" lon="114.2088973">
<ele>163.359</ele>
<time>2017-11-25T07:30:40.520Z</time>
</trkpt>
<trkpt lat="22.2592075" lon="114.2088574">
<ele>164.111</ele>
<time>2017-11-25T07:30:45.843Z</time>
</trkpt>
<trkpt lat="22.2592951" lon="114.2088098">
<ele>164.912</ele>
<time>2017-11-25T07:30:51.557Z</time>
</trkpt>
<trkpt lat="22.2593561" lon="114.2087370">
<ele>165.298</ele>
<time>2017-11-25T07:30:56.966Z</time>
</trkpt>
<trkpt lat="22.2593561" lon="114.2087370">
<ele>165.348</ele>
<time>2017-11-25T07:30:59.966Z</time>
</trkpt>
<trkpt lat="22.2593561" lon="114.2087370">
<ele>165.262</ele>
<time>2017-11-25T07:31:00.066Z</time>
</trkpt>
<trkpt lat="22.2593944" lon="114.2086480">
<ele>165.141</ele>
<time>2017-11-25T07:31:13.116Z</time>
</trkpt>
<trkpt lat="22.2594287" lon="114.2085563">
<ele>165.136</ele>
<time>2017-11-25T07:31:20.965Z</time>
</trkpt>
<trkpt lat="22.2594287" lon="114.2085563">
<ele>165.119</ele>
<time>2017-11-25T07:31:31.965Z</time>
</trkpt>
<trkpt lat="22.2594287" lon="114.2085563">
<ele>165.066</ele>
<time>2017-11-25T07:31:32.065Z</time>
</trkpt>
<trkpt lat="22.2594892" lon="114.2083729">
<ele>164.998</ele>
<time>2017-11-25T07:31:55.971Z</time>
</trkpt>
<trkpt lat="22.2594892" lon="114.2083729">
<ele>164.948</ele>
<time>2017-11-25T07:31:57.971Z</time>
</trkpt>
<trkpt lat="22.2594892" lon="114.2083729">
<ele>164.909</ele>
<time>2017-11-25T07:31:58.071Z</time>
</trkpt>
<trkpt lat="22.2595789" lon="114.2083791">
<ele>164.794</ele>
<time>2017-11-25T07:32:21.512Z</time>
</trkpt>
<trkpt lat="22.2596682" lon="114.2084035">
<ele>165.040</ele>
<time>2017-11-25T07:32:28.506Z</time>
</trkpt>
<trkpt lat="22.2597657" lon="114.2084175">
<ele>165.766</ele>
<time>2017-11-25T07:32:35.335Z</time>
</trkpt>
<trkpt lat="22.2598596" lon="114.2084086">
<ele>166.252</ele>
<time>2017-11-25T07:32:42.941Z</time>
</trkpt>
<trkpt lat="22.2599107" lon="114.2083257">
<ele>165.906</ele>
<time>2017-11-25T07:32:51.077Z</time>
</trkpt>
<trkpt lat="22.2600025" lon="114.2083163">
<ele>165.344</ele>
<time>2017-11-25T07:32:58.587Z</time>
</trkpt>
<trkpt lat="22.2600691" lon="114.2082415">
<ele>165.248</ele>
<time>2017-11-25T07:33:05.965Z</time>
</trkpt>
<trkpt lat="22.2601570" lon="114.2082014">
<ele>165.495</ele>
<time>2017-11-25T07:33:12.935Z</time>
</trkpt>
<trkpt lat="22.2602590" lon="114.2081967">
<ele>165.735</ele>
<time>2017-11-25T07:33:21.355Z</time>
</trkpt>
<trkpt lat="22.2603015" lon="114.2081038">
<ele>165.949</ele>
<time>2017-11-25T07:33:30.324Z</time>
</trkpt>
<trkpt lat="22.2603224" lon="114.2080059">
<ele>166.234</ele>
<time>2017-11-25T07:33:39.498Z</time>
</trkpt>
<trkpt lat="22.2604075" lon="114.2079548">
<ele>166.567</ele>
<time>2017-11-25T07:33:48.577Z</time>
</trkpt>
<trkpt lat="22.2604671" lon="114.2078818">
<ele>166.928</ele>
<time>2017-11-25T07:33:55.443Z</time>
</trkpt>
<trkpt lat="22.2605598" lon="114.2078381">
<ele>167.278</ele>
<time>2017-11-25T07:34:02.641Z</time>
</trkpt>
<trkpt lat="22.2606535" lon="114.2078009">
<ele>167.528</ele>
<time>2017-11-25T07:34:09.647Z</time>
</trkpt>
<trkpt lat="22.2607423" lon="114.2077843">
<ele>167.661</ele>
<time>2017-11-25T07:34:15.948Z</time>
</trkpt>
<trkpt lat="22.2608264" lon="114.2078189">
<ele>167.707</ele>
<time>2017-11-25T07:34:22.818Z</time>
</trkpt>
<trkpt lat="22.2609167" lon="114.2078259">
<ele>167.779</ele>
<time>2017-11-25T07:34:30.391Z</time>
</trkpt>
<trkpt lat="22.2609893" lon="114.2077570">
<ele>167.960</ele>
<time>2017-11-25T07:34:38.997Z</time>
</trkpt>
<trkpt lat="22.2610695" lon="114.2077015">
<ele>168.214</ele>
<time>2017-11-25T07:34:47.294Z</time>
</trkpt>
<trkpt lat="22.2611583" lon="114.2076728">
<ele>168.565</ele>
<time>2017-11-25T07:34:55.179Z</time>
</trkpt>
<trkpt lat="22.2612538" lon="114.2076827">
<ele>169.161</ele>
<time>2017-11-25T07:35:03.377Z</time>
</trkpt>
<trkpt lat="22.2613510" lon="114.2076533">
<ele>169.933</ele>
<time>2017-11-25T07:35:11.912Z</time>
</trkpt>
<trkpt lat="22.2613814" lon="114.2075570">
<ele>170.524</ele>
<time>2017-11-25T07:35:19.791Z</time>
</trkpt>
<trkpt lat="22.2613906" lon="114.2074571">
<ele>170.761</ele>
<time>2017-11-25T07:35:28.095Z</time>
</trkpt>
<trkpt lat="22.2613531" lon="114.2073596">
<ele>170.838</ele>
<time>2017-11-25T07:35:38.340Z</time>
</trkpt>
<trkpt lat="22.2613346" lon="114.2072522">
<ele>170.932</ele>
<time>2017-11-25T07:35:48.565Z</time>
</trkpt>
<trkpt lat="22.2613560" lon="114.2071579">
<ele>171.044</ele>
<time>2017-11-25T07:35:56.019Z</time>
</trkpt>
<trkpt lat="22.2613419" lon="114.2070591">
<ele>171.156</ele>
<time>2017-11-25T07:36:03.965Z</time>
</trkpt>
<trkpt lat="22.2613419" lon="114.2070591">
<ele>171.291</ele>
<time>2017-11-25T07:36:07.965Z</time>
</trkpt>
<trkpt lat="22.2613419" lon="114.2070591">
<ele>171.358</ele>
<time>2017-11-25T07:36:08.065Z</time>
</trkpt>
<trkpt lat="22.2614112" lon="114.2069907">
<ele>171.284</ele>
<time>2017-11-25T07:36:15.965Z</time>
</trkpt>
<trkpt lat="22.2614112" lon="114.2069907">
<ele>171.161</ele>
<time>2017-11-25T07:36:19.964Z</time>
</trkpt>
<trkpt lat="22.2614112" lon="114.2069907">
<ele>171.089</ele>
<time>2017-11-25T07:36:20.064Z</time>
</trkpt>
<trkpt lat="22.2615129" lon="114.2069276">
<ele>171.068</ele>
<time>2017-11-25T07:36:34.394Z</time>
</trkpt>
<trkpt lat="22.2616153" lon="114.2069390">
<ele>171.503</ele>
<time>2017-11-25T07:36:41.751Z</time>
</trkpt>
<trkpt lat="22.2616947" lon="114.2069905">
<ele>172.636</ele>
<time>2017-11-25T07:36:47.773Z</time>
</trkpt>
<trkpt lat="22.2617851" lon="114.2070001">
<ele>173.565</ele>
<time>2017-11-25T07:36:54.211Z</time>
</trkpt>
<trkpt lat="22.2618641" lon="114.2069428">
<ele>173.483</ele>
<time>2017-11-25T07:37:01.197Z</time>
</trkpt>
<trkpt lat="22.2619302" lon="114.2068613">
<ele>172.814</ele>
<time>2017-11-25T07:37:08.744Z</time>
</trkpt>
<trkpt lat="22.2619624" lon="114.2067670">
<ele>172.257</ele>
<time>2017-11-25T07:37:16.054Z</time>
</trkpt>
<trkpt lat="22.2620044" lon="114.2066737">
<ele>172.021</ele>
<time>2017-11-25T07:37:23.602Z</time>
</trkpt>
<trkpt lat="22.2620624" lon="114.2065837">
<ele>171.891</ele>
<time>2017-11-25T07:37:31.348Z</time>
</trkpt>
<trkpt lat="22.2621109" lon="114.2064875">
<ele>171.561</ele>
<time>2017-11-25T07:37:39.039Z</time>
</trkpt>
<trkpt lat="22.2621425" lon="114.2063909">
<ele>171.028</ele>
<time>2017-11-25T07:37:46.348Z</time>
</trkpt>
<trkpt lat="22.2621083" lon="114.2062953">
<ele>170.379</ele>
<time>2017-11-25T07:37:53.501Z</time>
</trkpt>
<trkpt lat="22.2620494" lon="114.2062121">
<ele>169.698</ele>
<time>2017-11-25T07:38:00.430Z</time>
</trkpt>
<trkpt lat="22.2619640" lon="114.2061557">
<ele>169.371</ele>
<time>2017-11-25T07:38:07.513Z</time>
</trkpt>
<trkpt lat="22.2618758" lon="114.2061046">
<ele>169.787</ele>
<time>2017-11-25T07:38:14.856Z</time>
</trkpt>
<trkpt lat="22.2617950" lon="114.2060382">
<ele>170.639</ele>
<time>2017-11-25T07:38:22.618Z</time>
</trkpt>
<trkpt lat="22.2617097" lon="114.2059849">
<ele>171.300</ele>
<time>2017-11-25T07:38:30.521Z</time>
</trkpt>
<trkpt lat="22.2616293" lon="114.2059233">
<ele>171.538</ele>
<time>2017-11-25T07:38:38.961Z</time>
</trkpt>
<trkpt lat="22.2616293" lon="114.2059233">
<ele>171.519</ele>
<time>2017-11-25T07:38:51.967Z</time>
</trkpt>
<trkpt lat="22.2616293" lon="114.2059233">
<ele>171.432</ele>
<time>2017-11-25T07:38:52.067Z</time>
</trkpt>
<trkpt lat="22.2615618" lon="114.2058212">
<ele>171.363</ele>
<time>2017-11-25T07:39:14.822Z</time>
</trkpt>
<trkpt lat="22.2614656" lon="114.2057858">
<ele>171.583</ele>
<time>2017-11-25T07:39:22.767Z</time>
</trkpt>
<trkpt lat="22.2614160" lon="114.2057049">
<ele>172.966</ele>
<time>2017-11-25T07:39:26.967Z</time>
</trkpt>
<trkpt lat="22.2614160" lon="114.2057049">
<ele>175.554</ele>
<time>2017-11-25T07:39:32.966Z</time>
</trkpt>
<trkpt lat="22.2614160" lon="114.2057049">
<ele>177.409</ele>
<time>2017-11-25T07:40:01.966Z</time>
</trkpt>
<trkpt lat="22.2614160" lon="114.2057049">
<ele>177.271</ele>
<time>2017-11-25T07:40:02.066Z</time>
</trkpt>
<trkpt lat="22.2614373" lon="114.2055723">
<ele>176.465</ele>
<time>2017-11-25T07:56:36.478Z</time>
</trkpt>
<trkpt lat="22.2613652" lon="114.2055119">
<ele>176.373</ele>
<time>2017-11-25T08:08:25.438Z</time>
</trkpt>
<trkpt lat="22.2612815" lon="114.2055524">
<ele>176.824</ele>
<time>2017-11-25T08:20:17.188Z</time>
</trkpt>
<trkpt lat="22.2611914" lon="114.2055854">
<ele>177.599</ele>
<time>2017-11-25T08:32:36.152Z</time>
</trkpt>
<trkpt lat="22.2615746" lon="114.2058510">
<ele>179.622</ele>
<time>2017-11-25T09:31:32.574Z</time>
</trkpt>
<trkpt lat="22.2616633" lon="114.2058864">
<ele>179.770</ele>
<time>2017-11-25T09:43:46.654Z</time>
</trkpt>
<trkpt lat="22.2617485" lon="114.2059186">
<ele>179.515</ele>
<time>2017-11-25T09:55:27.240Z</time>
</trkpt>
<trkpt lat="22.2618247" lon="114.2059816">
<ele>179.315</ele>
<time>2017-11-25T10:07:42.979Z</time>
</trkpt>
<trkpt lat="22.2618247" lon="114.2059816">
<ele>179.288</ele>
<time>2017-11-25T10:07:49.979Z</time>
</trkpt>
<trkpt lat="22.2618247" lon="114.2059816">
<ele>179.300</ele>
<time>2017-11-25T10:08:10.327Z</time>
</trkpt>
<trkpt lat="22.2619396" lon="114.2061110">
<ele>179.242</ele>
<time>2017-11-25T10:08:34.738Z</time>
</trkpt>
<trkpt lat="22.2620211" lon="114.2061724">
<ele>179.248</ele>
<time>2017-11-25T10:08:42.726Z</time>
</trkpt>
<trkpt lat="22.2620718" lon="114.2062589">
<ele>179.443</ele>
<time>2017-11-25T10:08:49.049Z</time>
</trkpt>
<trkpt lat="22.2620822" lon="114.2063639">
<ele>179.747</ele>
<time>2017-11-25T10:08:55.729Z</time>
</trkpt>
<trkpt lat="22.2620596" lon="114.2064605">
<ele>180.130</ele>
<time>2017-11-25T10:09:02.727Z</time>
</trkpt>
<trkpt lat="22.2620132" lon="114.2065527">
<ele>180.561</ele>
<time>2017-11-25T10:09:09.882Z</time>
</trkpt>
<trkpt lat="22.2619600" lon="114.2066442">
<ele>180.692</ele>
<time>2017-11-25T10:09:16.422Z</time>
</trkpt>
<trkpt lat="22.2619271" lon="114.2067383">
<ele>179.836</ele>
<time>2017-11-25T10:09:22.372Z</time>
</trkpt>
<trkpt lat="22.2619120" lon="114.2068463">
<ele>177.875</ele>
<time>2017-11-25T10:09:29.154Z</time>
</trkpt>
<trkpt lat="22.2618445" lon="114.2069292">
<ele>175.728</ele>
<time>2017-11-25T10:09:36.113Z</time>
</trkpt>
<trkpt lat="22.2617722" lon="114.2069922">
<ele>173.932</ele>
<time>2017-11-25T10:09:42.495Z</time>
</trkpt>
<trkpt lat="22.2616805" lon="114.2069978">
<ele>172.232</ele>
<time>2017-11-25T10:09:49.397Z</time>
</trkpt>
<trkpt lat="22.2615989" lon="114.2069453">
<ele>170.810</ele>
<time>2017-11-25T10:09:57.166Z</time>
</trkpt>
<trkpt lat="22.2615060" lon="114.2069705">
<ele>170.157</ele>
<time>2017-11-25T10:10:07.124Z</time>
</trkpt>
<trkpt lat="22.2614675" lon="114.2070587">
<ele>170.310</ele>
<time>2017-11-25T10:10:17.056Z</time>
</trkpt>
<trkpt lat="22.2614402" lon="114.2071600">
<ele>171.086</ele>
<time>2017-11-25T10:10:28.035Z</time>
</trkpt>
<trkpt lat="22.2614279" lon="114.2072568">
<ele>172.153</ele>
<time>2017-11-25T10:10:35.206Z</time>
</trkpt>
<trkpt lat="22.2614827" lon="114.2073491">
<ele>172.939</ele>
<time>2017-11-25T10:10:41.985Z</time>
</trkpt>
<trkpt lat="22.2614662" lon="114.2074593">
<ele>173.145</ele>
<time>2017-11-25T10:10:48.248Z</time>
</trkpt>
<trkpt lat="22.2614266" lon="114.2075549">
<ele>172.921</ele>
<time>2017-11-25T10:10:54.017Z</time>
</trkpt>
<trkpt lat="22.2613914" lon="114.2076559">
<ele>172.503</ele>
<time>2017-11-25T10:11:00.312Z</time>
</trkpt>
<trkpt lat="22.2612988" lon="114.2076804">
<ele>171.965</ele>
<time>2017-11-25T10:11:06.895Z</time>
</trkpt>
<trkpt lat="22.2612051" lon="114.2076906">
<ele>171.327</ele>
<time>2017-11-25T10:11:13.472Z</time>
</trkpt>
<trkpt lat="22.2611029" lon="114.2077152">
<ele>170.810</ele>
<time>2017-11-25T10:11:21.007Z</time>
</trkpt>
<trkpt lat="22.2610117" lon="114.2077589">
<ele>170.573</ele>
<time>2017-11-25T10:11:28.754Z</time>
</trkpt>
<trkpt lat="22.2609483" lon="114.2078342">
<ele>170.500</ele>
<time>2017-11-25T10:11:36.804Z</time>
</trkpt>
<trkpt lat="22.2608535" lon="114.2078534">
<ele>170.504</ele>
<time>2017-11-25T10:11:45.894Z</time>
</trkpt>
<trkpt lat="22.2607707" lon="114.2077993">
<ele>170.550</ele>
<time>2017-11-25T10:11:55.028Z</time>
</trkpt>
<trkpt lat="22.2606795" lon="114.2077951">
<ele>170.643</ele>
<time>2017-11-25T10:12:04.283Z</time>
</trkpt>
<trkpt lat="22.2605930" lon="114.2078214">
<ele>170.812</ele>
<time>2017-11-25T10:12:14.705Z</time>
</trkpt>
<trkpt lat="22.2605322" lon="114.2078947">
<ele>171.040</ele>
<time>2017-11-25T10:12:25.088Z</time>
</trkpt>
<trkpt lat="22.2604569" lon="114.2079574">
<ele>171.322</ele>
<time>2017-11-25T10:12:34.937Z</time>
</trkpt>
<trkpt lat="22.2603964" lon="114.2080354">
<ele>171.636</ele>
<time>2017-11-25T10:12:42.815Z</time>
</trkpt>
<trkpt lat="22.2603777" lon="114.2081307">
<ele>171.872</ele>
<time>2017-11-25T10:12:50.092Z</time>
</trkpt>
<trkpt lat="22.2603072" lon="114.2082001">
<ele>171.804</ele>
<time>2017-11-25T10:12:57.740Z</time>
</trkpt>
<trkpt lat="22.2602128" lon="114.2082164">
<ele>171.308</ele>
<time>2017-11-25T10:13:05.256Z</time>
</trkpt>
<trkpt lat="22.2601568" lon="114.2083014">
<ele>170.617</ele>
<time>2017-11-25T10:13:13.920Z</time>
</trkpt>
<trkpt lat="22.2600631" lon="114.2083457">
<ele>170.076</ele>
<time>2017-11-25T10:13:22.816Z</time>
</trkpt>
<trkpt lat="22.2599677" lon="114.2083669">
<ele>169.756</ele>
<time>2017-11-25T10:13:30.164Z</time>
</trkpt>
<trkpt lat="22.2598919" lon="114.2084337">
<ele>169.567</ele>
<time>2017-11-25T10:13:37.740Z</time>
</trkpt>
<trkpt lat="22.2597947" lon="114.2084568">
<ele>169.313</ele>
<time>2017-11-25T10:13:46.223Z</time>
</trkpt>
<trkpt lat="22.2597031" lon="114.2084191">
<ele>168.765</ele>
<time>2017-11-25T10:13:54.864Z</time>
</trkpt>
<trkpt lat="22.2596105" lon="114.2083912">
<ele>167.921</ele>
<time>2017-11-25T10:14:03.976Z</time>
</trkpt>
<trkpt lat="22.2596105" lon="114.2083912">
<ele>167.095</ele>
<time>2017-11-25T10:14:04.976Z</time>
</trkpt>
<trkpt lat="22.2596105" lon="114.2083912">
<ele>166.640</ele>
<time>2017-11-25T10:14:05.364Z</time>
</trkpt>
<trkpt lat="22.2594991" lon="114.2083927">
<ele>166.757</ele>
<time>2017-11-25T10:14:23.045Z</time>
</trkpt>
<trkpt lat="22.2594346" lon="114.2084618">
<ele>167.012</ele>
<time>2017-11-25T10:14:33.716Z</time>
</trkpt>
<trkpt lat="22.2594219" lon="114.2085590">
<ele>167.427</ele>
<time>2017-11-25T10:14:44.227Z</time>
</trkpt>
<trkpt lat="22.2593705" lon="114.2086567">
<ele>167.816</ele>
<time>2017-11-25T10:14:52.843Z</time>
</trkpt>
<trkpt lat="22.2593156" lon="114.2087422">
<ele>167.993</ele>
<time>2017-11-25T10:14:59.909Z</time>
</trkpt>
<trkpt lat="22.2592799" lon="114.2088347">
<ele>168.050</ele>
<time>2017-11-25T10:15:06.873Z</time>
</trkpt>
<trkpt lat="22.2592128" lon="114.2089048">
<ele>168.100</ele>
<time>2017-11-25T10:15:13.640Z</time>
</trkpt>
<trkpt lat="22.2591331" lon="114.2089546">
<ele>168.046</ele>
<time>2017-11-25T10:15:20.305Z</time>
</trkpt>
<trkpt lat="22.2590320" lon="114.2089800">
<ele>167.805</ele>
<time>2017-11-25T10:15:28.420Z</time>
</trkpt>
<trkpt lat="22.2589474" lon="114.2090231">
<ele>167.538</ele>
<time>2017-11-25T10:15:36.546Z</time>
</trkpt>
<trkpt lat="22.2588599" lon="114.2090554">
<ele>167.439</ele>
<time>2017-11-25T10:15:44.882Z</time>
</trkpt>
<trkpt lat="22.2587700" lon="114.2091091">
<ele>167.533</ele>
<time>2017-11-25T10:15:53.435Z</time>
</trkpt>
<trkpt lat="22.2586872" lon="114.2091737">
<ele>167.837</ele>
<time>2017-11-25T10:16:01.790Z</time>
</trkpt>
<trkpt lat="22.2586555" lon="114.2092681">
<ele>168.285</ele>
<time>2017-11-25T10:16:09.796Z</time>
</trkpt>
<trkpt lat="22.2586058" lon="114.2093583">
<ele>168.613</ele>
<time>2017-11-25T10:16:18.113Z</time>
</trkpt>
<trkpt lat="22.2585454" lon="114.2094420">
<ele>168.653</ele>
<time>2017-11-25T10:16:25.862Z</time>
</trkpt>
<trkpt lat="22.2584489" lon="114.2094774">
<ele>168.500</ele>
<time>2017-11-25T10:16:33.309Z</time>
</trkpt>
<trkpt lat="22.2583563" lon="114.2094555">
<ele>168.297</ele>
<time>2017-11-25T10:16:40.460Z</time>
</trkpt>
<trkpt lat="22.2582612" lon="114.2094824">
<ele>168.148</ele>
<time>2017-11-25T10:16:48.545Z</time>
</trkpt>
<trkpt lat="22.2581703" lon="114.2095136">
<ele>168.075</ele>
<time>2017-11-25T10:16:56.943Z</time>
</trkpt>
<trkpt lat="22.2581242" lon="114.2096053">
<ele>168.095</ele>
<time>2017-11-25T10:17:05.314Z</time>
</trkpt>
<trkpt lat="22.2580340" lon="114.2096445">
<ele>168.127</ele>
<time>2017-11-25T10:17:13.342Z</time>
</trkpt>
<trkpt lat="22.2579430" lon="114.2096025">
<ele>167.889</ele>
<time>2017-11-25T10:17:20.972Z</time>
</trkpt>
<trkpt lat="22.2578646" lon="114.2095428">
<ele>167.128</ele>
<time>2017-11-25T10:17:28.346Z</time>
</trkpt>
<trkpt lat="22.2577724" lon="114.2095241">
<ele>165.950</ele>
<time>2017-11-25T10:17:35.459Z</time>
</trkpt>
<trkpt lat="22.2576891" lon="114.2094649">
<ele>164.643</ele>
<time>2017-11-25T10:17:42.777Z</time>
</trkpt>
<trkpt lat="22.2576364" lon="114.2093809">
<ele>163.467</ele>
<time>2017-11-25T10:17:49.977Z</time>
</trkpt>
<trkpt lat="22.2576364" lon="114.2093809">
<ele>162.658</ele>
<time>2017-11-25T10:18:04.977Z</time>
</trkpt>
<trkpt lat="22.2576364" lon="114.2093809">
<ele>162.330</ele>
<time>2017-11-25T10:18:05.077Z</time>
</trkpt>
<trkpt lat="22.2575160" lon="114.2093241">
<ele>162.313</ele>
<time>2017-11-25T10:18:26.522Z</time>
</trkpt>
<trkpt lat="22.2574312" lon="114.2093600">
<ele>162.291</ele>
<time>2017-11-25T10:18:35.728Z</time>
</trkpt>
<trkpt lat="22.2573648" lon="114.2094367">
<ele>162.092</ele>
<time>2017-11-25T10:18:43.715Z</time>
</trkpt>
<trkpt lat="22.2572785" lon="114.2094656">
<ele>162.006</ele>
<time>2017-11-25T10:18:49.488Z</time>
</trkpt>
<trkpt lat="22.2571952" lon="114.2095038">
<ele>162.326</ele>
<time>2017-11-25T10:18:54.898Z</time>
</trkpt>
<trkpt lat="22.2570921" lon="114.2095221">
<ele>162.932</ele>
<time>2017-11-25T10:19:01.408Z</time>
</trkpt>
<trkpt lat="22.2570061" lon="114.2095645">
<ele>163.758</ele>
<time>2017-11-25T10:19:08.623Z</time>
</trkpt>
<trkpt lat="22.2569897" lon="114.2096711">
<ele>164.831</ele>
<time>2017-11-25T10:19:17.415Z</time>
</trkpt>
<trkpt lat="22.2569719" lon="114.2097780">
<ele>165.899</ele>
<time>2017-11-25T10:19:26.480Z</time>
</trkpt>
<trkpt lat="22.2570359" lon="114.2098627">
<ele>166.644</ele>
<time>2017-11-25T10:19:33.394Z</time>
</trkpt>
<trkpt lat="22.2570717" lon="114.2099524">
<ele>166.966</ele>
<time>2017-11-25T10:19:39.224Z</time>
</trkpt>
<trkpt lat="22.2570323" lon="114.2100503">
<ele>166.913</ele>
<time>2017-11-25T10:19:45.974Z</time>
</trkpt>
<trkpt lat="22.2570323" lon="114.2100503">
<ele>166.636</ele>
<time>2017-11-25T10:19:50.974Z</time>
</trkpt>
<trkpt lat="22.2570323" lon="114.2100503">
<ele>166.393</ele>
<time>2017-11-25T10:24:27.101Z</time>
</trkpt>
<trkpt lat="22.2569617" lon="114.2101454">
<ele>166.373</ele>
<time>2017-11-25T10:24:49.216Z</time>
</trkpt>
<trkpt lat="22.2568916" lon="114.2102063">
<ele>166.038</ele>
<time>2017-11-25T10:24:57.423Z</time>
</trkpt>
<trkpt lat="22.2568032" lon="114.2102293">
<ele>164.973</ele>
<time>2017-11-25T10:25:04.352Z</time>
</trkpt>
<trkpt lat="22.2567094" lon="114.2102671">
<ele>163.720</ele>
<time>2017-11-25T10:25:13.282Z</time>
</trkpt>
<trkpt lat="22.2567088" lon="114.2103658">
<ele>162.885</ele>
<time>2017-11-25T10:25:22.211Z</time>
</trkpt>
<trkpt lat="22.2567339" lon="114.2104594">
<ele>162.282</ele>
<time>2017-11-25T10:25:30.903Z</time>
</trkpt>
<trkpt lat="22.2567653" lon="114.2105543">
<ele>161.712</ele>
<time>2017-11-25T10:25:39.617Z</time>
</trkpt>
<trkpt lat="22.2567708" lon="114.2106614">
<ele>161.156</ele>
<time>2017-11-25T10:25:48.725Z</time>
</trkpt>
<trkpt lat="22.2567143" lon="114.2107481">
<ele>160.588</ele>
<time>2017-11-25T10:25:57.276Z</time>
</trkpt>
<trkpt lat="22.2566931" lon="114.2108488">
<ele>160.151</ele>
<time>2017-11-25T10:26:05.855Z</time>
</trkpt>
<trkpt lat="22.2566325" lon="114.2109272">
<ele>159.982</ele>
<time>2017-11-25T10:26:14.890Z</time>
</trkpt>
<trkpt lat="22.2565885" lon="114.2110153">
<ele>160.017</ele>
<time>2017-11-25T10:26:22.583Z</time>
</trkpt>
<trkpt lat="22.2565601" lon="114.2111203">
<ele>160.075</ele>
<time>2017-11-25T10:26:31.068Z</time>
</trkpt>
<trkpt lat="22.2565575" lon="114.2112248">
<ele>159.940</ele>
<time>2017-11-25T10:26:39.529Z</time>
</trkpt>
<trkpt lat="22.2565244" lon="114.2113164">
<ele>159.619</ele>
<time>2017-11-25T10:26:48.093Z</time>
</trkpt>
<trkpt lat="22.2564848" lon="114.2114131">
<ele>159.275</ele>
<time>2017-11-25T10:26:56.970Z</time>
</trkpt>
<trkpt lat="22.2564848" lon="114.2114131">
<ele>158.999</ele>
<time>2017-11-25T10:27:03.970Z</time>
</trkpt>
<trkpt lat="22.2564848" lon="114.2114131">
<ele>158.839</ele>
<time>2017-11-25T10:27:07.162Z</time>
</trkpt>
<trkpt lat="22.2563742" lon="114.2115388">
<ele>158.787</ele>
<time>2017-11-25T10:27:24.899Z</time>
</trkpt>
<trkpt lat="22.2563131" lon="114.2116276">
<ele>158.777</ele>
<time>2017-11-25T10:27:31.096Z</time>
</trkpt>
<trkpt lat="22.2562781" lon="114.2117312">
<ele>158.709</ele>
<time>2017-11-25T10:27:36.585Z</time>
</trkpt>
<trkpt lat="22.2562894" lon="114.2118293">
<ele>158.508</ele>
<time>2017-11-25T10:27:40.969Z</time>
</trkpt>
<trkpt lat="22.2562894" lon="114.2118293">
<ele>158.244</ele>
<time>2017-11-25T10:27:46.969Z</time>
</trkpt>
<trkpt lat="22.2562894" lon="114.2118293">
<ele>158.063</ele>
<time>2017-11-25T10:28:36.193Z</time>
</trkpt>
<trkpt lat="22.2563183" lon="114.2120238">
<ele>158.008</ele>
<time>2017-11-25T10:28:55.967Z</time>
</trkpt>
<trkpt lat="22.2563183" lon="114.2120238">
<ele>157.988</ele>
<time>2017-11-25T10:29:02.967Z</time>
</trkpt>
<trkpt lat="22.2563183" lon="114.2120238">
<ele>157.926</ele>
<time>2017-11-25T10:29:03.067Z</time>
</trkpt>
<trkpt lat="22.2563183" lon="114.2120238">
<ele>157.803</ele>
<time>2017-11-25T10:29:23.966Z</time>
</trkpt>
<trkpt lat="22.2563183" lon="114.2120238">
<ele>157.773</ele>
<time>2017-11-25T10:29:36.723Z</time>
</trkpt>
<trkpt lat="22.2563040" lon="114.2119234">
<ele>157.720</ele>
<time>2017-11-25T10:29:50.181Z</time>
</trkpt>
<trkpt lat="22.2562683" lon="114.2120155">
<ele>157.215</ele>
<time>2017-11-25T10:29:57.965Z</time>
</trkpt>
<trkpt lat="22.2562683" lon="114.2120155">
<ele>156.022</ele>
<time>2017-11-25T10:29:58.965Z</time>
</trkpt>
<trkpt lat="22.2562683" lon="114.2120155">
<ele>155.023</ele>
<time>2017-11-25T10:30:05.227Z</time>
</trkpt>
<trkpt lat="22.2563019" lon="114.2119204">
<ele>155.425</ele>
<time>2017-11-25T10:30:20.965Z</time>
</trkpt>
<trkpt lat="22.2563019" lon="114.2119204">
<ele>155.693</ele>
<time>2017-11-25T10:30:21.965Z</time>
</trkpt>
<trkpt lat="22.2563019" lon="114.2119204">
<ele>155.614</ele>
<time>2017-11-25T10:30:46.145Z</time>
</trkpt>
<trkpt lat="22.2562936" lon="114.2120265">
<ele>155.387</ele>
<time>2017-11-25T10:31:16.171Z</time>
</trkpt>
<trkpt lat="22.2562707" lon="114.2121298">
<ele>155.281</ele>
<time>2017-11-25T10:31:45.402Z</time>
</trkpt>
<trkpt lat="22.2562398" lon="114.2122211">
<ele>154.915</ele>
<time>2017-11-25T10:31:54.998Z</time>
</trkpt>
<trkpt lat="22.2561985" lon="114.2123201">
<ele>154.507</ele>
<time>2017-11-25T10:32:05.203Z</time>
</trkpt>
<trkpt lat="22.2561711" lon="114.2124164">
<ele>154.349</ele>
<time>2017-11-25T10:32:17.969Z</time>
</trkpt>
<trkpt lat="22.2561711" lon="114.2124164">
<ele>154.431</ele>
<time>2017-11-25T10:32:21.969Z</time>
</trkpt>
<trkpt lat="22.2561711" lon="114.2124164">
<ele>154.525</ele>
<time>2017-11-25T10:32:22.720Z</time>
</trkpt>
<trkpt lat="22.2560880" lon="114.2124794">
<ele>154.465</ele>
<time>2017-11-25T10:32:34.586Z</time>
</trkpt>
<trkpt lat="22.2560127" lon="114.2125470">
<ele>154.514</ele>
<time>2017-11-25T10:32:40.968Z</time>
</trkpt>
<trkpt lat="22.2560127" lon="114.2125470">
<ele>154.898</ele>
<time>2017-11-25T10:32:47.968Z</time>
</trkpt>
<trkpt lat="22.2560127" lon="114.2125470">
<ele>155.238</ele>
<time>2017-11-25T10:33:15.620Z</time>
</trkpt>
<trkpt lat="22.2560651" lon="114.2124589">
<ele>154.913</ele>
<time>2017-11-25T10:33:25.967Z</time>
</trkpt>
<trkpt lat="22.2560651" lon="114.2124589">
<ele>154.736</ele>
<time>2017-11-25T10:33:26.967Z</time>
</trkpt>
<trkpt lat="22.2560651" lon="114.2124589">
<ele>154.655</ele>
<time>2017-11-25T10:33:31.992Z</time>
</trkpt>
<trkpt lat="22.2561512" lon="114.2123938">
<ele>154.564</ele>
<time>2017-11-25T10:33:40.967Z</time>
</trkpt>
<trkpt lat="22.2561512" lon="114.2123938">
<ele>154.526</ele>
<time>2017-11-25T10:33:42.967Z</time>
</trkpt>
<trkpt lat="22.2561512" lon="114.2123938">
<ele>154.459</ele>
<time>2017-11-25T10:33:56.966Z</time>
</trkpt>
<trkpt lat="22.2561512" lon="114.2123938">
<ele>154.386</ele>
<time>2017-11-25T10:33:57.066Z</time>
</trkpt>
<trkpt lat="22.2560823" lon="114.2124625">
<ele>154.302</ele>
<time>2017-11-25T10:34:14.453Z</time>
</trkpt>
<trkpt lat="22.2560105" lon="114.2125288">
<ele>153.873</ele>
<time>2017-11-25T10:34:21.528Z</time>
</trkpt>
<trkpt lat="22.2559592" lon="114.2126086">
<ele>152.803</ele>
<time>2017-11-25T10:34:27.669Z</time>
</trkpt>
<trkpt lat="22.2559095" lon="114.2126932">
<ele>151.716</ele>
<time>2017-11-25T10:34:35.061Z</time>
</trkpt>
<trkpt lat="22.2558156" lon="114.2126734">
<ele>151.207</ele>
<time>2017-11-25T10:34:42.965Z</time>
</trkpt>
<trkpt lat="22.2558156" lon="114.2126734">
<ele>151.093</ele>
<time>2017-11-25T10:34:44.965Z</time>
</trkpt>
<trkpt lat="22.2558156" lon="114.2126734">
<ele>151.066</ele>
<time>2017-11-25T10:34:52.758Z</time>
</trkpt>
<trkpt lat="22.2557233" lon="114.2126448">
<ele>151.028</ele>
<time>2017-11-25T10:35:01.655Z</time>
</trkpt>
<trkpt lat="22.2556796" lon="114.2127440">
<ele>151.165</ele>
<time>2017-11-25T10:35:06.964Z</time>
</trkpt>
<trkpt lat="22.2556796" lon="114.2127440">
<ele>151.567</ele>
<time>2017-11-25T10:35:09.964Z</time>
</trkpt>
<trkpt lat="22.2556796" lon="114.2127440">
<ele>151.880</ele>
<time>2017-11-25T10:35:10.064Z</time>
</trkpt>
<trkpt lat="22.2555984" lon="114.2126871">
<ele>151.569</ele>
<time>2017-11-25T10:35:26.592Z</time>
</trkpt>
<trkpt lat="22.2556896" lon="114.2126574">
<ele>151.466</ele>
<time>2017-11-25T10:35:36.048Z</time>
</trkpt>
<trkpt lat="22.2557836" lon="114.2126436">
<ele>151.669</ele>
<time>2017-11-25T10:35:44.030Z</time>
</trkpt>
<trkpt lat="22.2558740" lon="114.2126746">
<ele>151.373</ele>
<time>2017-11-25T10:35:51.371Z</time>
</trkpt>
<trkpt lat="22.2559343" lon="114.2125934">
<ele>150.839</ele>
<time>2017-11-25T10:35:58.963Z</time>
</trkpt>
<trkpt lat="22.2559343" lon="114.2125934">
<ele>150.254</ele>
<time>2017-11-25T10:36:09.963Z</time>
</trkpt>
<trkpt lat="22.2559343" lon="114.2125934">
<ele>149.911</ele>
<time>2017-11-25T10:36:22.962Z</time>
</trkpt>
<trkpt lat="22.2559343" lon="114.2125934">
<ele>149.875</ele>
<time>2017-11-25T10:36:30.579Z</time>
</trkpt>
<trkpt lat="22.2559343" lon="114.2125934">
<ele>149.889</ele>
<time>2017-11-25T10:36:39.962Z</time>
</trkpt>
<trkpt lat="22.2559343" lon="114.2125934">
<ele>149.798</ele>
<time>2017-11-25T10:36:40.062Z</time>
</trkpt>
<trkpt lat="22.2558727" lon="114.2127042">
<ele>149.737</ele>
<time>2017-11-25T10:36:49.962Z</time>
</trkpt>
<trkpt lat="22.2558727" lon="114.2127042">
<ele>149.691</ele>
<time>2017-11-25T10:36:50.962Z</time>
</trkpt>
<trkpt lat="22.2558727" lon="114.2127042">
<ele>149.625</ele>
<time>2017-11-25T10:40:30.964Z</time>
</trkpt>
<trkpt lat="22.2558727" lon="114.2127042">
<ele>149.556</ele>
<time>2017-11-25T10:40:31.064Z</time>
</trkpt>
<trkpt lat="22.2558727" lon="114.2127042">
<ele>149.474</ele>
<time>2017-11-25T10:41:12.963Z</time>
</trkpt>
<trkpt lat="22.2558727" lon="114.2127042">
<ele>149.437</ele>
<time>2017-11-25T10:41:13.063Z</time>
</trkpt>
<trkpt lat="22.2558727" lon="114.2127042">
<ele>149.330</ele>
<time>2017-11-25T10:41:14.963Z</time>
</trkpt>
<trkpt lat="22.2558727" lon="114.2127042">
<ele>149.287</ele>
<time>2017-11-25T10:41:15.063Z</time>
</trkpt>
<trkpt lat="22.2557622" lon="114.2126318">
<ele>149.247</ele>
<time>2017-11-25T10:41:47.521Z</time>
</trkpt>
<trkpt lat="22.2556720" lon="114.2126100">
<ele>149.832</ele>
<time>2017-11-25T10:41:55.038Z</time>
</trkpt>
<trkpt lat="22.2555833" lon="114.2126339">
<ele>151.422</ele>
<time>2017-11-25T10:42:01.961Z</time>
</trkpt>
<trkpt lat="22.2555833" lon="114.2126339">
<ele>153.012</ele>
<time>2017-11-25T10:42:10.961Z</time>
</trkpt>
<trkpt lat="22.2555833" lon="114.2126339">
<ele>153.595</ele>
<time>2017-11-25T10:42:11.061Z</time>
</trkpt>
<trkpt lat="22.2555031" lon="114.2127682">
<ele>153.348</ele>
<time>2017-11-25T10:42:35.577Z</time>
</trkpt>
<trkpt lat="22.2554611" lon="114.2128567">
<ele>152.812</ele>
<time>2017-11-25T10:42:46.758Z</time>
</trkpt>
<trkpt lat="22.2555033" lon="114.2127682">
<ele>152.243</ele>
<time>2017-11-25T10:42:57.960Z</time>
</trkpt>
<trkpt lat="22.2555033" lon="114.2127682">
<ele>151.655</ele>
<time>2017-11-25T10:43:04.960Z</time>
</trkpt>
<trkpt lat="22.2555033" lon="114.2127682">
<ele>151.256</ele>
<time>2017-11-25T10:43:15.689Z</time>
</trkpt>
<trkpt lat="22.2554975" lon="114.2126534">
<ele>151.294</ele>
<time>2017-11-25T10:43:53.958Z</time>
</trkpt>
<trkpt lat="22.2554975" lon="114.2126534">
<ele>151.555</ele>
<time>2017-11-25T10:43:55.958Z</time>
</trkpt>
<trkpt lat="22.2554975" lon="114.2126534">
<ele>151.657</ele>
<time>2017-11-25T10:44:43.138Z</time>
</trkpt>
<trkpt lat="22.2554975" lon="114.2126534">
<ele>151.431</ele>
<time>2017-11-25T10:45:07.956Z</time>
</trkpt>
<trkpt lat="22.2554975" lon="114.2126534">
<ele>151.369</ele>
<time>2017-11-25T10:45:08.056Z</time>
</trkpt>
<trkpt lat="22.2554098" lon="114.2127032">
<ele>151.304</ele>
<time>2017-11-25T10:45:28.144Z</time>
</trkpt>
<trkpt lat="22.2553713" lon="114.2127974">
<ele>151.148</ele>
<time>2017-11-25T10:45:38.828Z</time>
</trkpt>
<trkpt lat="22.2553037" lon="114.2128692">
<ele>150.303</ele>
<time>2017-11-25T10:45:49.322Z</time>
</trkpt>
<trkpt lat="22.2552110" lon="114.2129065">
<ele>148.499</ele>
<time>2017-11-25T10:46:00.955Z</time>
</trkpt>
<trkpt lat="22.2552110" lon="114.2129065">
<ele>146.609</ele>
<time>2017-11-25T10:46:05.955Z</time>
</trkpt>
<trkpt lat="22.2552110" lon="114.2129065">
<ele>145.670</ele>
<time>2017-11-25T10:46:09.262Z</time>
</trkpt>
<trkpt lat="22.2551310" lon="114.2129526">
<ele>146.106</ele>
<time>2017-11-25T10:46:35.260Z</time>
</trkpt>
<trkpt lat="22.2550353" lon="114.2129549">
<ele>145.296</ele>
<time>2017-11-25T10:46:43.954Z</time>
</trkpt>
<trkpt lat="22.2550353" lon="114.2129549">
<ele>142.528</ele>
<time>2017-11-25T10:46:52.954Z</time>
</trkpt>
<trkpt lat="22.2550353" lon="114.2129549">
<ele>140.113</ele>
<time>2017-11-25T10:46:57.084Z</time>
</trkpt>
<trkpt lat="22.2549416" lon="114.2130053">
<ele>140.085</ele>
<time>2017-11-25T10:47:18.854Z</time>
</trkpt>
<trkpt lat="22.2548633" lon="114.2130781">
<ele>140.360</ele>
<time>2017-11-25T10:47:29.983Z</time>
</trkpt>
<trkpt lat="22.2547743" lon="114.2131226">
<ele>138.545</ele>
<time>2017-11-25T10:47:38.101Z</time>
</trkpt>
<trkpt lat="22.2546955" lon="114.2131863">
<ele>135.545</ele>
<time>2017-11-25T10:47:45.185Z</time>
</trkpt>
<trkpt lat="22.2546034" lon="114.2131713">
<ele>133.084</ele>
<time>2017-11-25T10:47:51.959Z</time>
</trkpt>
<trkpt lat="22.2546034" lon="114.2131713">
<ele>131.470</ele>
<time>2017-11-25T10:47:55.959Z</time>
</trkpt>
<trkpt lat="22.2546034" lon="114.2131713">
<ele>130.731</ele>
<time>2017-11-25T10:48:03.486Z</time>
</trkpt>
<trkpt lat="22.2545169" lon="114.2132405">
<ele>131.069</ele>
<time>2017-11-25T10:48:26.583Z</time>
</trkpt>
<trkpt lat="22.2544352" lon="114.2132908">
<ele>130.638</ele>
<time>2017-11-25T10:48:41.958Z</time>
</trkpt>
<trkpt lat="22.2544352" lon="114.2132908">
<ele>129.019</ele>
<time>2017-11-25T10:48:49.958Z</time>
</trkpt>
<trkpt lat="22.2544352" lon="114.2132908">
<ele>127.586</ele>
<time>2017-11-25T10:49:24.957Z</time>
</trkpt>
<trkpt lat="22.2544352" lon="114.2132908">
<ele>127.550</ele>
<time>2017-11-25T10:49:40.164Z</time>
</trkpt>
<trkpt lat="22.2544447" lon="114.2133877">
<ele>128.062</ele>
<time>2017-11-25T10:49:58.956Z</time>
</trkpt>
<trkpt lat="22.2544447" lon="114.2133877">
<ele>127.735</ele>
<time>2017-11-25T10:49:58.956Z</time>
</trkpt>
<trkpt lat="22.2544447" lon="114.2133877">
<ele>127.505</ele>
<time>2017-11-25T10:50:05.312Z</time>
</trkpt>
<trkpt lat="22.2544665" lon="114.2132848">
<ele>127.518</ele>
<time>2017-11-25T10:50:23.602Z</time>
</trkpt>
<trkpt lat="22.2543833" lon="114.2132387">
<ele>126.695</ele>
<time>2017-11-25T10:50:33.955Z</time>
</trkpt>
<trkpt lat="22.2543833" lon="114.2132387">
<ele>124.437</ele>
<time>2017-11-25T10:50:34.955Z</time>
</trkpt>
<trkpt lat="22.2543833" lon="114.2132387">
<ele>122.518</ele>
<time>2017-11-25T10:50:41.632Z</time>
</trkpt>
<trkpt lat="22.2543136" lon="114.2132999">
<ele>122.498</ele>
<time>2017-11-25T10:51:13.954Z</time>
</trkpt>
<trkpt lat="22.2543136" lon="114.2132999">
<ele>123.181</ele>
<time>2017-11-25T10:51:14.954Z</time>
</trkpt>
<trkpt lat="22.2543136" lon="114.2132999">
<ele>123.204</ele>
<time>2017-11-25T10:51:25.441Z</time>
</trkpt>
<trkpt lat="22.2544042" lon="114.2133121">
<ele>122.759</ele>
<time>2017-11-25T10:51:39.953Z</time>
</trkpt>
<trkpt lat="22.2544042" lon="114.2133121">
<ele>122.454</ele>
<time>2017-11-25T10:51:42.953Z</time>
</trkpt>
<trkpt lat="22.2544042" lon="114.2133121">
<ele>122.376</ele>
<time>2017-11-25T10:51:43.200Z</time>
</trkpt>
<trkpt lat="22.2543234" lon="114.2133553">
<ele>122.332</ele>
<time>2017-11-25T10:52:08.953Z</time>
</trkpt>
<trkpt lat="22.2543234" lon="114.2133553">
<ele>122.297</ele>
<time>2017-11-25T10:52:14.952Z</time>
</trkpt>
<trkpt lat="22.2543234" lon="114.2133553">
<ele>122.242</ele>
<time>2017-11-25T10:52:15.023Z</time>
</trkpt>
<trkpt lat="22.2542607" lon="114.2134258">
<ele>122.154</ele>
<time>2017-11-25T10:52:38.641Z</time>
</trkpt>
<trkpt lat="22.2541721" lon="114.2134601">
<ele>121.031</ele>
<time>2017-11-25T10:52:49.250Z</time>
</trkpt>
<trkpt lat="22.2541227" lon="114.2135437">
<ele>117.658</ele>
<time>2017-11-25T10:52:57.951Z</time>
</trkpt>
<trkpt lat="22.2541227" lon="114.2135437">
<ele>113.453</ele>
<time>2017-11-25T10:53:04.951Z</time>
</trkpt>
<trkpt lat="22.2541227" lon="114.2135437">
<ele>111.145</ele>
<time>2017-11-25T10:53:19.831Z</time>
</trkpt>
<trkpt lat="22.2540267" lon="114.2135985">
<ele>112.409</ele>
<time>2017-11-25T10:53:33.140Z</time>
</trkpt>
<trkpt lat="22.2539450" lon="114.2136554">
<ele>112.010</ele>
<time>2017-11-25T10:53:38.950Z</time>
</trkpt>
<trkpt lat="22.2539450" lon="114.2136554">
<ele>109.992</ele>
<time>2017-11-25T10:53:44.950Z</time>
</trkpt>
<trkpt lat="22.2539450" lon="114.2136554">
<ele>109.227</ele>
<time>2017-11-25T10:53:45.050Z</time>
</trkpt>
<trkpt lat="22.2538762" lon="114.2137205">
<ele>109.628</ele>
<time>2017-11-25T10:53:56.404Z</time>
</trkpt>
<trkpt lat="22.2538000" lon="114.2137745">
<ele>109.056</ele>
<time>2017-11-25T10:54:05.139Z</time>
</trkpt>
<trkpt lat="22.2537102" lon="114.2138266">
<ele>106.845</ele>
<time>2017-11-25T10:54:17.566Z</time>
</trkpt>
<trkpt lat="22.2536206" lon="114.2138746">
<ele>103.966</ele>
<time>2017-11-25T10:54:28.956Z</time>
</trkpt>
<trkpt lat="22.2536206" lon="114.2138746">
<ele>101.774</ele>
<time>2017-11-25T10:54:37.956Z</time>
</trkpt>
<trkpt lat="22.2536206" lon="114.2138746">
<ele>100.783</ele>
<time>2017-11-25T10:54:50.058Z</time>
</trkpt>
<trkpt lat="22.2535124" lon="114.2138669">
<ele>101.307</ele>
<time>2017-11-25T10:55:08.090Z</time>
</trkpt>
<trkpt lat="22.2534183" lon="114.2138505">
<ele>100.581</ele>
<time>2017-11-25T10:55:19.553Z</time>
</trkpt>
<trkpt lat="22.2533349" lon="114.2138026">
<ele>97.726</ele>
<time>2017-11-25T10:55:31.285Z</time>
</trkpt>
<trkpt lat="22.2532368" lon="114.2138249">
<ele>93.986</ele>
<time>2017-11-25T10:55:43.076Z</time>
</trkpt>
<trkpt lat="22.2531429" lon="114.2138145">
<ele>91.047</ele>
<time>2017-11-25T10:55:52.691Z</time>
</trkpt>
<trkpt lat="22.2530525" lon="114.2137902">
<ele>88.942</ele>
<time>2017-11-25T10:56:01.735Z</time>
</trkpt>
<trkpt lat="22.2529606" lon="114.2137508">
<ele>87.144</ele>
<time>2017-11-25T10:56:12.305Z</time>
</trkpt>
<trkpt lat="22.2528820" lon="114.2136976">
<ele>85.296</ele>
<time>2017-11-25T10:56:21.953Z</time>
</trkpt>
<trkpt lat="22.2528820" lon="114.2136976">
<ele>83.544</ele>
<time>2017-11-25T10:56:27.953Z</time>
</trkpt>
<trkpt lat="22.2528820" lon="114.2136976">
<ele>82.539</ele>
<time>2017-11-25T10:56:31.598Z</time>
</trkpt>
<trkpt lat="22.2528820" lon="114.2136976">
<ele>83.052</ele>
<time>2017-11-25T10:56:41.953Z</time>
</trkpt>
<trkpt lat="22.2528820" lon="114.2136976">
<ele>83.331</ele>
<time>2017-11-25T10:56:42.053Z</time>
</trkpt>
<trkpt lat="22.2528820" lon="114.2136976">
<ele>83.092</ele>
<time>2017-11-25T10:56:43.952Z</time>
</trkpt>
<trkpt lat="22.2528820" lon="114.2136976">
<ele>82.973</ele>
<time>2017-11-25T10:57:05.952Z</time>
</trkpt>
<trkpt lat="22.2528820" lon="114.2136976">
<ele>82.946</ele>
<time>2017-11-25T10:57:07.264Z</time>
</trkpt>
<trkpt lat="22.2527795" lon="114.2136826">
<ele>82.949</ele>
<time>2017-11-25T10:57:31.534Z</time>
</trkpt>
<trkpt lat="22.2526909" lon="114.2137270">
<ele>82.438</ele>
<time>2017-11-25T10:57:45.951Z</time>
</trkpt>
<trkpt lat="22.2526909" lon="114.2137270">
<ele>81.130</ele>
<time>2017-11-25T10:57:54.951Z</time>
</trkpt>
<trkpt lat="22.2526909" lon="114.2137270">
<ele>80.038</ele>
<time>2017-11-25T10:57:55.051Z</time>
</trkpt>
<trkpt lat="22.2526190" lon="114.2136223">
<ele>80.024</ele>
<time>2017-11-25T10:58:10.947Z</time>
</trkpt>
<trkpt lat="22.2525363" lon="114.2135795">
<ele>79.692</ele>
<time>2017-11-25T10:58:20.574Z</time>
</trkpt>
<trkpt lat="22.2524527" lon="114.2135404">
<ele>77.705</ele>
<time>2017-11-25T10:58:31.690Z</time>
</trkpt>
<trkpt lat="22.2524244" lon="114.2134415">
<ele>75.150</ele>
<time>2017-11-25T10:58:41.950Z</time>
</trkpt>
<trkpt lat="22.2524244" lon="114.2134415">
<ele>73.630</ele>
<time>2017-11-25T10:58:42.950Z</time>
</trkpt>
<trkpt lat="22.2524244" lon="114.2134415">
<ele>73.212</ele>
<time>2017-11-25T10:58:48.584Z</time>
</trkpt>
<trkpt lat="22.2523338" lon="114.2134335">
<ele>73.459</ele>
<time>2017-11-25T10:59:11.029Z</time>
</trkpt>
<trkpt lat="22.2522439" lon="114.2133933">
<ele>73.485</ele>
<time>2017-11-25T10:59:24.222Z</time>
</trkpt>
<trkpt lat="22.2521431" lon="114.2134050">
<ele>73.293</ele>
<time>2017-11-25T10:59:37.279Z</time>
</trkpt>
<trkpt lat="22.2520581" lon="114.2133684">
<ele>73.018</ele>
<time>2017-11-25T10:59:49.948Z</time>
</trkpt>
<trkpt lat="22.2520581" lon="114.2133684">
<ele>72.872</ele>
<time>2017-11-25T10:59:55.948Z</time>
</trkpt>
<trkpt lat="22.2520581" lon="114.2133684">
<ele>72.867</ele>
<time>2017-11-25T10:59:56.048Z</time>
</trkpt>
<trkpt lat="22.2519784" lon="114.2132333">
<ele>72.881</ele>
<time>2017-11-25T11:00:07.948Z</time>
</trkpt>
<trkpt lat="22.2519784" lon="114.2132333">
<ele>72.856</ele>
<time>2017-11-25T11:00:15.947Z</time>
</trkpt>
<trkpt lat="22.2519784" lon="114.2132333">
<ele>72.810</ele>
<time>2017-11-25T11:00:44.075Z</time>
</trkpt>
<trkpt lat="22.2518812" lon="114.2132098">
<ele>72.766</ele>
<time>2017-11-25T11:01:47.384Z</time>
</trkpt>
<trkpt lat="22.2518109" lon="114.2131323">
<ele>72.512</ele>
<time>2017-11-25T11:02:17.951Z</time>
</trkpt>
<trkpt lat="22.2518109" lon="114.2131323">
<ele>71.856</ele>
<time>2017-11-25T11:02:33.951Z</time>
</trkpt>
<trkpt lat="22.2518109" lon="114.2131323">
<ele>71.296</ele>
<time>2017-11-25T11:02:50.480Z</time>
</trkpt>
<trkpt lat="22.2516971" lon="114.2130488">
<ele>71.276</ele>
<time>2017-11-25T11:03:14.845Z</time>
</trkpt>
<trkpt lat="22.2516103" lon="114.2130952">
<ele>70.306</ele>
<time>2017-11-25T11:03:28.213Z</time>
</trkpt>
<trkpt lat="22.2515581" lon="114.2131753">
<ele>67.304</ele>
<time>2017-11-25T11:03:43.949Z</time>
</trkpt>
<trkpt lat="22.2515581" lon="114.2131753">
<ele>64.394</ele>
<time>2017-11-25T11:03:45.949Z</time>
</trkpt>
<trkpt lat="22.2515581" lon="114.2131753">
<ele>63.616</ele>
<time>2017-11-25T11:03:46.049Z</time>
</trkpt>
<trkpt lat="22.2514674" lon="114.2131738">
<ele>64.426</ele>
<time>2017-11-25T11:03:57.949Z</time>
</trkpt>
<trkpt lat="22.2514674" lon="114.2131738">
<ele>64.478</ele>
<time>2017-11-25T11:04:05.949Z</time>
</trkpt>
<trkpt lat="22.2514674" lon="114.2131738">
<ele>64.428</ele>
<time>2017-11-25T11:04:14.848Z</time>
</trkpt>
<trkpt lat="22.2513859" lon="114.2132256">
<ele>64.390</ele>
<time>2017-11-25T11:04:27.948Z</time>
</trkpt>
<trkpt lat="22.2513859" lon="114.2132256">
<ele>64.384</ele>
<time>2017-11-25T11:04:36.948Z</time>
</trkpt>
<trkpt lat="22.2513859" lon="114.2132256">
<ele>64.357</ele>
<time>2017-11-25T11:04:37.048Z</time>
</trkpt>
<trkpt lat="22.2512894" lon="114.2131490">
<ele>64.325</ele>
<time>2017-11-25T11:04:54.841Z</time>
</trkpt>
<trkpt lat="22.2512092" lon="114.2130990">
<ele>63.930</ele>
<time>2017-11-25T11:05:06.155Z</time>
</trkpt>
<trkpt lat="22.2511136" lon="114.2130798">
<ele>62.919</ele>
<time>2017-11-25T11:05:19.200Z</time>
</trkpt>
<trkpt lat="22.2510247" lon="114.2130562">
<ele>61.778</ele>
<time>2017-11-25T11:05:30.947Z</time>
</trkpt>
<trkpt lat="22.2510247" lon="114.2130562">
<ele>61.049</ele>
<time>2017-11-25T11:05:36.946Z</time>
</trkpt>
<trkpt lat="22.2510247" lon="114.2130562">
<ele>60.766</ele>
<time>2017-11-25T11:05:37.046Z</time>
</trkpt>
<trkpt lat="22.2510247" lon="114.2130562">
<ele>60.894</ele>
<time>2017-11-25T11:05:47.946Z</time>
</trkpt>
<trkpt lat="22.2510247" lon="114.2130562">
<ele>60.949</ele>
<time>2017-11-25T11:05:48.046Z</time>
</trkpt>
<trkpt lat="22.2510247" lon="114.2130562">
<ele>60.860</ele>
<time>2017-11-25T11:05:49.946Z</time>
</trkpt>
<trkpt lat="22.2510247" lon="114.2130562">
<ele>60.824</ele>
<time>2017-11-25T11:06:01.346Z</time>
</trkpt>
<trkpt lat="22.2508981" lon="114.2131002">
<ele>60.809</ele>
<time>2017-11-25T11:06:18.024Z</time>
</trkpt>
<trkpt lat="22.2508345" lon="114.2130289">
<ele>60.466</ele>
<time>2017-11-25T11:06:24.945Z</time>
</trkpt>
<trkpt lat="22.2508345" lon="114.2130289">
<ele>59.591</ele>
<time>2017-11-25T11:06:25.945Z</time>
</trkpt>
<trkpt lat="22.2508345" lon="114.2130289">
<ele>58.856</ele>
<time>2017-11-25T11:07:19.415Z</time>
</trkpt>
<trkpt lat="22.2507183" lon="114.2129083">
<ele>58.844</ele>
<time>2017-11-25T11:07:40.597Z</time>
</trkpt>
<trkpt lat="22.2506675" lon="114.2128263">
<ele>59.030</ele>
<time>2017-11-25T11:07:49.734Z</time>
</trkpt>
<trkpt lat="22.2506204" lon="114.2127371">
<ele>58.776</ele>
<time>2017-11-25T11:08:00.257Z</time>
</trkpt>
<trkpt lat="22.2505300" lon="114.2127074">
<ele>57.954</ele>
<time>2017-11-25T11:08:10.593Z</time>
</trkpt>
<trkpt lat="22.2504457" lon="114.2126569">
<ele>56.767</ele>
<time>2017-11-25T11:08:21.058Z</time>
</trkpt>
<trkpt lat="22.2503497" lon="114.2126517">
<ele>55.587</ele>
<time>2017-11-25T11:08:32.068Z</time>
</trkpt>
<trkpt lat="22.2502609" lon="114.2126707">
<ele>54.595</ele>
<time>2017-11-25T11:08:42.117Z</time>
</trkpt>
<trkpt lat="22.2501788" lon="114.2127126">
<ele>53.671</ele>
<time>2017-11-25T11:08:51.480Z</time>
</trkpt>
<trkpt lat="22.2501256" lon="114.2127970">
<ele>52.844</ele>
<time>2017-11-25T11:09:02.647Z</time>
</trkpt>
<trkpt lat="22.2500575" lon="114.2128668">
<ele>52.151</ele>
<time>2017-11-25T11:09:16.102Z</time>
</trkpt>
<trkpt lat="22.2499579" lon="114.2128612">
<ele>51.523</ele>
<time>2017-11-25T11:09:29.154Z</time>
</trkpt>
<trkpt lat="22.2498633" lon="114.2128910">
<ele>50.997</ele>
<time>2017-11-25T11:09:39.998Z</time>
</trkpt>
<trkpt lat="22.2498633" lon="114.2128910">
<ele>50.677</ele>
<time>2017-11-25T11:09:43.998Z</time>
</trkpt>
<trkpt lat="22.2498633" lon="114.2128910">
<ele>50.555</ele>
<time>2017-11-25T11:10:40.810Z</time>
</trkpt>
<trkpt lat="22.2497688" lon="114.2129740">
<ele>50.554</ele>
<time>2017-11-25T11:10:58.335Z</time>
</trkpt>
<trkpt lat="22.2496973" lon="114.2129124">
<ele>50.577</ele>
<time>2017-11-25T11:11:05.996Z</time>
</trkpt>
<trkpt lat="22.2496973" lon="114.2129124">
<ele>50.570</ele>
<time>2017-11-25T11:11:15.995Z</time>
</trkpt>
<trkpt lat="22.2496973" lon="114.2129124">
<ele>50.542</ele>
<time>2017-11-25T11:11:16.095Z</time>
</trkpt>
<trkpt lat="22.2495973" lon="114.2128510">
<ele>50.519</ele>
<time>2017-11-25T11:11:35.995Z</time>
</trkpt>
<trkpt lat="22.2495973" lon="114.2128510">
<ele>50.501</ele>
<time>2017-11-25T11:11:43.995Z</time>
</trkpt>
<trkpt lat="22.2495973" lon="114.2128510">
<ele>50.479</ele>
<time>2017-11-25T11:11:44.095Z</time>
</trkpt>
<trkpt lat="22.2494999" lon="114.2128582">
<ele>50.443</ele>
<time>2017-11-25T11:12:10.736Z</time>
</trkpt>
<trkpt lat="22.2494095" lon="114.2128681">
<ele>50.104</ele>
<time>2017-11-25T11:12:23.383Z</time>
</trkpt>
<trkpt lat="22.2493126" lon="114.2128609">
<ele>49.208</ele>
<time>2017-11-25T11:12:32.323Z</time>
</trkpt>
<trkpt lat="22.2492134" lon="114.2128877">
<ele>48.193</ele>
<time>2017-11-25T11:12:40.141Z</time>
</trkpt>
<trkpt lat="22.2491232" lon="114.2129152">
<ele>47.421</ele>
<time>2017-11-25T11:12:48.362Z</time>
</trkpt>
<trkpt lat="22.2490330" lon="114.2129595">
<ele>46.821</ele>
<time>2017-11-25T11:12:57.993Z</time>
</trkpt>
<trkpt lat="22.2490330" lon="114.2129595">
<ele>46.453</ele>
<time>2017-11-25T11:13:01.993Z</time>
</trkpt>
<trkpt lat="22.2490330" lon="114.2129595">
<ele>46.343</ele>
<time>2017-11-25T11:13:15.246Z</time>
</trkpt>
<trkpt lat="22.2490330" lon="114.2129595">
<ele>46.380</ele>
<time>2017-11-25T11:13:28.992Z</time>
</trkpt>
<trkpt lat="22.2490330" lon="114.2129595">
<ele>46.388</ele>
<time>2017-11-25T11:13:37.855Z</time>
</trkpt>
<trkpt lat="22.2490330" lon="114.2129595">
<ele>46.340</ele>
<time>2017-11-25T11:13:49.991Z</time>
</trkpt>
<trkpt lat="22.2490330" lon="114.2129595">
<ele>46.324</ele>
<time>2017-11-25T11:14:29.990Z</time>
</trkpt>
<trkpt lat="22.2490330" lon="114.2129595">
<ele>46.312</ele>
<time>2017-11-25T11:14:30.090Z</time>
</trkpt>
<trkpt lat="22.2491488" lon="114.2129650">
<ele>46.297</ele>
<time>2017-11-25T11:14:39.990Z</time>
</trkpt>
<trkpt lat="22.2491488" lon="114.2129650">
<ele>46.277</ele>
<time>2017-11-25T11:14:48.990Z</time>
</trkpt>
<trkpt lat="22.2491488" lon="114.2129650">
<ele>46.254</ele>
<time>2017-11-25T11:14:49.090Z</time>
</trkpt>
<trkpt lat="22.2492409" lon="114.2129877">
<ele>46.234</ele>
<time>2017-11-25T11:14:56.990Z</time>
</trkpt>
<trkpt lat="22.2492409" lon="114.2129877">
<ele>46.217</ele>
<time>2017-11-25T11:15:07.989Z</time>
</trkpt>
<trkpt lat="22.2492409" lon="114.2129877">
<ele>46.197</ele>
<time>2017-11-25T11:15:18.112Z</time>
</trkpt>
<trkpt lat="22.2491916" lon="114.2129008">
<ele>46.164</ele>
<time>2017-11-25T11:15:30.982Z</time>
</trkpt>
<trkpt lat="22.2490948" lon="114.2129255">
<ele>46.039</ele>
<time>2017-11-25T11:15:38.989Z</time>
</trkpt>
<trkpt lat="22.2490948" lon="114.2129255">
<ele>45.726</ele>
<time>2017-11-25T11:15:42.988Z</time>
</trkpt>
<trkpt lat="22.2490948" lon="114.2129255">
<ele>45.457</ele>
<time>2017-11-25T11:15:43.088Z</time>
</trkpt>
<trkpt lat="22.2490094" lon="114.2129576">
<ele>45.561</ele>
<time>2017-11-25T11:16:04.995Z</time>
</trkpt>
<trkpt lat="22.2490094" lon="114.2129576">
<ele>45.632</ele>
<time>2017-11-25T11:16:10.995Z</time>
</trkpt>
<trkpt lat="22.2490094" lon="114.2129576">
<ele>45.609</ele>
<time>2017-11-25T11:16:11.095Z</time>
</trkpt>
<trkpt lat="22.2489768" lon="114.2128645">
<ele>45.546</ele>
<time>2017-11-25T11:16:39.994Z</time>
</trkpt>
<trkpt lat="22.2489768" lon="114.2128645">
<ele>45.548</ele>
<time>2017-11-25T11:16:45.994Z</time>
</trkpt>
<trkpt lat="22.2489768" lon="114.2128645">
<ele>45.532</ele>
<time>2017-11-25T11:16:48.578Z</time>
</trkpt>
<trkpt lat="22.2489007" lon="114.2128124">
<ele>45.507</ele>
<time>2017-11-25T11:17:02.014Z</time>
</trkpt>
<trkpt lat="22.2488514" lon="114.2127242">
<ele>45.493</ele>
<time>2017-11-25T11:17:10.217Z</time>
</trkpt>
<trkpt lat="22.2487927" lon="114.2126490">
<ele>45.649</ele>
<time>2017-11-25T11:17:17.609Z</time>
</trkpt>
<trkpt lat="22.2487031" lon="114.2126918">
<ele>46.187</ele>
<time>2017-11-25T11:17:25.574Z</time>
</trkpt>
<trkpt lat="22.2486432" lon="114.2127719">
<ele>46.930</ele>
<time>2017-11-25T11:17:32.570Z</time>
</trkpt>
<trkpt lat="22.2486382" lon="114.2128723">
<ele>47.213</ele>
<time>2017-11-25T11:17:37.992Z</time>
</trkpt>
<trkpt lat="22.2486382" lon="114.2128723">
<ele>46.767</ele>
<time>2017-11-25T11:17:42.992Z</time>
</trkpt>
<trkpt lat="22.2486382" lon="114.2128723">
<ele>46.239</ele>
<time>2017-11-25T11:19:08.990Z</time>
</trkpt>
<trkpt lat="22.2486382" lon="114.2128723">
<ele>46.211</ele>
<time>2017-11-25T11:20:31.319Z</time>
</trkpt>
<trkpt lat="22.2485452" lon="114.2128808">
<ele>46.411</ele>
<time>2017-11-25T11:20:49.051Z</time>
</trkpt>
<trkpt lat="22.2484764" lon="114.2129520">
<ele>46.320</ele>
<time>2017-11-25T11:20:56.887Z</time>
</trkpt>
<trkpt lat="22.2484635" lon="114.2130578">
<ele>46.294</ele>
<time>2017-11-25T11:21:02.987Z</time>
</trkpt>
<trkpt lat="22.2484635" lon="114.2130578">
<ele>46.308</ele>
<time>2017-11-25T11:21:03.987Z</time>
</trkpt>
<trkpt lat="22.2484635" lon="114.2130578">
<ele>46.293</ele>
<time>2017-11-25T11:21:06.626Z</time>
</trkpt>
<trkpt lat="22.2483960" lon="114.2131382">
<ele>46.248</ele>
<time>2017-11-25T11:21:23.467Z</time>
</trkpt>
<trkpt lat="22.2483267" lon="114.2132047">
<ele>46.290</ele>
<time>2017-11-25T11:21:32.986Z</time>
</trkpt>
<trkpt lat="22.2483267" lon="114.2132047">
<ele>46.406</ele>
<time>2017-11-25T11:21:41.986Z</time>
</trkpt>
<trkpt lat="22.2483267" lon="114.2132047">
<ele>46.495</ele>
<time>2017-11-25T11:21:51.248Z</time>
</trkpt>
<trkpt lat="22.2482638" lon="114.2133347">
<ele>46.458</ele>
<time>2017-11-25T11:22:12.591Z</time>
</trkpt>
<trkpt lat="22.2481979" lon="114.2134040">
<ele>46.218</ele>
<time>2017-11-25T11:22:19.511Z</time>
</trkpt>
<trkpt lat="22.2481762" lon="114.2135070">
<ele>45.741</ele>
<time>2017-11-25T11:22:25.435Z</time>
</trkpt>
<trkpt lat="22.2481207" lon="114.2135834">
<ele>45.222</ele>
<time>2017-11-25T11:22:31.009Z</time>
</trkpt>
<trkpt lat="22.2481809" lon="114.2136698">
<ele>44.843</ele>
<time>2017-11-25T11:22:38.086Z</time>
</trkpt>
<trkpt lat="22.2481718" lon="114.2137679">
<ele>44.503</ele>
<time>2017-11-25T11:22:44.985Z</time>
</trkpt>
<trkpt lat="22.2481718" lon="114.2137679">
<ele>44.149</ele>
<time>2017-11-25T11:22:54.984Z</time>
</trkpt>
<trkpt lat="22.2481718" lon="114.2137679">
<ele>43.936</ele>
<time>2017-11-25T11:22:57.228Z</time>
</trkpt>
<trkpt lat="22.2481493" lon="114.2138624">
<ele>43.953</ele>
<time>2017-11-25T11:23:07.551Z</time>
</trkpt>
<trkpt lat="22.2482017" lon="114.2139640">
<ele>44.095</ele>
<time>2017-11-25T11:23:16.058Z</time>
</trkpt>
<trkpt lat="22.2482613" lon="114.2140430">
<ele>44.227</ele>
<time>2017-11-25T11:23:23.990Z</time>
</trkpt>
<trkpt lat="22.2482613" lon="114.2140430">
<ele>44.303</ele>
<time>2017-11-25T11:23:32.990Z</time>
</trkpt>
<trkpt lat="22.2482613" lon="114.2140430">
<ele>44.323</ele>
<time>2017-11-25T11:23:42.146Z</time>
</trkpt>
<trkpt lat="22.2482613" lon="114.2140430">
<ele>44.268</ele>
<time>2017-11-25T11:25:08.988Z</time>
</trkpt>
<trkpt lat="22.2482613" lon="114.2140430">
<ele>44.250</ele>
<time>2017-11-25T11:26:43.839Z</time>
</trkpt>
<trkpt lat="22.2482065" lon="114.2141239">
<ele>44.229</ele>
<time>2017-11-25T11:27:10.116Z</time>
</trkpt>
<trkpt lat="22.2481391" lon="114.2141917">
<ele>45.109</ele>
<time>2017-11-25T11:27:16.161Z</time>
</trkpt>
<trkpt lat="22.2480501" lon="114.2141556">
<ele>47.465</ele>
<time>2017-11-25T11:27:20.475Z</time>
</trkpt>
<trkpt lat="22.2479593" lon="114.2141301">
<ele>49.988</ele>
<time>2017-11-25T11:27:24.698Z</time>
</trkpt>
<trkpt lat="22.2478708" lon="114.2141694">
<ele>51.326</ele>
<time>2017-11-25T11:27:28.984Z</time>
</trkpt>
<trkpt lat="22.2478708" lon="114.2141694">
<ele>51.659</ele>
<time>2017-11-25T11:27:35.984Z</time>
</trkpt>
<trkpt lat="22.2478708" lon="114.2141694">
<ele>51.538</ele>
<time>2017-11-25T11:27:42.984Z</time>
</trkpt>
<trkpt lat="22.2478708" lon="114.2141694">
<ele>51.386</ele>
<time>2017-11-25T11:27:48.073Z</time>
</trkpt>
<trkpt lat="22.2477690" lon="114.2141243">
<ele>51.418</ele>
<time>2017-11-25T11:28:07.728Z</time>
</trkpt>
<trkpt lat="22.2477005" lon="114.2141879">
<ele>51.466</ele>
<time>2017-11-25T11:28:13.845Z</time>
</trkpt>
<trkpt lat="22.2476554" lon="114.2142832">
<ele>51.455</ele>
<time>2017-11-25T11:28:19.494Z</time>
</trkpt>
<trkpt lat="22.2475552" lon="114.2143124">
<ele>51.051</ele>
<time>2017-11-25T11:28:25.524Z</time>
</trkpt>
<trkpt lat="22.2474643" lon="114.2143406">
<ele>50.009</ele>
<time>2017-11-25T11:28:31.284Z</time>
</trkpt>
<trkpt lat="22.2473770" lon="114.2143703">
<ele>48.624</ele>
<time>2017-11-25T11:28:37.542Z</time>
</trkpt>
<trkpt lat="22.2472878" lon="114.2144109">
<ele>47.284</ele>
<time>2017-11-25T11:28:44.784Z</time>
</trkpt>
<trkpt lat="22.2472082" lon="114.2144615">
<ele>46.186</ele>
<time>2017-11-25T11:28:52.237Z</time>
</trkpt>
<trkpt lat="22.2471148" lon="114.2144961">
<ele>45.551</ele>
<time>2017-11-25T11:29:00.080Z</time>
</trkpt>
<trkpt lat="22.2470255" lon="114.2145320">
<ele>45.395</ele>
<time>2017-11-25T11:29:07.262Z</time>
</trkpt>
<trkpt lat="22.2469552" lon="114.2145977">
<ele>45.491</ele>
<time>2017-11-25T11:29:13.702Z</time>
</trkpt>
<trkpt lat="22.2468779" lon="114.2146603">
<ele>45.578</ele>
<time>2017-11-25T11:29:20.209Z</time>
</trkpt>
<trkpt lat="22.2468051" lon="114.2147210">
<ele>45.532</ele>
<time>2017-11-25T11:29:26.954Z</time>
</trkpt>
<trkpt lat="22.2467133" lon="114.2147562">
<ele>45.388</ele>
<time>2017-11-25T11:29:34.022Z</time>
</trkpt>
<trkpt lat="22.2466293" lon="114.2148076">
<ele>45.425</ele>
<time>2017-11-25T11:29:39.634Z</time>
</trkpt>
<trkpt lat="22.2465501" lon="114.2148710">
<ele>45.873</ele>
<time>2017-11-25T11:29:44.980Z</time>
</trkpt>
<trkpt lat="22.2465501" lon="114.2148710">
<ele>46.503</ele>
<time>2017-11-25T11:29:52.980Z</time>
</trkpt>
<trkpt lat="22.2465501" lon="114.2148710">
<ele>46.853</ele>
<time>2017-11-25T11:29:53.080Z</time>
</trkpt>
<trkpt lat="22.2463893" lon="114.2150583">
<ele>46.808</ele>
<time>2017-11-25T11:30:21.685Z</time>
</trkpt>
<trkpt lat="22.2463011" lon="114.2150904">
<ele>46.613</ele>
<time>2017-11-25T11:30:28.945Z</time>
</trkpt>
<trkpt lat="22.2462013" lon="114.2151319">
<ele>46.574</ele>
<time>2017-11-25T11:30:36.438Z</time>
</trkpt>
<trkpt lat="22.2461132" lon="114.2151662">
<ele>46.675</ele>
<time>2017-11-25T11:30:42.766Z</time>
</trkpt>
<trkpt lat="22.2460136" lon="114.2151848">
<ele>46.601</ele>
<time>2017-11-25T11:30:49.488Z</time>
</trkpt>
<trkpt lat="22.2459329" lon="114.2152283">
<ele>46.241</ele>
<time>2017-11-25T11:30:55.628Z</time>
</trkpt>
<trkpt lat="22.2458344" lon="114.2152588">
<ele>45.876</ele>
<time>2017-11-25T11:31:01.696Z</time>
</trkpt>
<trkpt lat="22.2457296" lon="114.2153069">
<ele>45.758</ele>
<time>2017-11-25T11:31:07.709Z</time>
</trkpt>
<trkpt lat="22.2456535" lon="114.2153857">
<ele>45.884</ele>
<time>2017-11-25T11:31:13.582Z</time>
</trkpt>
<trkpt lat="22.2455941" lon="114.2154765">
<ele>46.090</ele>
<time>2017-11-25T11:31:21.193Z</time>
</trkpt>
<trkpt lat="22.2455367" lon="114.2155616">
<ele>46.227</ele>
<time>2017-11-25T11:31:29.022Z</time>
</trkpt>
<trkpt lat="22.2454839" lon="114.2156525">
<ele>46.179</ele>
<time>2017-11-25T11:31:36.496Z</time>
</trkpt>
<trkpt lat="22.2454165" lon="114.2157270">
<ele>45.887</ele>
<time>2017-11-25T11:31:43.159Z</time>
</trkpt>
<trkpt lat="22.2453414" lon="114.2157946">
<ele>45.432</ele>
<time>2017-11-25T11:31:49.747Z</time>
</trkpt>
<trkpt lat="22.2452867" lon="114.2158949">
<ele>44.990</ele>
<time>2017-11-25T11:31:57.321Z</time>
</trkpt>
<trkpt lat="22.2452274" lon="114.2159697">
<ele>44.713</ele>
<time>2017-11-25T11:32:04.009Z</time>
</trkpt>
<trkpt lat="22.2451451" lon="114.2160285">
<ele>44.564</ele>
<time>2017-11-25T11:32:11.454Z</time>
</trkpt>
<trkpt lat="22.2450682" lon="114.2160852">
<ele>44.339</ele>
<time>2017-11-25T11:32:18.225Z</time>
</trkpt>
<trkpt lat="22.2449903" lon="114.2161408">
<ele>43.867</ele>
<time>2017-11-25T11:32:24.039Z</time>
</trkpt>
<trkpt lat="22.2449100" lon="114.2161960">
<ele>43.139</ele>
<time>2017-11-25T11:32:29.637Z</time>
</trkpt>
<trkpt lat="22.2448265" lon="114.2162494">
<ele>42.388</ele>
<time>2017-11-25T11:32:35.955Z</time>
</trkpt>
<trkpt lat="22.2447372" lon="114.2162896">
<ele>41.916</ele>
<time>2017-11-25T11:32:43.114Z</time>
</trkpt>
<trkpt lat="22.2446604" lon="114.2163424">
<ele>41.699</ele>
<time>2017-11-25T11:32:50.657Z</time>
</trkpt>
<trkpt lat="22.2446027" lon="114.2164174">
<ele>41.481</ele>
<time>2017-11-25T11:32:56.868Z</time>
</trkpt>
<trkpt lat="22.2445561" lon="114.2165035">
<ele>40.985</ele>
<time>2017-11-25T11:33:02.464Z</time>
</trkpt>
<trkpt lat="22.2445108" lon="114.2165986">
<ele>40.172</ele>
<time>2017-11-25T11:33:08.392Z</time>
</trkpt>
<trkpt lat="22.2444294" lon="114.2166614">
<ele>39.421</ele>
<time>2017-11-25T11:33:14.639Z</time>
</trkpt>
<trkpt lat="22.2443407" lon="114.2166886">
<ele>39.089</ele>
<time>2017-11-25T11:33:20.649Z</time>
</trkpt>
<trkpt lat="22.2442500" lon="114.2167266">
<ele>39.164</ele>
<time>2017-11-25T11:33:27.022Z</time>
</trkpt>
<trkpt lat="22.2441539" lon="114.2167294">
<ele>39.457</ele>
<time>2017-11-25T11:33:33.117Z</time>
</trkpt>
<trkpt lat="22.2440726" lon="114.2167735">
<ele>39.733</ele>
<time>2017-11-25T11:33:38.457Z</time>
</trkpt>
<trkpt lat="22.2439712" lon="114.2167870">
<ele>39.868</ele>
<time>2017-11-25T11:33:44.217Z</time>
</trkpt>
<trkpt lat="22.2438716" lon="114.2167907">
<ele>39.911</ele>
<time>2017-11-25T11:33:50.221Z</time>
</trkpt>
<trkpt lat="22.2437739" lon="114.2167860">
<ele>39.866</ele>
<time>2017-11-25T11:33:56.945Z</time>
</trkpt>
<trkpt lat="22.2436858" lon="114.2168240">
<ele>39.725</ele>
<time>2017-11-25T11:34:06.138Z</time>
</trkpt>
<trkpt lat="22.2436623" lon="114.2169305">
<ele>39.856</ele>
<time>2017-11-25T11:34:15.980Z</time>
</trkpt>
<trkpt lat="22.2436623" lon="114.2169305">
<ele>40.501</ele>
<time>2017-11-25T11:34:17.980Z</time>
</trkpt>
<trkpt lat="22.2436623" lon="114.2169305">
<ele>41.076</ele>
<time>2017-11-25T11:34:18.080Z</time>
</trkpt>
<trkpt lat="22.2436348" lon="114.2170456">
<ele>41.055</ele>
<time>2017-11-25T11:34:29.220Z</time>
</trkpt>
<trkpt lat="22.2436181" lon="114.2171542">
<ele>40.970</ele>
<time>2017-11-25T11:34:35.983Z</time>
</trkpt>
<trkpt lat="22.2435885" lon="114.2172605">
<ele>41.361</ele>
<time>2017-11-25T11:34:42.570Z</time>
</trkpt>
<trkpt lat="22.2435750" lon="114.2173700">
<ele>41.907</ele>
<time>2017-11-25T11:34:49.300Z</time>
</trkpt>
<trkpt lat="22.2435594" lon="114.2174772">
<ele>42.183</ele>
<time>2017-11-25T11:34:56.188Z</time>
</trkpt>
<trkpt lat="22.2435832" lon="114.2175826">
<ele>42.229</ele>
<time>2017-11-25T11:35:02.950Z</time>
</trkpt>
<trkpt lat="22.2435416" lon="114.2176830">
<ele>42.230</ele>
<time>2017-11-25T11:35:09.597Z</time>
</trkpt>
<trkpt lat="22.2434466" lon="114.2177015">
<ele>42.508</ele>
<time>2017-11-25T11:35:15.540Z</time>
</trkpt>
<trkpt lat="22.2433577" lon="114.2177519">
<ele>43.469</ele>
<time>2017-11-25T11:35:21.443Z</time>
</trkpt>
<trkpt lat="22.2432869" lon="114.2178167">
<ele>44.928</ele>
<time>2017-11-25T11:35:27.073Z</time>
</trkpt>
<trkpt lat="22.2432049" lon="114.2178777">
<ele>46.131</ele>
<time>2017-11-25T11:35:33.634Z</time>
</trkpt>
<trkpt lat="22.2431390" lon="114.2179596">
<ele>46.704</ele>
<time>2017-11-25T11:35:40.528Z</time>
</trkpt>
<trkpt lat="22.2430415" lon="114.2179978">
<ele>46.573</ele>
<time>2017-11-25T11:35:47.880Z</time>
</trkpt>
<trkpt lat="22.2429487" lon="114.2180367">
<ele>45.586</ele>
<time>2017-11-25T11:35:55.011Z</time>
</trkpt>
<trkpt lat="22.2428521" lon="114.2180757">
<ele>43.979</ele>
<time>2017-11-25T11:36:01.972Z</time>
</trkpt>
<trkpt lat="22.2427803" lon="114.2181356">
<ele>42.335</ele>
<time>2017-11-25T11:36:07.782Z</time>
</trkpt>
<trkpt lat="22.2426879" lon="114.2181477">
<ele>40.995</ele>
<time>2017-11-25T11:36:13.702Z</time>
</trkpt>
<trkpt lat="22.2425941" lon="114.2181736">
<ele>40.018</ele>
<time>2017-11-25T11:36:19.977Z</time>
</trkpt>
<trkpt lat="22.2425941" lon="114.2181736">
<ele>39.435</ele>
<time>2017-11-25T11:36:20.977Z</time>
</trkpt>
<trkpt lat="22.2425941" lon="114.2181736">
<ele>39.232</ele>
<time>2017-11-25T11:36:25.701Z</time>
</trkpt>
<trkpt lat="22.2425114" lon="114.2181190">
<ele>39.332</ele>
<time>2017-11-25T11:36:40.211Z</time>
</trkpt>
<trkpt lat="22.2424260" lon="114.2181524">
<ele>39.560</ele>
<time>2017-11-25T11:36:46.624Z</time>
</trkpt>
<trkpt lat="22.2423275" lon="114.2181194">
<ele>40.030</ele>
<time>2017-11-25T11:36:53.057Z</time>
</trkpt>
<trkpt lat="22.2422322" lon="114.2180906">
<ele>40.456</ele>
<time>2017-11-25T11:36:59.650Z</time>
</trkpt>
<trkpt lat="22.2421584" lon="114.2180241">
<ele>40.573</ele>
<time>2017-11-25T11:37:06.825Z</time>
</trkpt>
<trkpt lat="22.2420594" lon="114.2180338">
<ele>40.582</ele>
<time>2017-11-25T11:37:13.943Z</time>
</trkpt>
<trkpt lat="22.2419842" lon="114.2179784">
<ele>40.704</ele>
<time>2017-11-25T11:37:19.736Z</time>
</trkpt>
<trkpt lat="22.2419016" lon="114.2179162">
<ele>40.750</ele>
<time>2017-11-25T11:37:25.678Z</time>
</trkpt>
<trkpt lat="22.2418265" lon="114.2178424">
<ele>40.521</ele>
<time>2017-11-25T11:37:32.300Z</time>
</trkpt>
<trkpt lat="22.2417464" lon="114.2177789">
<ele>40.291</ele>
<time>2017-11-25T11:37:39.523Z</time>
</trkpt>
<trkpt lat="22.2416661" lon="114.2177180">
<ele>40.406</ele>
<time>2017-11-25T11:37:46.272Z</time>
</trkpt>
<trkpt lat="22.2415742" lon="114.2177071">
<ele>40.780</ele>
<time>2017-11-25T11:37:52.690Z</time>
</trkpt>
<trkpt lat="22.2414954" lon="114.2177644">
<ele>41.105</ele>
<time>2017-11-25T11:37:59.556Z</time>
</trkpt>
<trkpt lat="22.2414263" lon="114.2178440">
<ele>41.014</ele>
<time>2017-11-25T11:38:06.499Z</time>
</trkpt>
<trkpt lat="22.2413554" lon="114.2179190">
<ele>40.229</ele>
<time>2017-11-25T11:38:12.983Z</time>
</trkpt>
<trkpt lat="22.2412886" lon="114.2179866">
<ele>38.964</ele>
<time>2017-11-25T11:38:18.900Z</time>
</trkpt>
<trkpt lat="22.2412208" lon="114.2180676">
<ele>37.850</ele>
<time>2017-11-25T11:38:25.624Z</time>
</trkpt>
<trkpt lat="22.2411708" lon="114.2181498">
<ele>37.420</ele>
<time>2017-11-25T11:38:32.272Z</time>
</trkpt>
<trkpt lat="22.2411885" lon="114.2182496">
<ele>37.814</ele>
<time>2017-11-25T11:38:39.617Z</time>
</trkpt>
<trkpt lat="22.2412199" lon="114.2183552">
<ele>38.622</ele>
<time>2017-11-25T11:38:47.833Z</time>
</trkpt>
<trkpt lat="22.2412609" lon="114.2184500">
<ele>39.261</ele>
<time>2017-11-25T11:38:55.556Z</time>
</trkpt>
<trkpt lat="22.2413044" lon="114.2185514">
<ele>39.521</ele>
<time>2017-11-25T11:39:03.189Z</time>
</trkpt>
<trkpt lat="22.2413203" lon="114.2186525">
<ele>39.536</ele>
<time>2017-11-25T11:39:09.334Z</time>
</trkpt>
<trkpt lat="22.2413374" lon="114.2187481">
<ele>39.430</ele>
<time>2017-11-25T11:39:15.365Z</time>
</trkpt>
<trkpt lat="22.2413211" lon="114.2188473">
<ele>39.268</ele>
<time>2017-11-25T11:39:22.136Z</time>
</trkpt>
<trkpt lat="22.2413185" lon="114.2189491">
<ele>39.395</ele>
<time>2017-11-25T11:39:29.653Z</time>
</trkpt>
<trkpt lat="22.2412574" lon="114.2190301">
<ele>40.110</ele>
<time>2017-11-25T11:39:36.989Z</time>
</trkpt>
<trkpt lat="22.2411856" lon="114.2190903">
<ele>41.133</ele>
<time>2017-11-25T11:39:43.617Z</time>
</trkpt>
<trkpt lat="22.2411350" lon="114.2191810">
<ele>42.142</ele>
<time>2017-11-25T11:39:50.151Z</time>
</trkpt>
<trkpt lat="22.2410716" lon="114.2192658">
<ele>43.043</ele>
<time>2017-11-25T11:39:56.262Z</time>
</trkpt>
<trkpt lat="22.2409934" lon="114.2193252">
<ele>43.537</ele>
<time>2017-11-25T11:40:02.089Z</time>
</trkpt>
<trkpt lat="22.2409092" lon="114.2193878">
<ele>43.313</ele>
<time>2017-11-25T11:40:08.985Z</time>
</trkpt>
<trkpt lat="22.2408192" lon="114.2194231">
<ele>42.497</ele>
<time>2017-11-25T11:40:16.106Z</time>
</trkpt>
<trkpt lat="22.2407459" lon="114.2194798">
<ele>41.468</ele>
<time>2017-11-25T11:40:21.978Z</time>
</trkpt>
<trkpt lat="22.2407459" lon="114.2194798">
<ele>40.570</ele>
<time>2017-11-25T11:40:34.977Z</time>
</trkpt>
<trkpt lat="22.2407459" lon="114.2194798">
<ele>40.102</ele>
<time>2017-11-25T11:40:38.736Z</time>
</trkpt>
<trkpt lat="22.2407026" lon="114.2195972">
<ele>40.251</ele>
<time>2017-11-25T11:40:56.223Z</time>
</trkpt>
<trkpt lat="22.2406406" lon="114.2196714">
<ele>40.961</ele>
<time>2017-11-25T11:41:02.937Z</time>
</trkpt>
<trkpt lat="22.2405513" lon="114.2196918">
<ele>41.975</ele>
<time>2017-11-25T11:41:08.905Z</time>
</trkpt>
<trkpt lat="22.2404863" lon="114.2197644">
<ele>42.898</ele>
<time>2017-11-25T11:41:16.072Z</time>
</trkpt>
<trkpt lat="22.2404501" lon="114.2198583">
<ele>43.736</ele>
<time>2017-11-25T11:41:23.780Z</time>
</trkpt>
<trkpt lat="22.2403721" lon="114.2199297">
<ele>44.672</ele>
<time>2017-11-25T11:41:31.030Z</time>
</trkpt>
<trkpt lat="22.2403357" lon="114.2200294">
<ele>45.380</ele>
<time>2017-11-25T11:41:36.353Z</time>
</trkpt>
<trkpt lat="22.2403405" lon="114.2201329">
<ele>45.432</ele>
<time>2017-11-25T11:41:41.156Z</time>
</trkpt>
<trkpt lat="22.2403183" lon="114.2202325">
<ele>44.844</ele>
<time>2017-11-25T11:41:46.219Z</time>
</trkpt>
<trkpt lat="22.2403114" lon="114.2203378">
<ele>43.985</ele>
<time>2017-11-25T11:41:52.092Z</time>
</trkpt>
<trkpt lat="22.2402799" lon="114.2204333">
<ele>43.192</ele>
<time>2017-11-25T11:41:58.273Z</time>
</trkpt>
<trkpt lat="22.2403057" lon="114.2205268">
<ele>42.508</ele>
<time>2017-11-25T11:42:04.272Z</time>
</trkpt>
<trkpt lat="22.2403272" lon="114.2206326">
<ele>41.839</ele>
<time>2017-11-25T11:42:11.233Z</time>
</trkpt>
<trkpt lat="22.2402998" lon="114.2207326">
<ele>41.202</ele>
<time>2017-11-25T11:42:18.309Z</time>
</trkpt>
<trkpt lat="22.2402418" lon="114.2208165">
<ele>40.706</ele>
<time>2017-11-25T11:42:24.300Z</time>
</trkpt>
<trkpt lat="22.2401648" lon="114.2208995">
<ele>40.335</ele>
<time>2017-11-25T11:42:29.692Z</time>
</trkpt>
<trkpt lat="22.2401292" lon="114.2209988">
<ele>39.974</ele>
<time>2017-11-25T11:42:34.339Z</time>
</trkpt>
<trkpt lat="22.2400698" lon="114.2210728">
<ele>39.738</ele>
<time>2017-11-25T11:42:39.116Z</time>
</trkpt>
<trkpt lat="22.2400539" lon="114.2211775">
<ele>39.715</ele>
<time>2017-11-25T11:42:44.854Z</time>
</trkpt>
<trkpt lat="22.2400377" lon="114.2212801">
<ele>39.717</ele>
<time>2017-11-25T11:42:51.974Z</time>
</trkpt>
<trkpt lat="22.2400758" lon="114.2213717">
<ele>39.539</ele>
<time>2017-11-25T11:42:58.974Z</time>
</trkpt>
</trkseg>
</trk>
<extensions>
<fpdata xmlns="http://www.motionx.com/GPX-Extensions/1/1" sfv="10" origin="MotionXGPSFull 24.4 Build 5112 R64">
<bin enc="base64">
RgIAAAACAAAACFe+gDaG1kEBAAAASE2R0lWG1kHAyg5ib9jVQAgHAAACshQABw92nwL4
X0CCvRCa8MRDQAAAAAANAAAAVlJTIFNldCBUYXBlABYAAABOb3YgMjUsIDIwMTcgMTA6
NDggYW0AAAAAAIxNkdJVhtZBGtvt1VWG1kHNsoEBY1/BW7ZQTkAsAAAAAgAAAD4dXrvg
jlxAyhbo5thBNkAHD3afAvhfQAAAAAAAACRAAAAAAAAAEEAAAAAAACB3QAAAAAAAAAAA
AAAAAKRwPQrXg0pApIMqOtoqREABAAAAofdwnyHOUb8BAAAAAQAAAIUbhNnXd80/j/Rz
D6bnw78BAAAAAQAAAAcAAAB2XeVK4u2LQAAAAAAAAAAAAAAAAAAAAAAAAAAAAAAAAAAA
AAAAAAAAAAAAAAAAAABVWwAAx1m+0FWG1kEAAAAAAAAAAAAAAAAAAAAA/yVEvAIAAAAA
AAAAAAAAAAEAAAAnAAAAMjQuMiBCdWlsZCA1MDYzUjY0LCBNWEFFIDguMSBiLiA2MjZS
NjQAAAAAALJgAAABAAAAAQABAAAC2hhaSVcZWgQuWL6ANobWQS5YvoA2htZBAAAAAAAY
Ej8AAAAAAhVXvoA2htZBqg3ElzaG1kEAAACVtgVXQAAAAAAC7uhksTaG1kFBu8ezNobW
QQAAAOiIaFlAAAAAAALgD0/4NobWQWu6Bfo2htZBAAAAczMfW0AAAAAAAiYAiQQ3htZB
HAhnBTeG1kEAAABpO/1bQAAAAAACfC3KCDeG1kHqe4YZN4bWQQAAgOvEXGZAAAAAAAJ0
Y8gbN4bWQVxypRw3htZBAACAX0zLZkAAAAAAApImhx43htZBsYqmLzeG1kEAAABv/lpv
QAAAAAAC2pELNzeG1kGQL0g4N4bWQQAAAEpN+W9AAAAAAAKlL4g6N4bWQdws6T03htZB
AADA8uXUcEAAAAAAApRRRkE3htZBcsDFQTeG1kEAAECqwfRwQAAAAAACieuHRTeG1kEw
08dJN4bWQQAAAJS7BHJAAAAAAAJUWMZNN4bWQRr551A3htZBAACAxSPNckAAAAAAAgJm
SlU3htZB5l3oVTeG1kEAAIC+ofRyQAAAAAACMrFHWTeG1kGlZ8dcN4bWQQAAQFuP1HNA
AAAAAAIUkYZeN4bWQWZOxnk3htZBAADAr36kekAAAAAAAgWnhn43htZBTikFfzeG1kEA
AABCH8R6QAAAAAACK78GfzeG1kG05oZ/N4bWQQAAQCQp5HpAAAAAAAOPjuiRN4bWQY+O
6JE3htZBAABg+6gsf0AAAAAABK97B5s3htZBr3sHmzeG1kEAADgiMrqAQAAAAAADL6Yi
ozeG1kEvpiKjN4bWQQAAQHKXvYFAAAAAAAR/oUatN4bWQX+hRq03htZBAADA2xYCg0AA
AAAAA15/48g3htZBXn/jyDeG1kEAADCYsnWGQAAAAAAE1bLHBDiG1kHVsscEOIbWQQAA
8AU58o1AAAAAAAJQj8aAN4bWQQEXxgU4htZBAABAiAUSjkAAAAAAA+0tpxM4htZB7S2n
EziG1kEAAECIBRKOQAAAAAAEUffFFziG1kFR98UXOIbWQQAAQIgFEo5AAAAAAAI0ocYX
OIbWQb5oJ2o4htZBCKzclvNOlEAAAAAAAuUqiXU4htZBatwmejiG1kEIrCyvzpiUQAAA
AAACeh3GfjiG1kFfeiSAOIbWQQisfH20rpRAAAAAAAI+lYyGOIbWQT4CxYc4htZBCKx8
TTvClEAAAAAAAmnHh4o4htZB1IGGjDiG1kEIrCz0JuKUQAAAAAACotbInDiG1kH4U8XZ
OIbWQQisjMnusZhAAAAAAAIw1YbbOIbWQYbmhNw4htZBCKzs3s/BmEAAAAAAAqUTxuQ4
htZBVKtFRzmG1kEIrNxZyemeQAAAAAACAK3GTzmG1kHcZSVTOYbWQQisnOe0H59AAAAA
AAI2eIZYOYbWQWafolo5htZBCKycWndBn0AAAAAAAnbhxFw5htZB8ptEXjmG1kEIrFwC
c1mfQAAAAAACaoSGYDmG1kHb4MRkOYbWQQisbMlYnZ9AAAAAAALUmAZnOYbWQbTjJGc5
htZBCKxsdz2fn0AAAAAAAoUkR2c5htZBT1wHaDmG1kEIrAz0QKufQAAAAAACJt4IajmG
1kG9VYRrOYbWQQisfG34wp9AAAAAAAL0MUVxOYbWQTjBCYU5htZBBFbesKB/oEAAAAAA
AvKaiZY5htZBrg2FlzmG1kEEVr5GfIegQAAAAAACRWRFmzmG1kESZobuOYbWQQRWJlWE
IaNAAAAAAAIxXAXyOYbWQYCBRPw5htZBBFaef31zo0AAAAAAAkCkhwo6htZBzjfgCzqG
1kEEVg4cQn6jQAAAAAAC7UjFDzqG1kEixCOAOobWQQRWtvU1AadAAAAAAAKoxkWCOobW
QX5VhIc6htZBBFZmbCorp0AAAAAAAqN2RYs6htZBezDFizqG1kEEViY7KC+nQAAAAAAC
EafGizqG1kGXHUSMOobWQQRWVu8TM6dAAAAAAAI3wgSPOobWQUFihI86htZBBFam7xA3
p0AAAAAAAnjrhY86htZBd6IEkDqG1kEEVp6nBjunQAAAAAACKXqGlTqG1kFjKYWWOobW
QQRWbiH8QqdAAAAAAAIQzoe4OobWQeMYRLo6htZBBFYGeN5Qp0AAAAAAAlJChsA6htZB
XDriwjqG1kEEVlY4vmOnQAAAAAADB5ai0DqG1kEHlqLQOobWQQRWpPituqdAAAAAAAQ4
SsTSOobWQThKxNI6htZBBFZumrvLp0AAAAAAAheexMU6htZBSs/D0zqG1kEEVu7Bt9On
QAAAAAACAmcE1TqG1kHdX9BGO4bWQQRWxogXYqtAAAAAAANqMhxsO4bWQWoyHGw7htZB
BFZ0bu1IrEAAAAAABGebF4A7htZBZ5sXgDuG1kEEVvq1yOisQAAAAAAD1T/dpDuG1kHV
P92kO4bWQQRWrNn1Dq5AAAAAAARvLUWpO4bWQW8tRak7htZBBFbgRjUyrkAAAAAAAtp1
QU87htZBHZPDajyG1kECK285FB+yQAAAAAAC4zRGcTyG1kEQkcN+PIbWQQIrI6oJVbJA
AAAAAAKYM8aCPIbWQfayQ4U8htZBAiubp/9eskAAAAAAAu5dRIk8htZBVFLEkTyG1kEC
KzN5/4CyQAAAAAAClpbFlDyG1kHM0p2VPIbWQQIrC2pghLJAAAAAAAJS04WYPIbWQWBV
xKE8htZBAitDclqpskAAAAAAAqzFQ608htZBsfrhszyG1kECK1dG08OyQAAAAAAC7GyF
tzyG1kHoa5u3PIbWQQIrR0IrxLJAAAAAAAJQGITaPIbWQZD13908htZBAitHt5rRskAA
AAAAAjiBSvg8htZBVDig+jyG1kECK7eT8dqyQAAAAAACUGyFKD2G1kEKvkIqPYbWQQIr
n9rm4bJAAAAAAAKg/QMsPYbWQdDSgi09htZBAitfL+LnskAAAAAAAqQ2gy89htZBXn8e
NT2G1kECK0dST/6yQAAAAAACakyDNz2G1kGQokI/PYbWQQIr36pMHbNAAAAAAALFjoVK
PYbWQS0JBFc9htZBAit/lEZPs0AAAAAAArnixXg9htZB1uHBej2G1kECK/OQNlezQAAA
AAACdR+Fgj2G1kE8wBmMPYbWQQIrDxSJfbNAAAAAAAKO58STPYbWQWzpxLY9htZBAiuH
G4kJtEAAAAAAAlGFA7k9htZBOPMaxD2G1kECKyPT5jW0QAAAAAACc7nCxz2G1kFBD8LY
PYbWQQIrWyrkebRAAAAAAAI0f0TePYbWQclanvk9htZBAiuvmEvntEAAAAAAAvYJCP09
htZBFjSgGz6G1kECKy9BrGG1QAAAAAACFakHHz6G1kFxV4YiPobWQQIrn/qmb7VAAAAA
AAKISAYmPobWQV9DRlE+htZBAiv75aYctkAAAAAAAmUaiF4+htZBZVUGYj6G1kECK/vR
nyq2QAAAAAACArqHZj6G1kFmvJ1vPobWQQIri9v3TrZAAAAAAAIGSoh1PobWQWaHxoc+
htZBAisL0fCXtkAAAAAAAnjRBpE+htZBSRNGmT6G1kECK0/Y7bi2QAAAAAACwcmHnT6G
1kHRk4WoPobWQQIrjwDl5LZAAAAAAAKHMgesPobWQekPxbA+htZBAisXdtz3tkAAAAAA
Apxsn7o+htZBWikgwz6G1kECKw9p3xm3QAAAAAAChc9Exz6G1kEY6RrJPobWQQIrW883
IbdAAAAAAAKKXIfdPobWQccOhN4+htZBAitPmColt0AAAAAAAkZcx+Q+htZBxqfE/D6G
1kECK0/GH4W3QAAAAAACqkhO/z6G1kHhlsUdP4bWQQIrK//8/rdAAAAAAAJubsokP4bW
QZm5xEQ/htZBAivXK+Z+uEAAAAAAAkmEBEo/htZBiujESj+G1kECK9u854G4QAAAAAAC
RkHFWT+G1kFt5Z1bP4bWQQIrd01KibhAAAAAAALLEcZeP4bWQcL3g2E/htZBAitT5UGU
uEAAAAAAAmxBCYE/htZBAP4Egj+G1kECK6PXMJi4QAAAAAACEobUhz+G1kF6GsiJP4bW
QQIrQyn/n7hAAAAAAAIFNYyfP4bWQdQmBKM/htZBAit/8N6tuEAAAAAAAlEwx6U/htZB
t2LZsz+G1kECKxe6J+a4QAAAAAACxqVIwT+G1kFUyl7TP4bWQQIrT0yALrlAAAAAAALM
JgbWP4bWQWJIxNk/htZBAiun0ng9uUAAAAAAAvTDht4/htZBNskY6T+G1kECK6/nwGe5
QAAAAAACCvWF7D+G1kGgi9vtP4bWQQIrB0IXbblAAAAAAAIvTkfzP4bWQataBPg/htZB
Aiv3cwuAuUAAAAAAAhO5Rf0/htZB6l3E/T+G1kECK1MHBoK5QAAAAAACwk6E/z+G1kEF
ioQDQIbWQQIrX/QGkrlAAAAAAALC+UUIQIbWQWEXBhFAhtZBAivbage1uUAAAAAAAme3
RhRAhtZBrYXdH0CG1kECK/OjYuO5QAAAAAAC/z2GMUCG1kGJskVBQIbWQQIrG3ZgIrpA
AAAAAALc2BNLQIbWQRhbW3JAhtZBAisLf36/ukAAAAAAArU1k3VAhtZB3xoYh0CG1kEC
K7MTkgW7QAAAAAACDOTFiECG1kHVP0OQQIbWQQIr14KHI7tAAAAAAAJuUQSSQIbWQZ9z
mJRAhtZBAiubC9gtu0AAAAAAAnUFBZhAhtZBHFwZqkCG1kECKzdmKXa7QAAAAAACQgRE
rkCG1kFnSJqyQIbWQQIry3aCh7tAAAAAAAKln8S0QIbWQXr8hLZAhtZBAisf6oOOu0AA
AAAAAqCKBbxAhtZB78bD4UCG1kECK1vbfCW8QAAAAAAC7PaD5ECG1kHaWpvpQIbWQQIr
E2vaObxAAAAAAAIu40bxQIbWQdP1Q/VAhtZBAiuntc5JvEAAAAAAAuwRhf5AhtZBiBME
AEGG1kECKxe8yk+8QAAAAAACa4AFAkGG1kHcSUM2QYbWQQIr2+HBIL1AAAAAAAJLHgg7
QYbWQc5OwjxBhtZBAivno6onvUAAAAAAAtRmyk1BhtZBDyvmWkGG1kECK9O0GVy9QAAA
AAACmrGGYkGG1kH2shlyQYbWQQIrQ7plmr1AAAAAAAJo68wiQobWQQlSQyRChtZBAivH
VD+gvUAAAAAAAhgIhCZChtZBTU1DJ0KG1kECK5tpPKO9QAAAAAACswhLJ0KG1kF+U4Mn
QobWQQIrx5QdpL1AAAAAAAI6XEcpQobWQcpSmi1ChtZBAisHb2m1vUAAAAAAAmJLiDZC
htZBsDyCOEKG1kECKz80Ub29QAAAAAACmL/ERkKG1kGj6IJHQobWQQIra9hJwL1AAAAA
AAJ4ZIRHQobWQYZzwkdChtZBAiujFELBvUAAAAAAAmKHhVpChtZBzPGaXkKG1kECK0u+
l9G9QAAAAAAC1ZPEckKG1kFFnVh6QobWQQIrC+Tn771AAAAAAAJ870R9QobWQSIbSYZC
htZBAiujkvgTvkAAAAAAArQdRIhChtZB6GdZlUKG1kECK3O7TUi+QAAAAAAC9Z3IoEKG
1kG+goOoQobWQQIrl045Z75AAAAAAAIm5kSsQobWQYbilaxChtZBAisXQH1ovkAAAAAA
AkVmw6xChtZBobxDrUKG1kECK4eZfmq+QAAAAAACfT3LrkKG1kEa+0K/QobWQQIr+49d
rL5AAAAAAAIj3AbCQobWQSgt2cJChtZBAisP1KavvkAAAAAAAqc8xdNChtZB3dGD6kKG
1kECK+cooQq/QAAAAAAC3qrM9UKG1kFaoAL3QobWQQIr1/54D79AAAAAAALPEwlmQ4bW
QQHAwnhDhtZBAiufr19av0AAAAAAAvZCDLpDhtZBbD4Uu0OG1kECK3edf16/QAAAAAAC
do6F0EOG1kGS5QLUQ4bWQQIr5/l0bL9AAAAAAAKuvUTgQ4bWQWOYwulDhtZBAiu7ZGyS
v0AAAAAAAkZeg+tDhtZB3dHC70OG1kECKxczaqO/QAAAAAACog4E9EOG1kE7xwP8Q4bW
QQIrexVpw79AAAAAAAM+WRUMRIbWQT5ZFQxEhtZBAit7FWnDv0AAAAAABE6BghNEhtZB
ToGCE0SG1kECK3sVacO/QAAAAAACdlGDE0SG1kGscUpmRIbWQYGVKcsyi8BAAAAAAAIu
PUyARYbWQXycRudFhtZBgZXFiSdZwUAAAAAAAjXsRexFhtZBFHlE70WG1kGBlYOjJF/B
QAAAAAACVJBG8kWG1kEZA4b3RYbWQYGVDYmjacFAAAAAAALXwAUCRobWQeCcBjBGhtZB
gZUfQaXFwUAAAAAAAnLGhjJGhtZBhpBEVUaG1kGBlUfVIAvCQAAAAAACBD3FV0aG1kGy
L9dwRobWQYGVo7pEPcJAAAAAAAJxrIZ6RobWQZSg6H5GhtZBgZXpoghGwkAAAAAAAjoE
RYVGhtZBTKiEk0aG1kGBlQ3rh2LCQAAAAAAC+nwFl0aG1kHKMoWuRobWQYGVrVaHkcJA
AAAAAAKWHwe2RobWQXF0kLxGhtZBgZVjAJqewkAAAAAAAubIScBGhtZBCvMDyUaG1kGB
latUDrDCQAAAAAACsMnEy0aG1kFsBgTnRobWQYGVI86M5sJAAAAAAAI1l0b2RobWQTCb
BPhGhtZBgZUZ1gjqwkAAAAAAApfIhPxGhtZB/u0D/UaG1kGBlecgB+vCQAAAAAACKnEF
/UaG1kGAYYr9RobWQYGVkwER7MJAAAAAAAJ2F+gER4bWQWZORQ1HhtZBgZVzb8v8wkAA
AAAAAn2ShQ5HhtZBVKYTFUeG1kGBlSGX5wnDQAAAAAACz2gHG0eG1kEgJMQbR4bWQYGV
ww1hC8NAAAAAAAJ1WYQeR4bWQQ5lQ1pHhtZBgZX1JN+Cw0AAAAAAAg2pBlxHhtZBr19D
XUeG1kGBlTmSWIXDQAAAAAAC9kLEXkeG1kHG20KDR4bWQYGV2cNVzsNAAAAAAAL2l8WG
R4bWQd6tgo1HhtZBgZWp78/bw0AAAAAAAo4FxJhHhtZBSirGPVCG1kHAypAc6pLSQAAA
AAACCk7HRlCG1kGgqISbUIbWQcDKJnen59JAAAAAAAJXz4adUIbWQfAwhddQhtZBwMq/
2KUh00AAAAAAAjQvhtlQhtZB/DgE8lCG1kHAyofiIzrTQAAAAAACRmKOOVGG1kFDA0Re
UYbWQcDKhIPZXtNAAAAAAAJ/S4ZiUYbWQSJwBGlRhtZBwMonqFdl00AAAAAAAkPHBnpR
htZBr18DfFGG1kHAypNAVGfTQAAAAAACiPADgFGG1kF8YUOBUYbWQcDKh7GTaNNAAAAA
AAJTkgaHUYbWQRGqA4pRhtZBwMpFyZBr00AAAAAAAlLwxI1RhtZB12jDj1GG1kHAyspB
j23TQAAAAAAC2XjGl1GG1kG04sStUYbWQcDKpauNg9NAAAAAAALuBUSwUYbWQUfJQ7RR
htZBwMr+bo2H00AAAAAAAnr8xbxRhtZBVkcEvlGG1kHAytq5y4jTQAAAAAAC+p2EwFGG
1kHrxwTCUYbWQcDKy+NLitNAAAAAAALgggXHUYbWQQrZg9FRhtZBwMr1OcqU00AAAAAA
AvpkRtVRhtZBvMnD11GG1kHAyreeR5fTQAAAAAAC7kFF2VGG1kFIiMPmUYbWQcDKEeXF
pNNAAAAAAAJef0XtUYbWQRCzRO5RhtZBwMrDGMWl00AAAAAAAvFHhPBRhtZBVG4E8VGG
1kHAyiY/RabTQAAAAAACEtjHMVKG1kG/SIQyUobWQcDK068Bp9NAAAAAAALrGoYyUobW
QZqXxTJShtZBwMqCLEGn00AAAAAAAiDvRThShtZBoWcFQVKG1kHAygOlALDTQAAAAAAC
+oAEQ1KG1kEMq4ROUobWQcDKFc+Au9NAAAAAAAK5qoRaUobWQbUyRFtShtZBwMoRV0C8
00AAAAAAAn7IhmlShtZBol1DbVKG1kHAyjXs/L/TQAAAAAACSG4Fb1KG1kHZlMN7UobW
QcDKxhK7zNNAAAAAAAKsVkeBUobWQT0qg4dShtZBwMpX5vbS00AAAAAAAnYyiIxShtZB
kGtDl1KG1kHAynEfst3TQAAAAAACvVNFm1KG1kE3xMSkUobWQcDK648x59NAAAAAAAIs
7gSzUobWQeqwA7ZShtZBwMqpUjDq00AAAAAAAvmFx7lShtZBYcYCv1KG1kHAyhGTa+/T
QAAAAAACe6GFyFKG1kFXQQPJUobWQcDK7TLp79NAAAAAAAKSdAfPUobWQRh9BdBShtZB
wMpzO+fw00AAAAAAArRzBdRShtZBz6IC2FKG1kHAyo5q5PTTQAAAAAAC4NTD21KG1kH+
f4PkUobWQcDKrBWk/dNAAAAAAALRWETqUobWQXV1gu5ShtZBwMpQMuIB1EAAAAAAAoFa
Q/BShtZBU5PC+1KG1kHAyiJrYQ3UQAAAAAACEOmDAFOG1kEPuEIXU4bWQcDKITogJNRA
AAAAAAKuYgMaU4bWQe85wxpThtZBwMpiEeAk1EAAAAAAAgXBxBpThtZBlrECG1OG1kHA
yvMBHiXUQAAAAAACR5FDJVOG1kGZ8gItU4bWQcDKRWPdLNRAAAAAAAKHpkMvU4bWQZ1n
BDlThtZBwMpbJJ421EAAAAAAArzlwztThtZBTHFCS1OG1kHAyuuvHEbUQAAAAAACaB8D
TlOG1kGvW0RQU4bWQcDKMuxdSNRAAAAAAAIno0RdU4bWQZzcw3JThtZBwMqnJd1d1EAA
AAAAAtLGhHpThtZBPuvChFOG1kHAyhNKG2jUQAAAAAACS1hDhlOG1kFkHcKJU4bWQcDK
LA+aa9RAAAAAAALGh8ONU4bWQeOpgpFThtZBwMpJMVlv1EAAAAAAAuPEw5NThtZBpiyC
oFOG1kHAygyZF3zUQAAAAAAC7+aColOG1kGSBkKjU4bWQcDKr7jWfNRAAAAAAAKIhUOj
U4bWQUoOgqNThtZBwMpxQRV91EAAAAAAAuVhA6pThtZB0cvDrFOG1kHAyl2r1X/UQAAA
AAAC6piDvVOG1kGGG0beU4bWQcDK+S2YoNRAAAAAAAI7/QbwU4bWQZBsRfVThtZBwMpO
ndal1EAAAAAAAlLXBvpThtZBfjRG/FOG1kHAynr6FajUQAAAAAAC6N6F/lOG1kGKPsgP
VIbWQcDKHFpYudRAAAAAAALOyEcVVIbWQTD3hhZUhtZBwMp+iJe61EAAAAAAAgCnBRpU
htZBt37GG1SG1kHAyjVgWLzUQAAAAAACt7YGKFSG1kEW2oQqVIbWQcDKlIPWvtRAAAAA
AAKl90UsVIbWQVbxRS9UhtZBwMpFfdbB1EAAAAAAAgmMRTNUhtZBzhkFOFSG1kHAygoL
lsbUQAAAAAACGJVFPFSG1kFuEgU/VIbWQcDKYIhVydRAAAAAAALKUUdFVIbWQZBoxkdU
htZBwMomn9TL1EAAAAAAArDmhUpUhtZBHjQIVlSG1kHAypTsVtfUQAAAAAACqmTMglSG
1kHs+XeIVIbWQcDK1oEC3dRAAAAAAAK8rASLVIbWQXtrxJFUhtZBwMqVQMLj1EAAAAAA
AppBB5hUhtZB9wQFpFSG1kHAyvIDwO/UQAAAAAACsflGplSG1kE+eEWtVIbWQcDKf4K+
9tRAAAAAAALBkIrDVIbWQULuhMVUhtZBwMoA4Lj41EAAAAAAAjlHSOFUhtZBrqBG6lSG
1kHAynU5twHVQAAAAAACPMHH71SG1kF6NYQMVYbWQcDKs61zHtVAAAAAAAIe38cQVYbW
QQ5MxU5VhtZBwMqjGnFc1UAAAAAAAtHpRFBVhtZBAB6GbVWG1kHAytJOsnnVQAAAAAAC
UtDIb1WG1kGqKAWtVYbWQcDKKqfuttVAAAAAAAFngMewVYbWQUs7SNJVhtZBwMoOYm/Y
1UAAAAAAAAAAAA==
</bin>
</fpdata>
</extensions>
</gpx>
